Site Date RecNum LW_MEAN_3000_0_04 LWDRY_TOT_3000_0_04 LWCON_TOT_3000_0_04 LWWET_TOT_3000_0_04 LW_MEAN_4000_0_05 LWDRY_TOT_4000_0_05 LWCON_TOT_4000_0_05 LWWET_TOT_4000_0_05 LW_MEAN_5000_0_06 LWDRY_TOT_5000_0_06 LWCON_TOT_5000_0_06 LWWET_TOT_5000_0_06 AIRTEMP_MEAN_5000_0_06 RELHUM_MEAN_5000_0_06 DEWPT_MEAN_5000_0_06 WSPD_SNC_MEAN_5000_0_02 WSPD_SNC_MAG_5000_0_02 WDIR_SNC_MEAN_5000_0_02 WDIR_SNC_STDDEV_5000_0_02 WSPD_SNC_MAX_5000_0_02 AIRTEMP_MAX_5000_0_06 AIRTEMP_MIN_5000_0_06 RELHUM_MAX_5000_0_06 RELHUM_MIN_5000_0_06 SATVAPAIR_MEAN_5000_0_06 SATVAPDEW_MEAN_5000_0_06 VPD_MEAN_5000_0_06
DSCMET_421 2016-10-01 00:00:00 17115 261.300 5.0000 0.0000 0.0000 262.300 5.0000 0.0000 0.0000 280.000 0.0000 5.0000 0.0000 8.480 82.900 5.746 0.000 0.000 0.000 0.000 0.000         11.083 9.188 1.895
DSCMET_421 2016-09-30 23:55:00 17114 261.300 5.0000 0.0000 0.0000 262.300 5.0000 0.0000 0.0000 283.200 0.0000 3.7500 1.2500 8.570 82.600 5.782 0.000 0.000 0.000 0.000 0.000         11.151 9.210 1.940
DSCMET_421 2016-09-30 23:50:00 17113 261.300 5.0000 0.0000 0.0000 262.300 5.0000 0.0000 0.0000 283.600 0.0000 3.0000 2.0000 8.560 81.700 5.614 0.000 0.000 0.000 0.000 0.000         11.143 9.104 2.039
DSCMET_421 2016-09-30 23:45:00 17112 261.300 5.0000 0.0000 0.0000 262.300 5.0000 0.0000 0.0000 282.600 0.0000 4.2500 0.7500 8.740 80.500 5.577 0.000 0.000 0.000 0.000 0.000         11.280 9.080 2.200
DSCMET_421 2016-09-30 23:40:00 17111 261.300 5.0000 0.0000 0.0000 262.300 5.0000 0.0000 0.0000 282.400 0.0000 4.0000 1.0000 8.800 79.890 5.526 0.000 0.000 0.000 0.000 0.000         11.326 9.048 2.278
DSCMET_421 2016-09-30 23:35:00 17110 261.300 5.0000 0.0000 0.0000 262.300 5.0000 0.0000 0.0000 282.000 0.0000 4.5000 0.5000 8.740 79.750 5.442 0.000 0.000 0.000 0.000 0.000         11.280 8.996 2.284
DSCMET_421 2016-09-30 23:30:00 17109 261.300 5.0000 0.0000 0.0000 262.300 5.0000 0.0000 0.0000 279.500 0.0000 5.0000 0.0000 8.670 80.400 5.491 0.000 0.000 0.000 0.000 0.000         11.226 9.026 2.200
DSCMET_421 2016-09-30 23:25:00 17108 261.300 5.0000 0.0000 0.0000 262.200 5.0000 0.0000 0.0000 281.300 0.0000 5.0000 0.0000 8.650 80.800 5.543 0.000 0.000 0.000 0.000 0.000         11.211 9.059 2.153
DSCMET_421 2016-09-30 23:20:00 17107 261.300 5.0000 0.0000 0.0000 262.100 5.0000 0.0000 0.0000 280.700 0.0000 5.0000 0.0000 8.650 80.400 5.471 0.000 0.000 0.000 0.000 0.000         11.211 9.014 2.197
DSCMET_421 2016-09-30 23:15:00 17106 261.300 5.0000 0.0000 0.0000 262.100 5.0000 0.0000 0.0000 282.700 0.0000 3.2500 1.7500 8.700 79.990 5.447 0.000 0.000 0.000 0.000 0.000         11.249 8.998 2.251
DSCMET_421 2016-09-30 23:10:00 17105 261.300 5.0000 0.0000 0.0000 262.100 5.0000 0.0000 0.0000 291.500 0.0000 0.0000 5.0000 8.830 79.030 5.399 0.000 0.000 0.000 0.000 0.000         11.349 8.969 2.380
DSCMET_421 2016-09-30 23:05:00 17104 261.300 5.0000 0.0000 0.0000 262.000 5.0000 0.0000 0.0000 292.100 0.0000 0.0000 5.0000 8.760 79.280 5.377 0.000 0.000 0.000 0.000 0.000         11.295 8.955 2.340
DSCMET_421 2016-09-30 23:00:00 17103 261.300 5.0000 0.0000 0.0000 262.000 5.0000 0.0000 0.0000 291.300 0.0000 0.0000 5.0000 8.600 80.500 5.440 0.000 0.000 0.000 0.000 0.000         11.173 8.994 2.179
DSCMET_421 2016-09-30 22:55:00 17102 261.300 5.0000 0.0000 0.0000 262.000 5.0000 0.0000 0.0000 289.900 0.0000 0.5000 4.5000 8.510 81.200 5.477 0.000 0.000 0.000 0.000 0.000         11.105 9.018 2.088
DSCMET_421 2016-09-30 22:50:00 17101 261.300 5.0000 0.0000 0.0000 262.000 5.0000 0.0000 0.0000 281.600 0.0000 5.0000 0.0000 8.560 80.400 5.384 0.000 0.000 0.000 0.000 0.000         11.143 8.959 2.184
DSCMET_421 2016-09-30 22:45:00 17100 261.300 5.0000 0.0000 0.0000 262.000 5.0000 0.0000 0.0000 283.000 0.0000 4.2500 0.7500 8.850 78.450 5.313 0.000 0.000 0.000 0.000 0.000         11.364 8.915 2.449
DSCMET_421 2016-09-30 22:40:00 17099 261.300 5.0000 0.0000 0.0000 262.000 5.0000 0.0000 0.0000 283.900 0.0000 5.0000 0.0000 8.630 79.330 5.259 0.000 0.000 0.000 0.000 0.000         11.196 8.882 2.314
DSCMET_421 2016-09-30 22:35:00 17098 261.300 5.0000 0.0000 0.0000 262.000 5.0000 0.0000 0.0000 284.300 0.0000 4.5000 0.5000 8.510 80.400 5.335 0.000 0.000 0.000 0.000 0.000         11.105 8.929 2.177
DSCMET_421 2016-09-30 22:30:00 17097 261.300 5.0000 0.0000 0.0000 262.000 5.0000 0.0000 0.0000 288.000 0.0000 0.0000 5.0000 8.610 79.290 5.233 0.000 0.000 0.000 0.000 0.000         11.181 8.865 2.316
DSCMET_421 2016-09-30 22:25:00 17096 261.300 5.0000 0.0000 0.0000 262.000 5.0000 0.0000 0.0000 288.300 0.0000 0.0000 5.0000 8.550 79.370 5.189 0.000 0.000 0.000 0.000 0.000         11.135 8.838 2.297
DSCMET_421 2016-09-30 22:20:00 17095 261.300 5.0000 0.0000 0.0000 262.000 5.0000 0.0000 0.0000 286.800 0.0000 0.0000 5.0000 8.570 79.840 5.293 0.000 0.000 0.000 0.000 0.000         11.151 8.903 2.248
DSCMET_421 2016-09-30 22:15:00 17094 261.300 5.0000 0.0000 0.0000 262.000 5.0000 0.0000 0.0000 286.500 0.0000 0.5000 4.5000 8.470 80.000 5.224 0.000 0.000 0.000 0.000 0.000         11.075 8.860 2.215
DSCMET_421 2016-09-30 22:10:00 17093 261.300 5.0000 0.0000 0.0000 262.000 5.0000 0.0000 0.0000 282.000 0.0000 5.0000 0.0000 8.440 80.400 5.267 0.000 0.000 0.000 0.000 0.000         11.053 8.886 2.166
DSCMET_421 2016-09-30 22:05:00 17092 261.300 5.0000 0.0000 0.0000 262.000 5.0000 0.0000 0.0000 281.700 0.0000 5.0000 0.0000 8.450 80.800 5.348 0.000 0.000 0.000 0.000 0.000         11.060 8.937 2.124
DSCMET_421 2016-09-30 22:00:00 17091 261.300 5.0000 0.0000 0.0000 262.000 5.0000 0.0000 0.0000 276.300 0.0000 5.0000 0.0000 8.460 80.100 5.233 0.000 0.000 0.000 0.000 0.000         11.068 8.865 2.202
DSCMET_421 2016-09-30 21:55:00 17090 261.200 5.0000 0.0000 0.0000 262.000 5.0000 0.0000 0.0000 277.300 0.0000 4.5000 0.5000 8.300 80.600 5.166 0.000 0.000 0.000 0.000 0.000         10.948 8.824 2.124
DSCMET_421 2016-09-30 21:50:00 17089 261.200 5.0000 0.0000 0.0000 262.000 5.0000 0.0000 0.0000 286.000 0.0000 0.0000 5.0000 8.310 80.600 5.176 0.000 0.000 0.000 0.000 0.000         10.956 8.830 2.125
DSCMET_421 2016-09-30 21:45:00 17088 261.100 5.0000 0.0000 0.0000 262.000 5.0000 0.0000 0.0000 286.500 0.0000 0.0000 5.0000 8.340 80.300 5.151 0.000 0.000 0.000 0.000 0.000         10.978 8.815 2.163
DSCMET_421 2016-09-30 21:40:00 17087 261.000 5.0000 0.0000 0.0000 262.000 5.0000 0.0000 0.0000 287.300 0.0000 0.0000 5.0000 8.300 81.100 5.255 0.000 0.000 0.000 0.000 0.000         10.948 8.879 2.069
DSCMET_421 2016-09-30 21:35:00 17086 261.000 5.0000 0.0000 0.0000 262.000 5.0000 0.0000 0.0000 288.000 0.0000 0.0000 5.0000 8.320 81.200 5.292 0.000 0.000 0.000 0.000 0.000         10.963 8.902 2.061
DSCMET_421 2016-09-30 21:30:00 17085 261.100 5.0000 0.0000 0.0000 262.000 5.0000 0.0000 0.0000 292.200 0.0000 0.0000 5.0000 8.160 81.500 5.189 0.000 0.000 0.000 0.000 0.000         10.844 8.838 2.006
DSCMET_421 2016-09-30 21:25:00 17084 261.000 5.0000 0.0000 0.0000 262.000 5.0000 0.0000 0.0000 293.000 0.0000 0.0000 5.0000 8.080 82.100 5.216 0.000 0.000 0.000 0.000 0.000         10.786 8.855 1.931
DSCMET_421 2016-09-30 21:20:00 17083 261.000 5.0000 0.0000 0.0000 262.000 5.0000 0.0000 0.0000 294.400 0.0000 0.0000 5.0000 8.080 81.400 5.093 0.000 0.000 0.000 0.000 0.000         10.786 8.779 2.006
DSCMET_421 2016-09-30 21:15:00 17082 261.000 5.0000 0.0000 0.0000 262.000 5.0000 0.0000 0.0000 284.400 0.0000 0.7500 4.2500 8.190 80.700 5.077 0.000 0.000 0.000 0.000 0.000         10.867 8.769 2.097
DSCMET_421 2016-09-30 21:10:00 17081 261.000 5.0000 0.0000 0.0000 262.000 5.0000 0.0000 0.0000 286.000 0.0000 2.2500 2.7500 8.040 82.100 5.177 0.000 0.000 0.000 0.000 0.000         10.756 8.831 1.925
DSCMET_421 2016-09-30 21:05:00 17080 261.000 5.0000 0.0000 0.0000 262.000 5.0000 0.0000 0.0000 286.100 0.5000 0.0000 4.5000 8.090 81.500 5.120 0.000 0.000 0.000 0.000 0.000         10.793 8.796 1.997
DSCMET_421 2016-09-30 21:00:00 17079 261.000 5.0000 0.0000 0.0000 262.000 5.0000 0.0000 0.0000 272.000 5.0000 0.0000 0.0000 8.110 81.200 5.087 0.000 0.000 0.000 0.000 0.000         10.808 8.776 2.032
DSCMET_421 2016-09-30 20:55:00 17078 261.000 5.0000 0.0000 0.0000 262.000 5.0000 0.0000 0.0000 273.200 4.5000 0.5000 0.0000 8.170 80.900 5.092 0.000 0.000 0.000 0.000 0.000         10.852 8.779 2.073
DSCMET_421 2016-09-30 20:50:00 17077 261.000 5.0000 0.0000 0.0000 262.000 5.0000 0.0000 0.0000 284.600 0.0000 2.2500 2.7500 8.080 81.500 5.111 0.000 0.000 0.000 0.000 0.000         10.786 8.790 1.995
DSCMET_421 2016-09-30 20:45:00 17076 261.000 5.0000 0.0000 0.0000 262.000 5.0000 0.0000 0.0000 284.800 0.0000 2.2500 2.7500 8.080 81.400 5.093 0.000 0.000 0.000 0.000 0.000         10.786 8.779 2.006
DSCMET_421 2016-09-30 20:40:00 17075 261.000 5.0000 0.0000 0.0000 261.700 5.0000 0.0000 0.0000 279.700 0.0000 5.0000 0.0000 8.030 82.100 5.167 0.000 0.000 0.000 0.000 0.000         10.749 8.825 1.924
DSCMET_421 2016-09-30 20:35:00 17074 261.000 5.0000 0.0000 0.0000 261.600 5.0000 0.0000 0.0000 279.700 0.0000 5.0000 0.0000 8.140 81.100 5.099 0.000 0.000 0.000 0.000 0.000         10.830 8.783 2.047
DSCMET_421 2016-09-30 20:30:00 17073 261.000 5.0000 0.0000 0.0000 261.600 5.0000 0.0000 0.0000 280.900 0.0000 5.0000 0.0000 8.290 80.100 5.067 0.000 0.000 0.000 0.000 0.000         10.941 8.763 2.177
DSCMET_421 2016-09-30 20:25:00 17072 260.900 5.0000 0.0000 0.0000 261.600 5.0000 0.0000 0.0000 281.100 0.0000 5.0000 0.0000 8.410 79.730 5.117 0.000 0.000 0.000 0.000 0.000         11.030 8.794 2.236
DSCMET_421 2016-09-30 20:20:00 17071 260.900 5.0000 0.0000 0.0000 261.600 5.0000 0.0000 0.0000 275.700 0.0000 5.0000 0.0000 8.920 76.600 5.039 0.000 0.000 0.000 0.000 0.000         11.418 8.746 2.672
DSCMET_421 2016-09-30 20:15:00 17070 260.900 5.0000 0.0000 0.0000 261.600 5.0000 0.0000 0.0000 282.700 0.0000 3.7500 1.2500 9.000 75.920 4.988 0.000 0.000 0.000 0.000 0.000         11.480 8.715 2.764
DSCMET_421 2016-09-30 20:10:00 17069 260.600 5.0000 0.0000 0.0000 261.600 5.0000 0.0000 0.0000 275.100 0.0000 5.0000 0.0000 8.780 78.350 5.227 0.000 0.000 0.000 0.000 0.000         11.310 8.862 2.449
DSCMET_421 2016-09-30 20:05:00 17068 260.600 5.0000 0.0000 0.0000 261.600 5.0000 0.0000 0.0000 276.100 0.0000 5.0000 0.0000 8.990 77.080 5.196 0.000 0.000 0.000 0.000 0.000         11.472 8.843 2.629
DSCMET_421 2016-09-30 20:00:00 17067 260.600 5.0000 0.0000 0.0000 261.600 5.0000 0.0000 0.0000 277.900 0.0000 5.0000 0.0000 9.050 76.830 5.207 0.000 0.000 0.000 0.000 0.000         11.519 8.850 2.669
DSCMET_421 2016-09-30 19:55:00 17066 260.600 5.0000 0.0000 0.0000 261.600 5.0000 0.0000 0.0000 278.200 0.0000 5.0000 0.0000 8.940 77.600 5.244 0.000 0.000 0.000 0.000 0.000         11.433 8.872 2.561
DSCMET_421 2016-09-30 19:50:00 17065 260.600 5.0000 0.0000 0.0000 261.600 5.0000 0.0000 0.0000 280.600 0.0000 5.0000 0.0000 9.040 76.880 5.207 0.000 0.000 0.000 0.000 0.000         11.511 8.850 2.661
DSCMET_421 2016-09-30 19:45:00 17064 260.600 5.0000 0.0000 0.0000 261.300 5.0000 0.0000 0.0000 280.500 0.0000 5.0000 0.0000 9.030 76.840 5.190 0.000 0.000 0.000 0.000 0.000         11.503 8.839 2.664
DSCMET_421 2016-09-30 19:40:00 17063 260.600 5.0000 0.0000 0.0000 261.300 5.0000 0.0000 0.0000 275.800 0.0000 5.0000 0.0000 9.040 76.960 5.222 0.000 0.000 0.000 0.000 0.000         11.511 8.859 2.652
DSCMET_421 2016-09-30 19:35:00 17062 260.600 5.0000 0.0000 0.0000 261.300 5.0000 0.0000 0.0000 275.900 0.0000 5.0000 0.0000 9.270 75.740 5.215 0.000 0.000 0.000 0.000 0.000         11.691 8.855 2.836
DSCMET_421 2016-09-30 19:30:00 17061 260.600 5.0000 0.0000 0.0000 261.300 5.0000 0.0000 0.0000 286.800 0.0000 0.5000 4.5000 9.460 74.730 5.206 0.000 0.000 0.000 0.000 0.000         11.841 8.849 2.992
DSCMET_421 2016-09-30 19:25:00 17060 260.400 5.0000 0.0000 0.0000 261.300 5.0000 0.0000 0.0000 285.800 0.0000 1.2500 3.7500 10.080 70.940 5.057 0.000 0.000 0.000 0.000 0.000         12.345 8.757 3.587
DSCMET_421 2016-09-30 19:20:00 17059 260.300 5.0000 0.0000 0.0000 261.300 5.0000 0.0000 0.0000 276.400 0.0000 5.0000 0.0000 9.790 72.740 5.137 0.000 0.000 0.000 0.000 0.000         12.107 8.807 3.300
DSCMET_421 2016-09-30 19:15:00 17058 260.300 5.0000 0.0000 0.0000 261.300 5.0000 0.0000 0.0000 276.500 0.0000 4.5000 0.5000 10.110 71.070 5.112 0.000 0.000 0.000 0.000 0.000         12.370 8.791 3.579
DSCMET_421 2016-09-30 19:10:00 17057 260.300 5.0000 0.0000 0.0000 261.100 5.0000 0.0000 0.0000 285.800 0.0000 0.7500 4.2500 9.870 72.620 5.191 0.000 0.000 0.000 0.000 0.000         12.172 8.839 3.333
DSCMET_421 2016-09-30 19:05:00 17056 260.200 5.0000 0.0000 0.0000 261.100 5.0000 0.0000 0.0000 283.200 0.2500 2.2500 2.5000 10.020 71.550 5.122 0.000 0.000 0.000 0.000 0.000         12.295 8.797 3.498
DSCMET_421 2016-09-30 19:00:00 17055 260.200 5.0000 0.0000 0.0000 261.200 5.0000 0.0000 0.0000 270.500 5.0000 0.0000 0.0000 10.300 70.190 5.116 0.000 0.000 0.000 0.000 0.000         12.528 8.793 3.735
DSCMET_421 2016-09-30 18:55:00 17054 260.200 5.0000 0.0000 0.0000 260.900 5.0000 0.0000 0.0000 269.500 5.0000 0.0000 0.0000 10.180 70.750 5.114 0.000 0.000 0.000 0.000 0.000         12.428 8.793 3.635
DSCMET_421 2016-09-30 18:50:00 17053 260.200 5.0000 0.0000 0.0000 260.900 5.0000 0.0000 0.0000 268.000 5.0000 0.0000 0.0000 10.270 70.500 5.150 0.000 0.000 0.000 0.000 0.000         12.503 8.814 3.688
DSCMET_421 2016-09-30 18:45:00 17052 260.200 5.0000 0.0000 0.0000 260.900 5.0000 0.0000 0.0000 269.900 4.5000 0.0000 0.5000 10.570 68.680 5.062 0.000 0.000 0.000 0.000 0.000         12.756 8.761 3.995
DSCMET_421 2016-09-30 18:40:00 17051 260.200 5.0000 0.0000 0.0000 260.900 5.0000 0.0000 0.0000 284.900 0.0000 2.7500 2.2500 10.760 68.140 5.131 0.000 0.000 0.000 0.000 0.000         12.918 8.802 4.116
DSCMET_421 2016-09-30 18:35:00 17050 260.200 5.0000 0.0000 0.0000 260.900 5.0000 0.0000 0.0000 287.300 0.5000 0.0000 4.5000 11.060 65.820 4.920 0.000 0.000 0.000 0.000 0.000         13.179 8.674 4.504
DSCMET_421 2016-09-30 18:30:00 17049 260.200 5.0000 0.0000 0.0000 260.900 5.0000 0.0000 0.0000 267.200 5.0000 0.0000 0.0000 10.950 68.370 5.360 0.000 0.000 0.000 0.000 0.000         13.083 8.945 4.138
DSCMET_421 2016-09-30 18:25:00 17048 260.200 5.0000 0.0000 0.0000 260.700 5.0000 0.0000 0.0000 376.700 4.7500 0.0000 0.2500 11.070 66.890 5.161 0.000 0.000 0.000 0.000 0.000         13.187 8.821 4.366
DSCMET_421 2016-09-30 18:20:00 17047 260.200 5.0000 0.0000 0.0000 260.600 5.0000 0.0000 0.0000 266.700 5.0000 0.0000 0.0000 11.410 66.090 5.312 0.000 0.000 0.000 0.000 0.000         13.488 8.914 4.574
DSCMET_421 2016-09-30 18:15:00 17046 260.100 5.0000 0.0000 0.0000 260.500 5.0000 0.0000 0.0000 1865.000 1.2500 0.0000 3.7500 11.760 60.380 4.350 0.000 0.000 0.000 0.000 0.000         13.804 8.335 5.469
DSCMET_421 2016-09-30 18:10:00 17045 260.100 5.0000 0.0000 0.0000 260.500 5.0000 0.0000 0.0000 2420.000 0.0000 0.0000 5.0000 11.850 61.300 4.651 0.000 0.000 0.000 0.000 0.000         13.886 8.512 5.374
DSCMET_421 2016-09-30 18:05:00 17044 259.900 5.0000 0.0000 0.0000 260.500 5.0000 0.0000 0.0000 2240.000 0.0000 0.5000 4.5000 11.960 63.210 5.194 0.000 0.000 0.000 0.000 0.000         13.988 8.842 5.146
DSCMET_421 2016-09-30 18:00:00 17043 259.800 5.0000 0.0000 0.0000 260.500 5.0000 0.0000 0.0000 268.600 4.7500 0.2500 0.0000 12.330 57.320 4.145 0.000 0.000 0.000 0.000 0.000         14.333 8.215 6.117
DSCMET_421 2016-09-30 17:55:00 17042 259.800 5.0000 0.0000 0.0000 260.500 5.0000 0.0000 0.0000 386.400 0.7500 2.5000 1.7500 12.570 56.150 4.076 0.000 0.000 0.000 0.000 0.000         14.560 8.176 6.385
DSCMET_421 2016-09-30 17:50:00 17041 259.800 5.0000 0.0000 0.0000 260.500 5.0000 0.0000 0.0000 280.000 0.0000 4.5000 0.5000 12.870 54.440 3.916 0.000 0.000 0.000 0.000 0.000         14.850 8.084 6.765
DSCMET_421 2016-09-30 17:45:00 17040 259.800 5.0000 0.0000 0.0000 260.500 5.0000 0.0000 0.0000 276.300 0.5000 4.5000 0.0000 13.100 52.950 3.735 0.000 0.000 0.000 0.000 0.000         15.075 7.982 7.093
DSCMET_421 2016-09-30 17:40:00 17039 259.800 5.0000 0.0000 0.0000 260.300 5.0000 0.0000 0.0000 264.100 5.0000 0.0000 0.0000 13.470 50.830 3.499 0.000 0.000 0.000 0.000 0.000         15.443 7.850 7.593
DSCMET_421 2016-09-30 17:35:00 17038 259.700 5.0000 0.0000 0.0000 260.100 5.0000 0.0000 0.0000 266.000 5.0000 0.0000 0.0000 13.700 48.610 3.079 0.000 0.000 0.000 0.000 0.000         15.676 7.620 8.056
DSCMET_421 2016-09-30 17:30:00 17037 259.500 5.0000 0.0000 0.0000 260.100 5.0000 0.0000 0.0000 270.600 5.0000 0.0000 0.0000 13.710 50.260 3.560 0.000 0.000 0.000 0.000 0.000         15.686 7.884 7.802
DSCMET_421 2016-09-30 17:25:00 17036 259.500 5.0000 0.0000 0.0000 260.100 5.0000 0.0000 0.0000 269.200 5.0000 0.0000 0.0000 14.050 48.450 3.354 0.000 0.000 0.000 0.000 0.000         16.037 7.770 8.267
DSCMET_421 2016-09-30 17:20:00 17035 259.500 5.0000 0.0000 0.0000 260.100 5.0000 0.0000 0.0000 261.200 5.0000 0.0000 0.0000 14.180 47.200 3.104 0.000 0.000 0.000 0.000 0.000         16.172 7.633 8.539
DSCMET_421 2016-09-30 17:15:00 17034 259.500 5.0000 0.0000 0.0000 260.100 5.0000 0.0000 0.0000 261.000 5.0000 0.0000 0.0000 14.420 45.600 2.837 0.000 0.000 0.000 0.000 0.000         16.426 7.490 8.935
DSCMET_421 2016-09-30 17:10:00 17033 259.500 5.0000 0.0000 0.0000 260.100 5.0000 0.0000 0.0000 259.900 5.0000 0.0000 0.0000 14.710 43.130 2.318 0.000 0.000 0.000 0.000 0.000         16.736 7.218 9.518
DSCMET_421 2016-09-30 17:05:00 17032 259.400 5.0000 0.0000 0.0000 260.100 5.0000 0.0000 0.0000 259.700 5.0000 0.0000 0.0000 14.890 42.520 2.281 0.000 0.000 0.000 0.000 0.000         16.932 7.199 9.732
DSCMET_421 2016-09-30 17:00:00 17031 259.100 5.0000 0.0000 0.0000 260.100 5.0000 0.0000 0.0000 259.100 5.0000 0.0000 0.0000 15.070 40.410 1.732 0.000 0.000 0.000 0.000 0.000         17.129 6.922 10.207
DSCMET_421 2016-09-30 16:55:00 17030 259.100 5.0000 0.0000 0.0000 260.100 5.0000 0.0000 0.0000 259.200 5.0000 0.0000 0.0000 15.210 39.830 1.656 0.000 0.000 0.000 0.000 0.000         17.284 6.884 10.400
DSCMET_421 2016-09-30 16:50:00 17029 259.300 5.0000 0.0000 0.0000 260.100 5.0000 0.0000 0.0000 259.800 5.0000 0.0000 0.0000 15.410 38.780 1.463 0.000 0.000 0.000 0.000 0.000         17.507 6.789 10.718
DSCMET_421 2016-09-30 16:45:00 17028 259.400 5.0000 0.0000 0.0000 260.100 5.0000 0.0000 0.0000 259.400 5.0000 0.0000 0.0000 15.560 38.620 1.539 0.000 0.000 0.000 0.000 0.000         17.676 6.827 10.850
DSCMET_421 2016-09-30 16:40:00 17027 259.400 5.0000 0.0000 0.0000 260.300 5.0000 0.0000 0.0000 259.300 5.0000 0.0000 0.0000 15.710 41.780 2.774 0.000 0.000 0.000 0.000 0.000         17.847 7.457 10.391
DSCMET_421 2016-09-30 16:35:00 17026 259.400 5.0000 0.0000 0.0000 260.400 5.0000 0.0000 0.0000 259.100 5.0000 0.0000 0.0000 15.860 40.610 2.510 0.000 0.000 0.000 0.000 0.000         18.019 7.318 10.702
DSCMET_421 2016-09-30 16:30:00 17025 259.400 5.0000 0.0000 0.0000 260.400 5.0000 0.0000 0.0000 259.100 5.0000 0.0000 0.0000 15.990 41.870 3.056 0.000 0.000 0.000 0.000 0.000         18.170 7.608 10.562
DSCMET_421 2016-09-30 16:25:00 17024 259.400 5.0000 0.0000 0.0000 260.200 5.0000 0.0000 0.0000 258.900 5.0000 0.0000 0.0000 16.120 43.380 3.674 0.000 0.000 0.000 0.000 0.000         18.321 7.948 10.373
DSCMET_421 2016-09-30 16:20:00 17023 259.400 5.0000 0.0000 0.0000 260.400 5.0000 0.0000 0.0000 258.800 5.0000 0.0000 0.0000 16.290 41.240 3.112 0.000 0.000 0.000 0.000 0.000         18.521 7.638 10.883
DSCMET_421 2016-09-30 16:15:00 17022 259.400 5.0000 0.0000 0.0000 260.400 5.0000 0.0000 0.0000 259.100 5.0000 0.0000 0.0000 16.540 41.850 3.545 0.000 0.000 0.000 0.000 0.000         18.818 7.875 10.943
DSCMET_421 2016-09-30 16:10:00 17021 259.400 5.0000 0.0000 0.0000 260.400 5.0000 0.0000 0.0000 259.100 5.0000 0.0000 0.0000 16.540 43.670 4.149 0.000 0.000 0.000 0.000 0.000         18.818 8.218 10.600
DSCMET_421 2016-09-30 16:05:00 17020 259.400 5.0000 0.0000 0.0000 260.400 5.0000 0.0000 0.0000 259.000 5.0000 0.0000 0.0000 16.680 41.060 3.401 0.000 0.000 0.000 0.000 0.000         18.986 7.796 11.190
DSCMET_421 2016-09-30 16:00:00 17019 259.400 5.0000 0.0000 0.0000 260.300 5.0000 0.0000 0.0000 259.000 5.0000 0.0000 0.0000 16.870 40.620 3.419 0.000 0.000 0.000 0.000 0.000         19.216 7.806 11.411
DSCMET_421 2016-09-30 15:55:00 17018 259.400 5.0000 0.0000 0.0000 260.400 5.0000 0.0000 0.0000 259.000 5.0000 0.0000 0.0000 16.930 40.020 3.263 0.000 0.000 0.000 0.000 0.000         19.290 7.720 11.570
DSCMET_421 2016-09-30 15:50:00 17017 259.400 5.0000 0.0000 0.0000 260.300 5.0000 0.0000 0.0000 259.100 5.0000 0.0000 0.0000 17.260 41.470 4.063 0.000 0.000 0.000 0.000 0.000         19.697 8.168 11.529
DSCMET_421 2016-09-30 15:45:00 17016 259.400 5.0000 0.0000 0.0000 260.100 5.0000 0.0000 0.0000 258.900 5.0000 0.0000 0.0000 17.180 39.120 3.165 0.000 0.000 0.000 0.000 0.000         19.597 7.667 11.931
DSCMET_421 2016-09-30 15:40:00 17015 259.400 5.0000 0.0000 0.0000 260.400 5.0000 0.0000 0.0000 259.000 5.0000 0.0000 0.0000 17.400 38.590 3.169 0.000 0.000 0.000 0.000 0.000         19.872 7.669 12.203
DSCMET_421 2016-09-30 15:35:00 17014 259.400 5.0000 0.0000 0.0000 260.400 5.0000 0.0000 0.0000 259.100 5.0000 0.0000 0.0000 17.330 38.760 3.168 0.000 0.000 0.000 0.000 0.000         19.784 7.668 12.116
DSCMET_421 2016-09-30 15:30:00 17013 259.400 5.0000 0.0000 0.0000 260.300 5.0000 0.0000 0.0000 259.100 5.0000 0.0000 0.0000 17.450 39.510 3.546 0.000 0.000 0.000 0.000 0.000         19.935 7.876 12.059
DSCMET_421 2016-09-30 15:25:00 17012 259.400 5.0000 0.0000 0.0000 260.400 5.0000 0.0000 0.0000 259.400 5.0000 0.0000 0.0000 17.660 39.740 3.816 0.000 0.000 0.000 0.000 0.000         20.201 8.028 12.173
DSCMET_421 2016-09-30 15:20:00 17011 259.400 5.0000 0.0000 0.0000 260.400 5.0000 0.0000 0.0000 259.100 5.0000 0.0000 0.0000 17.760 39.060 3.661 0.000 0.000 0.000 0.000 0.000         20.328 7.940 12.388
DSCMET_421 2016-09-30 15:15:00 17010 259.400 5.0000 0.0000 0.0000 260.400 5.0000 0.0000 0.0000 259.300 5.0000 0.0000 0.0000 17.830 39.680 3.947 0.000 0.000 0.000 0.000 0.000         20.418 8.102 12.316
DSCMET_421 2016-09-30 15:10:00 17009 259.400 5.0000 0.0000 0.0000 260.200 5.0000 0.0000 0.0000 259.400 5.0000 0.0000 0.0000 17.860 39.080 3.758 0.000 0.000 0.000 0.000 0.000         20.457 7.995 12.462
DSCMET_421 2016-09-30 15:05:00 17008 259.400 5.0000 0.0000 0.0000 260.400 5.0000 0.0000 0.0000 259.400 5.0000 0.0000 0.0000 17.830 38.530 3.530 0.000 0.000 0.000 0.000 0.000         20.418 7.867 12.551
DSCMET_421 2016-09-30 15:00:00 17007 259.600 5.0000 0.0000 0.0000 260.400 5.0000 0.0000 0.0000 259.400 5.0000 0.0000 0.0000 17.950 37.440 3.231 0.000 0.000 0.000 0.000 0.000         20.573 7.703 12.870
DSCMET_421 2016-09-30 14:55:00 17006 259.500 5.0000 0.0000 0.0000 260.400 5.0000 0.0000 0.0000 259.700 5.0000 0.0000 0.0000 18.040 38.380 3.662 0.000 0.000 0.000 0.000 0.000         20.690 7.941 12.749
DSCMET_421 2016-09-30 14:50:00 17005 259.400 5.0000 0.0000 0.0000 260.400 5.0000 0.0000 0.0000 259.800 5.0000 0.0000 0.0000 18.060 39.560 4.110 0.000 0.000 0.000 0.000 0.000         20.716 8.195 12.521
DSCMET_421 2016-09-30 14:45:00 17004 259.600 5.0000 0.0000 0.0000 260.400 5.0000 0.0000 0.0000 259.600 5.0000 0.0000 0.0000 18.090 40.460 4.457 0.000 0.000 0.000 0.000 0.000         20.755 8.397 12.357
DSCMET_421 2016-09-30 14:40:00 17003 259.500 5.0000 0.0000 0.0000 260.400 5.0000 0.0000 0.0000 259.600 5.0000 0.0000 0.0000 17.860 39.410 3.877 0.000 0.000 0.000 0.000 0.000         20.457 8.062 12.395
DSCMET_421 2016-09-30 14:35:00 17002 259.500 5.0000 0.0000 0.0000 260.400 5.0000 0.0000 0.0000 259.700 5.0000 0.0000 0.0000 17.980 39.260 3.930 0.000 0.000 0.000 0.000 0.000         20.612 8.092 12.520
DSCMET_421 2016-09-30 14:30:00 17001 259.600 5.0000 0.0000 0.0000 260.400 5.0000 0.0000 0.0000 260.000 5.0000 0.0000 0.0000 17.870 37.660 3.243 0.000 0.000 0.000 0.000 0.000         20.470 7.709 12.761
DSCMET_421 2016-09-30 14:25:00 17000 259.700 5.0000 0.0000 0.0000 260.400 5.0000 0.0000 0.0000 260.800 5.0000 0.0000 0.0000 17.910 38.490 3.587 0.000 0.000 0.000 0.000 0.000         20.521 7.899 12.623
DSCMET_421 2016-09-30 14:20:00 16999 259.700 5.0000 0.0000 0.0000 260.600 5.0000 0.0000 0.0000 260.700 5.0000 0.0000 0.0000 18.030 40.190 4.308 0.000 0.000 0.000 0.000 0.000         20.677 8.310 12.367
DSCMET_421 2016-09-30 14:15:00 16998 259.700 5.0000 0.0000 0.0000 260.400 5.0000 0.0000 0.0000 260.100 5.0000 0.0000 0.0000 17.810 41.850 4.688 0.000 0.000 0.000 0.000 0.000         20.393 8.534 11.858
DSCMET_421 2016-09-30 14:10:00 16997 259.700 5.0000 0.0000 0.0000 260.700 5.0000 0.0000 0.0000 260.000 5.0000 0.0000 0.0000 18.240 45.520 6.286 0.000 0.000 0.000 0.000 0.000         20.951 9.537 11.414
DSCMET_421 2016-09-30 14:05:00 16996 259.700 5.0000 0.0000 0.0000 260.400 5.0000 0.0000 0.0000 260.100 5.0000 0.0000 0.0000 18.110 43.920 5.651 0.000 0.000 0.000 0.000 0.000         20.781 9.127 11.654
DSCMET_421 2016-09-30 14:00:00 16995 259.700 5.0000 0.0000 0.0000 260.200 5.0000 0.0000 0.0000 260.000 5.0000 0.0000 0.0000 17.860 44.110 5.487 0.000 0.000 0.000 0.000 0.000         20.457 9.023 11.433
DSCMET_421 2016-09-30 13:55:00 16994 260.000 5.0000 0.0000 0.0000 260.300 5.0000 0.0000 0.0000 260.200 5.0000 0.0000 0.0000 18.430 44.870 6.250 0.000 0.000 0.000 0.000 0.000         21.202 9.513 11.689
DSCMET_421 2016-09-30 13:50:00 16993 259.800 5.0000 0.0000 0.0000 260.100 5.0000 0.0000 0.0000 260.100 5.0000 0.0000 0.0000 17.930 46.430 6.290 0.000 0.000 0.000 0.000 0.000         20.547 9.540 11.007
DSCMET_421 2016-09-30 13:45:00 16992 259.700 5.0000 0.0000 0.0000 260.200 5.0000 0.0000 0.0000 260.300 5.0000 0.0000 0.0000 18.250 47.600 6.943 0.000 0.000 0.000 0.000 0.000         20.964 9.979 10.985
DSCMET_421 2016-09-30 13:40:00 16991 259.800 5.0000 0.0000 0.0000 260.500 5.0000 0.0000 0.0000 260.300 5.0000 0.0000 0.0000 18.550 48.000 7.340 0.000 0.000 0.000 0.000 0.000         21.362 10.254 11.108
DSCMET_421 2016-09-30 13:35:00 16990 259.600 5.0000 0.0000 0.0000 260.800 5.0000 0.0000 0.0000 260.300 5.0000 0.0000 0.0000 18.270 47.540 6.943 0.000 0.000 0.000 0.000 0.000         20.991 9.979 11.012
DSCMET_421 2016-09-30 13:30:00 16989 259.200 5.0000 0.0000 0.0000 260.800 5.0000 0.0000 0.0000 260.600 5.0000 0.0000 0.0000 18.220 47.830 6.986 0.000 0.000 0.000 0.000 0.000         20.925 10.008 10.917
DSCMET_421 2016-09-30 13:25:00 16988 259.100 5.0000 0.0000 0.0000 261.000 5.0000 0.0000 0.0000 260.600 5.0000 0.0000 0.0000 18.360 47.640 7.056 0.000 0.000 0.000 0.000 0.000         21.110 10.057 11.053
DSCMET_421 2016-09-30 13:20:00 16987 259.300 5.0000 0.0000 0.0000 261.000 5.0000 0.0000 0.0000 260.800 5.0000 0.0000 0.0000 18.410 48.000 7.211 0.000 0.000 0.000 0.000 0.000         21.176 10.164 11.011
DSCMET_421 2016-09-30 13:15:00 16986 259.300 5.0000 0.0000 0.0000 260.900 5.0000 0.0000 0.0000 261.700 4.7500 0.2500 0.0000 18.450 48.310 7.342 0.000 0.000 0.000 0.000 0.000         21.229 10.256 10.973
DSCMET_421 2016-09-30 13:10:00 16985 259.400 5.0000 0.0000 0.0000 260.800 5.0000 0.0000 0.0000 260.100 5.0000 0.0000 0.0000 18.250 48.170 7.117 0.000 0.000 0.000 0.000 0.000         20.964 10.099 10.866
DSCMET_421 2016-09-30 13:05:00 16984 259.700 5.0000 0.0000 0.0000 260.700 5.0000 0.0000 0.0000 260.100 5.0000 0.0000 0.0000 18.190 47.770 6.940 0.000 0.000 0.000 0.000 0.000         20.886 9.977 10.909
DSCMET_421 2016-09-30 13:00:00 16983 259.600 5.0000 0.0000 0.0000 261.000 5.0000 0.0000 0.0000 260.400 5.0000 0.0000 0.0000 18.450 47.690 7.154 0.000 0.000 0.000 0.000 0.000         21.229 10.124 11.105
DSCMET_421 2016-09-30 12:55:00 16982 259.800 5.0000 0.0000 0.0000 261.100 5.0000 0.0000 0.0000 260.100 5.0000 0.0000 0.0000 18.510 47.850 7.257 0.000 0.000 0.000 0.000 0.000         21.309 10.196 11.113
DSCMET_421 2016-09-30 12:50:00 16981 259.700 5.0000 0.0000 0.0000 261.100 5.0000 0.0000 0.0000 260.100 5.0000 0.0000 0.0000 18.210 48.190 7.086 0.000 0.000 0.000 0.000 0.000         20.912 10.077 10.834
DSCMET_421 2016-09-30 12:45:00 16980 259.700 5.0000 0.0000 0.0000 261.000 5.0000 0.0000 0.0000 260.100 5.0000 0.0000 0.0000 18.120 48.470 7.088 0.000 0.000 0.000 0.000 0.000         20.794 10.079 10.715
DSCMET_421 2016-09-30 12:40:00 16979 260.000 5.0000 0.0000 0.0000 261.200 5.0000 0.0000 0.0000 260.100 5.0000 0.0000 0.0000 18.350 48.090 7.184 0.000 0.000 0.000 0.000 0.000         21.096 10.145 10.951
DSCMET_421 2016-09-30 12:35:00 16978 260.100 5.0000 0.0000 0.0000 261.300 5.0000 0.0000 0.0000 260.100 5.0000 0.0000 0.0000 18.070 49.010 7.204 0.000 0.000 0.000 0.000 0.000         20.729 10.159 10.570
DSCMET_421 2016-09-30 12:30:00 16977 260.500 5.0000 0.0000 0.0000 261.200 5.0000 0.0000 0.0000 260.100 5.0000 0.0000 0.0000 18.220 48.950 7.324 0.000 0.000 0.000 0.000 0.000         20.925 10.243 10.682
DSCMET_421 2016-09-30 12:25:00 16976 260.600 5.0000 0.0000 0.0000 261.200 5.0000 0.0000 0.0000 260.100 5.0000 0.0000 0.0000 17.970 48.930 7.089 0.000 0.000 0.000 0.000 0.000         20.599 10.079 10.520
DSCMET_421 2016-09-30 12:20:00 16975 260.700 5.0000 0.0000 0.0000 261.400 5.0000 0.0000 0.0000 260.200 5.0000 0.0000 0.0000 18.210 49.310 7.421 0.000 0.000 0.000 0.000 0.000         20.912 10.312 10.600
DSCMET_421 2016-09-30 12:15:00 16974 260.700 5.0000 0.0000 0.0000 261.400 5.0000 0.0000 0.0000 260.500 5.0000 0.0000 0.0000 18.010 49.460 7.282 0.000 0.000 0.000 0.000 0.000         20.651 10.214 10.437
DSCMET_421 2016-09-30 12:10:00 16973 260.700 5.0000 0.0000 0.0000 261.300 5.0000 0.0000 0.0000 260.600 5.0000 0.0000 0.0000 17.940 49.710 7.292 0.000 0.000 0.000 0.000 0.000         20.560 10.220 10.340
DSCMET_421 2016-09-30 12:05:00 16972 260.700 5.0000 0.0000 0.0000 261.500 5.0000 0.0000 0.0000 260.900 5.0000 0.0000 0.0000 18.130 49.220 7.321 0.000 0.000 0.000 0.000 0.000         20.807 10.241 10.566
DSCMET_421 2016-09-30 12:00:00 16971 260.900 5.0000 0.0000 0.0000 261.600 5.0000 0.0000 0.0000 260.600 5.0000 0.0000 0.0000 17.850 49.870 7.256 0.000 0.000 0.000 0.000 0.000         20.444 10.195 10.249
DSCMET_421 2016-09-30 11:55:00 16970 261.000 5.0000 0.0000 0.0000 261.700 5.0000 0.0000 0.0000 261.000 5.0000 0.0000 0.0000 17.550 50.960 7.296 0.000 0.000 0.000 0.000 0.000         20.061 10.223 9.838
DSCMET_421 2016-09-30 11:50:00 16969 261.000 5.0000 0.0000 0.0000 261.700 5.0000 0.0000 0.0000 263.500 5.0000 0.0000 0.0000 17.600 50.950 7.339 0.000 0.000 0.000 0.000 0.000         20.124 10.253 9.871
DSCMET_421 2016-09-30 11:45:00 16968 261.000 5.0000 0.0000 0.0000 261.700 5.0000 0.0000 0.0000 261.200 5.0000 0.0000 0.0000 17.510 51.690 7.466 0.000 0.000 0.000 0.000 0.000         20.010 10.343 9.667
DSCMET_421 2016-09-30 11:40:00 16967 261.100 5.0000 0.0000 0.0000 261.800 5.0000 0.0000 0.0000 260.500 5.0000 0.0000 0.0000 17.660 51.040 7.420 0.000 0.000 0.000 0.000 0.000         20.201 10.310 9.890
DSCMET_421 2016-09-30 11:35:00 16966 261.100 5.0000 0.0000 0.0000 261.900 5.0000 0.0000 0.0000 260.600 5.0000 0.0000 0.0000 17.510 51.770 7.489 0.000 0.000 0.000 0.000 0.000         20.010 10.359 9.651
DSCMET_421 2016-09-30 11:30:00 16965 261.200 5.0000 0.0000 0.0000 261.800 5.0000 0.0000 0.0000 260.600 5.0000 0.0000 0.0000 17.260 51.810 7.270 0.000 0.000 0.000 0.000 0.000         19.697 10.205 9.492
DSCMET_421 2016-09-30 11:25:00 16964 261.400 5.0000 0.0000 0.0000 262.000 5.0000 0.0000 0.0000 260.800 5.0000 0.0000 0.0000 17.190 51.920 7.236 0.000 0.000 0.000 0.000 0.000         19.610 10.181 9.428
DSCMET_421 2016-09-30 11:20:00 16963 261.600 5.0000 0.0000 0.0000 262.100 5.0000 0.0000 0.0000 261.300 5.0000 0.0000 0.0000 17.230 52.270 7.371 0.000 0.000 0.000 0.000 0.000         19.660 10.276 9.384
DSCMET_421 2016-09-30 11:15:00 16962 261.700 5.0000 0.0000 0.0000 262.100 5.0000 0.0000 0.0000 261.300 5.0000 0.0000 0.0000 17.080 53.450 7.559 0.000 0.000 0.000 0.000 0.000         19.474 10.409 9.065
DSCMET_421 2016-09-30 11:10:00 16961 261.700 5.0000 0.0000 0.0000 262.300 5.0000 0.0000 0.0000 261.600 5.0000 0.0000 0.0000 17.010 53.860 7.606 0.000 0.000 0.000 0.000 0.000         19.388 10.442 8.945
DSCMET_421 2016-09-30 11:05:00 16960 261.700 5.0000 0.0000 0.0000 262.300 5.0000 0.0000 0.0000 261.800 5.0000 0.0000 0.0000 16.810 54.370 7.558 0.000 0.000 0.000 0.000 0.000         19.143 10.408 8.735
DSCMET_421 2016-09-30 11:00:00 16959 261.800 5.0000 0.0000 0.0000 262.300 5.0000 0.0000 0.0000 261.800 5.0000 0.0000 0.0000 16.820 54.940 7.720 0.000 0.000 0.000 0.000 0.000         19.155 10.524 8.631
DSCMET_421 2016-09-30 10:55:00 16958 262.100 5.0000 0.0000 0.0000 262.500 5.0000 0.0000 0.0000 262.100 5.0000 0.0000 0.0000 16.670 56.540 8.001 0.000 0.000 0.000 0.000 0.000         18.974 10.728 8.246
DSCMET_421 2016-09-30 10:50:00 16957 262.100 5.0000 0.0000 0.0000 262.400 5.0000 0.0000 0.0000 262.900 5.0000 0.0000 0.0000 16.330 57.720 7.987 0.000 0.000 0.000 0.000 0.000         18.568 10.717 7.851
DSCMET_421 2016-09-30 10:45:00 16956 262.100 5.0000 0.0000 0.0000 262.500 5.0000 0.0000 0.0000 264.200 5.0000 0.0000 0.0000 15.920 58.540 7.810 0.000 0.000 0.000 0.000 0.000         18.088 10.589 7.499
DSCMET_421 2016-09-30 10:40:00 16955 262.300 5.0000 0.0000 0.0000 262.700 5.0000 0.0000 0.0000 263.000 5.0000 0.0000 0.0000 15.840 58.990 7.847 0.000 0.000 0.000 0.000 0.000         17.996 10.616 7.380
DSCMET_421 2016-09-30 10:35:00 16954 262.400 5.0000 0.0000 0.0000 262.600 5.0000 0.0000 0.0000 265.400 5.0000 0.0000 0.0000 15.840 59.940 8.082 0.000 0.000 0.000 0.000 0.000         17.996 10.787 7.209
DSCMET_421 2016-09-30 10:30:00 16953 262.500 5.0000 0.0000 0.0000 262.700 5.0000 0.0000 0.0000 274.600 3.0000 1.7500 0.2500 15.790 61.010 8.295 0.000 0.000 0.000 0.000 0.000         17.939 10.944 6.994
DSCMET_421 2016-09-30 10:25:00 16952 262.800 5.0000 0.0000 0.0000 262.900 5.0000 0.0000 0.0000 277.300 0.0000 5.0000 0.0000 16.310 61.980 9.018 0.000 0.000 0.000 0.000 0.000         18.544 11.494 7.051
DSCMET_421 2016-09-30 10:20:00 16951 263.100 5.0000 0.0000 0.0000 263.200 5.0000 0.0000 0.0000 277.400 0.0000 5.0000 0.0000 16.220 64.130 9.439 0.000 0.000 0.000 0.000 0.000         18.438 11.824 6.614
DSCMET_421 2016-09-30 10:15:00 16950 263.100 5.0000 0.0000 0.0000 263.400 5.0000 0.0000 0.0000 278.600 0.0000 5.0000 0.0000 15.890 65.960 9.544 0.000 0.000 0.000 0.000 0.000         18.054 11.908 6.146
DSCMET_421 2016-09-30 10:10:00 16949 263.100 5.0000 0.0000 0.0000 263.600 5.0000 0.0000 0.0000 282.800 0.0000 4.2500 0.7500 15.920 65.600 9.491 0.000 0.000 0.000 0.000 0.000         18.088 11.866 6.222
DSCMET_421 2016-09-30 10:05:00 16948 263.100 5.0000 0.0000 0.0000 263.800 5.0000 0.0000 0.0000 280.400 0.5000 4.5000 0.0000 15.790 68.190 9.944 0.000 0.000 0.000 0.000 0.000         17.939 12.232 5.706
DSCMET_421 2016-09-30 10:00:00 16947 263.100 5.0000 0.0000 0.0000 263.800 5.0000 0.0000 0.0000 275.300 2.5000 2.2500 0.2500 15.220 68.710 9.512 0.000 0.000 0.000 0.000 0.000         17.295 11.883 5.412
DSCMET_421 2016-09-30 09:55:00 16946 263.200 5.0000 0.0000 0.0000 263.800 5.0000 0.0000 0.0000 280.900 0.0000 4.2500 0.7500 14.920 69.650 9.428 0.000 0.000 0.000 0.000 0.000         16.964 11.816 5.149
DSCMET_421 2016-09-30 09:50:00 16945 263.200 5.0000 0.0000 0.0000 263.900 5.0000 0.0000 0.0000 271.700 4.2500 0.7500 0.0000 14.510 72.620 9.655 0.000 0.000 0.000 0.000 0.000         16.521 11.998 4.524
DSCMET_421 2016-09-30 09:45:00 16944 263.300 5.0000 0.0000 0.0000 263.900 5.0000 0.0000 0.0000 474.100 4.5000 0.0000 0.5000 14.000 74.800 9.604 0.000 0.000 0.000 0.000 0.000         15.985 11.957 4.028
DSCMET_421 2016-09-30 09:40:00 16943 263.400 5.0000 0.0000 0.0000 264.200 5.0000 0.0000 0.0000 2275.000 0.0000 0.0000 5.0000 14.290 74.730 9.870 0.000 0.000 0.000 0.000 0.000         16.288 12.172 4.116
DSCMET_421 2016-09-30 09:35:00 16942 263.200 5.0000 0.0000 0.0000 264.200 5.0000 0.0000 0.0000 2306.000 0.0000 0.0000 5.0000 14.140 74.050 9.589 0.000 0.000 0.000 0.000 0.000         16.130 11.945 4.186
DSCMET_421 2016-09-30 09:30:00 16941 263.400 5.0000 0.0000 0.0000 264.200 5.0000 0.0000 0.0000 2327.000 0.0000 0.0000 5.0000 14.050 73.830 9.458 0.000 0.000 0.000 0.000 0.000         16.037 11.840 4.197
DSCMET_421 2016-09-30 09:25:00 16940 263.300 5.0000 0.0000 0.0000 264.300 5.0000 0.0000 0.0000 2348.000 0.0000 0.0000 5.0000 13.860 74.810 9.471 0.000 0.000 0.000 0.000 0.000         15.840 11.850 3.990
DSCMET_421 2016-09-30 09:20:00 16939 263.300 5.0000 0.0000 0.0000 264.300 5.0000 0.0000 0.0000 2387.000 0.0000 0.0000 5.0000 13.810 74.970 9.454 0.000 0.000 0.000 0.000 0.000         15.789 11.837 3.952
DSCMET_421 2016-09-30 09:15:00 16938 263.600 5.0000 0.0000 0.0000 264.300 5.0000 0.0000 0.0000 2226.000 0.0000 0.2500 4.7500 13.450 77.110 9.524 0.000 0.000 0.000 0.000 0.000         15.423 11.893 3.530
DSCMET_421 2016-09-30 09:10:00 16937 263.600 5.0000 0.0000 0.0000 264.300 5.0000 0.0000 0.0000 301.800 0.0000 0.0000 5.0000 13.020 78.230 9.321 0.000 0.000 0.000 0.000 0.000         14.996 11.731 3.265
DSCMET_421 2016-09-30 09:05:00 16936 263.700 5.0000 0.0000 0.0000 264.600 5.0000 0.0000 0.0000 339.200 0.0000 0.0000 5.0000 12.560 79.780 9.165 0.000 0.000 0.000 0.000 0.000         14.551 11.609 2.942
DSCMET_421 2016-09-30 09:00:00 16935 263.700 5.0000 0.0000 0.0000 264.700 5.0000 0.0000 0.0000 370.400 0.0000 0.0000 5.0000 12.260 82.000 9.280 0.000 0.000 0.000 0.000 0.000         14.267 11.699 2.568
DSCMET_421 2016-09-30 08:55:00 16934 263.500 5.0000 0.0000 0.0000 265.000 5.0000 0.0000 0.0000 374.800 0.0000 0.0000 5.0000 11.680 84.500 9.158 0.000 0.000 0.000 0.000 0.000         13.731 11.603 2.128
DSCMET_421 2016-09-30 08:50:00 16933 263.300 5.0000 0.0000 0.0000 265.300 5.0000 0.0000 0.0000 379.500 0.0000 0.0000 5.0000 11.450 84.300 8.898 0.000 0.000 0.000 0.000 0.000         13.524 11.401 2.123
DSCMET_421 2016-09-30 08:45:00 16932 263.300 5.0000 0.0000 0.0000 265.800 5.0000 0.0000 0.0000 390.200 0.0000 0.0000 5.0000 11.020 86.400 8.840 0.000 0.000 0.000 0.000 0.000         13.144 11.356 1.788
DSCMET_421 2016-09-30 08:40:00 16931 263.300 5.0000 0.0000 0.0000 267.500 5.0000 0.0000 0.0000 387.100 0.0000 0.0000 5.0000 10.510 88.300 8.659 0.000 0.000 0.000 0.000 0.000         12.705 11.218 1.486
DSCMET_421 2016-09-30 08:35:00 16930 263.300 5.0000 0.0000 0.0000 270.700 5.0000 0.0000 0.0000 389.800 0.0000 0.0000 5.0000 10.300 88.200 8.436 0.000 0.000 0.000 0.000 0.000         12.528 11.049 1.478
DSCMET_421 2016-09-30 08:30:00 16929 263.400 5.0000 0.0000 0.0000 273.800 3.2500 1.7500 0.0000 399.700 0.0000 0.0000 5.0000 9.920 89.800 8.326 0.000 0.000 0.000 0.000 0.000         12.213 10.967 1.246
DSCMET_421 2016-09-30 08:25:00 16928 263.400 5.0000 0.0000 0.0000 276.200 0.0000 5.0000 0.0000 401.200 0.0000 0.0000 5.0000 9.740 90.900 8.327 0.000 0.000 0.000 0.000 0.000         12.066 10.968 1.098
DSCMET_421 2016-09-30 08:20:00 16927 263.400 5.0000 0.0000 0.0000 277.600 0.0000 5.0000 0.0000 400.900 0.0000 0.0000 5.0000 9.500 91.900 8.251 0.000 0.000 0.000 0.000 0.000         11.873 10.912 0.962
DSCMET_421 2016-09-30 08:15:00 16926 263.400 5.0000 0.0000 0.0000 279.000 0.0000 5.0000 0.0000 401.700 0.0000 0.0000 5.0000 9.200 92.900 8.113 0.000 0.000 0.000 0.000 0.000         11.636 10.810 0.826
DSCMET_421 2016-09-30 08:10:00 16925 263.400 5.0000 0.0000 0.0000 280.000 0.0000 5.0000 0.0000 398.800 0.0000 0.0000 5.0000 8.990 93.400 7.983 0.000 0.000 0.000 0.000 0.000         11.472 10.715 0.757
DSCMET_421 2016-09-30 08:05:00 16924 263.400 5.0000 0.0000 0.0000 280.600 0.0000 5.0000 0.0000 400.000 0.0000 0.0000 5.0000 8.860 93.800 7.917 0.000 0.000 0.000 0.000 0.000         11.372 10.667 0.705
DSCMET_421 2016-09-30 08:00:00 16923 263.400 5.0000 0.0000 0.0000 281.300 0.0000 5.0000 0.0000 403.600 0.0000 0.0000 5.0000 8.530 94.800 7.745 0.000 0.000 0.000 0.000 0.000         11.120 10.542 0.578
DSCMET_421 2016-09-30 07:55:00 16922 263.600 5.0000 0.0000 0.0000 281.500 0.0000 5.0000 0.0000 405.700 0.0000 0.0000 5.0000 8.280 95.200 7.558 0.000 0.000 0.000 0.000 0.000         10.933 10.408 0.525
DSCMET_421 2016-09-30 07:50:00 16921 263.700 5.0000 0.0000 0.0000 281.600 0.0000 5.0000 0.0000 408.000 0.0000 0.0000 5.0000 7.871 96.900 7.410 0.000 0.000 0.000 0.000 0.000         10.633 10.303 0.330
DSCMET_421 2016-09-30 07:45:00 16920 264.000 5.0000 0.0000 0.0000 281.600 0.0000 5.0000 0.0000 413.600 0.0000 0.0000 5.0000 7.564 96.900 7.104 0.000 0.000 0.000 0.000 0.000         10.413 10.090 0.323
DSCMET_421 2016-09-30 07:40:00 16919 264.000 5.0000 0.0000 0.0000 281.500 0.0000 5.0000 0.0000 403.200 0.0000 0.0000 5.0000 7.631 96.800 7.156 0.000 0.000 0.000 0.000 0.000         10.460 10.126 0.335
DSCMET_421 2016-09-30 07:35:00 16918 264.200 5.0000 0.0000 0.0000 281.200 0.0000 5.0000 0.0000 401.700 0.0000 0.0000 5.0000 7.497 97.400 7.112 0.000 0.000 0.000 0.000 0.000         10.365 10.096 0.269
DSCMET_421 2016-09-30 07:30:00 16917 264.300 5.0000 0.0000 0.0000 280.900 0.0000 5.0000 0.0000 408.300 0.0000 0.0000 5.0000 7.410 97.300 7.011 0.000 0.000 0.000 0.000 0.000         10.304 10.025 0.278
DSCMET_421 2016-09-30 07:25:00 16916 264.300 5.0000 0.0000 0.0000 280.500 0.0000 5.0000 0.0000 402.500 0.0000 0.0000 5.0000 7.461 97.300 7.062 0.000 0.000 0.000 0.000 0.000         10.340 10.060 0.279
DSCMET_421 2016-09-30 07:20:00 16915 264.400 5.0000 0.0000 0.0000 280.200 0.0000 5.0000 0.0000 397.700 0.0000 0.0000 5.0000 7.463 97.200 7.049 0.000 0.000 0.000 0.000 0.000         10.341 10.051 0.290
DSCMET_421 2016-09-30 07:15:00 16914 264.400 5.0000 0.0000 0.0000 279.800 0.0000 5.0000 0.0000 395.900 0.0000 0.0000 5.0000 7.471 97.400 7.086 0.000 0.000 0.000 0.000 0.000         10.347 10.078 0.269
DSCMET_421 2016-09-30 07:10:00 16913 264.400 5.0000 0.0000 0.0000 279.400 0.0000 5.0000 0.0000 389.300 0.0000 0.0000 5.0000 7.463 97.300 7.064 0.000 0.000 0.000 0.000 0.000         10.341 10.062 0.279
DSCMET_421 2016-09-30 07:05:00 16912 264.400 5.0000 0.0000 0.0000 279.000 0.0000 5.0000 0.0000 386.400 0.0000 0.0000 5.0000 7.507 97.200 7.092 0.000 0.000 0.000 0.000 0.000         10.372 10.082 0.290
DSCMET_421 2016-09-30 07:00:00 16911 264.400 5.0000 0.0000 0.0000 278.500 0.0000 5.0000 0.0000 379.800 0.0000 0.0000 5.0000 7.511 97.400 7.126 0.000 0.000 0.000 0.000 0.000         10.375 10.105 0.270
DSCMET_421 2016-09-30 06:55:00 16910 264.400 5.0000 0.0000 0.0000 277.900 0.0000 5.0000 0.0000 379.000 0.0000 0.0000 5.0000 7.541 97.300 7.141 0.000 0.000 0.000 0.000 0.000         10.396 10.116 0.281
DSCMET_421 2016-09-30 06:50:00 16909 264.400 5.0000 0.0000 0.0000 277.400 0.0000 5.0000 0.0000 391.400 0.0000 0.0000 5.0000 7.563 97.500 7.193 0.000 0.000 0.000 0.000 0.000         10.412 10.152 0.260
DSCMET_421 2016-09-30 06:45:00 16908 264.400 5.0000 0.0000 0.0000 276.700 0.0000 5.0000 0.0000 383.100 0.0000 0.0000 5.0000 7.559 97.400 7.174 0.000 0.000 0.000 0.000 0.000         10.409 10.138 0.271
DSCMET_421 2016-09-30 06:40:00 16907 264.400 5.0000 0.0000 0.0000 276.100 0.0000 5.0000 0.0000 379.400 0.0000 0.0000 5.0000 7.608 97.400 7.223 0.000 0.000 0.000 0.000 0.000         10.444 10.172 0.272
DSCMET_421 2016-09-30 06:35:00 16906 264.300 5.0000 0.0000 0.0000 275.400 0.0000 5.0000 0.0000 374.000 0.0000 0.0000 5.0000 7.640 97.200 7.225 0.000 0.000 0.000 0.000 0.000         10.467 10.174 0.293
DSCMET_421 2016-09-30 06:30:00 16905 264.300 5.0000 0.0000 0.0000 274.700 0.0000 5.0000 0.0000 367.900 0.0000 0.0000 5.0000 7.726 97.200 7.311 0.000 0.000 0.000 0.000 0.000         10.528 10.234 0.295
DSCMET_421 2016-09-30 06:25:00 16904 264.300 5.0000 0.0000 0.0000 274.000 3.7500 1.2500 0.0000 365.500 0.0000 0.0000 5.0000 7.797 97.000 7.351 0.000 0.000 0.000 0.000 0.000         10.580 10.262 0.317
DSCMET_421 2016-09-30 06:20:00 16903 264.300 5.0000 0.0000 0.0000 273.300 5.0000 0.0000 0.0000 364.500 0.0000 0.0000 5.0000 7.840 97.100 7.409 0.000 0.000 0.000 0.000 0.000         10.611 10.303 0.308
DSCMET_421 2016-09-30 06:15:00 16902 264.000 5.0000 0.0000 0.0000 272.500 5.0000 0.0000 0.0000 361.600 0.0000 0.0000 5.0000 7.757 97.100 7.326 0.000 0.000 0.000 0.000 0.000         10.551 10.245 0.306
DSCMET_421 2016-09-30 06:10:00 16901 264.000 5.0000 0.0000 0.0000 271.700 5.0000 0.0000 0.0000 358.000 0.0000 0.0000 5.0000 7.830 97.100 7.399 0.000 0.000 0.000 0.000 0.000         10.603 10.296 0.307
DSCMET_421 2016-09-30 06:05:00 16900 263.700 5.0000 0.0000 0.0000 270.900 5.0000 0.0000 0.0000 357.000 0.0000 0.0000 5.0000 7.896 96.900 7.435 0.000 0.000 0.000 0.000 0.000         10.651 10.321 0.330
DSCMET_421 2016-09-30 06:00:00 16899 263.700 5.0000 0.0000 0.0000 270.400 5.0000 0.0000 0.0000 345.600 0.0000 0.0000 5.0000 7.974 96.700 7.482 0.000 0.000 0.000 0.000 0.000         10.708 10.355 0.353
DSCMET_421 2016-09-30 05:55:00 16898 263.800 5.0000 0.0000 0.0000 270.000 5.0000 0.0000 0.0000 342.900 0.0000 0.0000 5.0000 8.000 96.900 7.538 0.000 0.000 0.000 0.000 0.000         10.727 10.394 0.333
DSCMET_421 2016-09-30 05:50:00 16897 263.700 5.0000 0.0000 0.0000 269.400 5.0000 0.0000 0.0000 343.200 0.0000 0.0000 5.0000 7.997 97.000 7.551 0.000 0.000 0.000 0.000 0.000         10.725 10.403 0.322
DSCMET_421 2016-09-30 05:45:00 16896 263.700 5.0000 0.0000 0.0000 268.700 5.0000 0.0000 0.0000 340.200 0.0000 0.0000 5.0000 7.998 96.800 7.521 0.000 0.000 0.000 0.000 0.000         10.726 10.382 0.343
DSCMET_421 2016-09-30 05:40:00 16895 263.700 5.0000 0.0000 0.0000 268.100 5.0000 0.0000 0.0000 338.900 0.0000 0.0000 5.0000 8.110 96.400 7.572 0.000 0.000 0.000 0.000 0.000         10.808 10.419 0.389
DSCMET_421 2016-09-30 05:35:00 16894 263.400 5.0000 0.0000 0.0000 267.800 5.0000 0.0000 0.0000 338.100 0.0000 0.0000 5.0000 8.180 96.300 7.627 0.000 0.000 0.000 0.000 0.000         10.859 10.457 0.402
DSCMET_421 2016-09-30 05:30:00 16893 263.300 5.0000 0.0000 0.0000 267.700 5.0000 0.0000 0.0000 336.100 0.0000 0.0000 5.0000 8.230 96.300 7.677 0.000 0.000 0.000 0.000 0.000         10.896 10.493 0.403
DSCMET_421 2016-09-30 05:25:00 16892 263.400 5.0000 0.0000 0.0000 267.600 5.0000 0.0000 0.0000 333.500 0.0000 0.0000 5.0000 8.140 96.900 7.678 0.000 0.000 0.000 0.000 0.000         10.830 10.494 0.336
DSCMET_421 2016-09-30 05:20:00 16891 263.300 5.0000 0.0000 0.0000 267.300 5.0000 0.0000 0.0000 332.600 0.0000 0.0000 5.0000 8.070 97.000 7.623 0.000 0.000 0.000 0.000 0.000         10.778 10.455 0.323
DSCMET_421 2016-09-30 05:15:00 16890 263.300 5.0000 0.0000 0.0000 266.800 5.0000 0.0000 0.0000 329.600 0.0000 0.0000 5.0000 8.100 96.800 7.623 0.000 0.000 0.000 0.000 0.000         10.800 10.455 0.346
DSCMET_421 2016-09-30 05:10:00 16889 263.300 5.0000 0.0000 0.0000 266.600 5.0000 0.0000 0.0000 324.700 0.0000 0.0000 5.0000 8.200 96.300 7.647 0.000 0.000 0.000 0.000 0.000         10.874 10.472 0.402
DSCMET_421 2016-09-30 05:05:00 16888 263.300 5.0000 0.0000 0.0000 266.300 5.0000 0.0000 0.0000 323.100 0.0000 0.0000 5.0000 8.380 95.900 7.765 0.000 0.000 0.000 0.000 0.000         11.008 10.556 0.451
DSCMET_421 2016-09-30 05:00:00 16887 263.300 5.0000 0.0000 0.0000 266.200 5.0000 0.0000 0.0000 323.500 0.0000 0.0000 5.0000 8.400 95.900 7.785 0.000 0.000 0.000 0.000 0.000         11.023 10.571 0.452
DSCMET_421 2016-09-30 04:55:00 16886 263.300 5.0000 0.0000 0.0000 266.000 5.0000 0.0000 0.0000 321.400 0.0000 0.0000 5.0000 8.510 95.300 7.802 0.000 0.000 0.000 0.000 0.000         11.105 10.583 0.522
DSCMET_421 2016-09-30 04:50:00 16885 263.300 5.0000 0.0000 0.0000 265.700 5.0000 0.0000 0.0000 320.900 0.0000 0.0000 5.0000 8.580 95.300 7.872 0.000 0.000 0.000 0.000 0.000         11.158 10.634 0.524
DSCMET_421 2016-09-30 04:45:00 16884 263.300 5.0000 0.0000 0.0000 265.700 5.0000 0.0000 0.0000 321.200 0.0000 0.0000 5.0000 8.500 95.700 7.854 0.000 0.000 0.000 0.000 0.000         11.098 10.621 0.477
DSCMET_421 2016-09-30 04:40:00 16883 263.300 5.0000 0.0000 0.0000 265.500 5.0000 0.0000 0.0000 321.200 0.0000 0.0000 5.0000 8.420 95.900 7.805 0.000 0.000 0.000 0.000 0.000         11.038 10.585 0.453
DSCMET_421 2016-09-30 04:35:00 16882 263.300 5.0000 0.0000 0.0000 265.000 5.0000 0.0000 0.0000 319.100 0.0000 0.0000 5.0000 8.460 95.600 7.799 0.000 0.000 0.000 0.000 0.000         11.068 10.581 0.487
DSCMET_421 2016-09-30 04:30:00 16881 263.300 5.0000 0.0000 0.0000 265.000 5.0000 0.0000 0.0000 318.000 0.0000 0.0000 5.0000 8.500 95.600 7.838 0.000 0.000 0.000 0.000 0.000         11.098 10.609 0.488
DSCMET_421 2016-09-30 04:25:00 16880 263.300 5.0000 0.0000 0.0000 265.000 5.0000 0.0000 0.0000 317.800 0.0000 0.0000 5.0000 8.500 95.700 7.854 0.000 0.000 0.000 0.000 0.000         11.098 10.621 0.477
DSCMET_421 2016-09-30 04:20:00 16879 263.300 5.0000 0.0000 0.0000 265.200 5.0000 0.0000 0.0000 311.600 0.0000 0.0000 5.0000 8.570 95.600 7.908 0.000 0.000 0.000 0.000 0.000         11.151 10.660 0.491
DSCMET_421 2016-09-30 04:15:00 16878 263.300 5.0000 0.0000 0.0000 265.300 5.0000 0.0000 0.0000 315.200 0.0000 0.0000 5.0000 8.470 96.000 7.870 0.000 0.000 0.000 0.000 0.000         11.075 10.632 0.443
DSCMET_421 2016-09-30 04:10:00 16877 263.300 5.0000 0.0000 0.0000 265.600 5.0000 0.0000 0.0000 311.000 0.0000 0.0000 5.0000 8.530 95.700 7.884 0.000 0.000 0.000 0.000 0.000         11.120 10.642 0.478
DSCMET_421 2016-09-30 04:05:00 16876 263.300 5.0000 0.0000 0.0000 265.700 5.0000 0.0000 0.0000 308.100 0.0000 0.0000 5.0000 8.620 95.500 7.942 0.000 0.000 0.000 0.000 0.000         11.188 10.685 0.503
DSCMET_421 2016-09-30 04:00:00 16875 263.300 5.0000 0.0000 0.0000 266.000 5.0000 0.0000 0.0000 306.200 0.0000 0.0000 5.0000 8.610 95.700 7.963 0.000 0.000 0.000 0.000 0.000         11.181 10.700 0.481
DSCMET_421 2016-09-30 03:55:00 16874 263.300 5.0000 0.0000 0.0000 266.000 5.0000 0.0000 0.0000 305.700 0.0000 0.0000 5.0000 8.570 95.900 7.954 0.000 0.000 0.000 0.000 0.000         11.151 10.693 0.457
DSCMET_421 2016-09-30 03:50:00 16873 263.300 5.0000 0.0000 0.0000 266.000 5.0000 0.0000 0.0000 304.000 0.0000 0.0000 5.0000 8.660 95.700 8.013 0.000 0.000 0.000 0.000 0.000         11.219 10.736 0.482
DSCMET_421 2016-09-30 03:45:00 16872 263.300 5.0000 0.0000 0.0000 266.000 5.0000 0.0000 0.0000 303.700 0.0000 0.0000 5.0000 8.650 95.600 7.988 0.000 0.000 0.000 0.000 0.000         11.211 10.718 0.493
DSCMET_421 2016-09-30 03:40:00 16871 263.300 5.0000 0.0000 0.0000 266.000 5.0000 0.0000 0.0000 308.000 0.0000 0.0000 5.0000 8.690 95.800 8.058 0.000 0.000 0.000 0.000 0.000         11.242 10.769 0.472
DSCMET_421 2016-09-30 03:35:00 16870 263.300 5.0000 0.0000 0.0000 265.900 5.0000 0.0000 0.0000 304.200 0.0000 0.0000 5.0000 8.600 95.800 7.969 0.000 0.000 0.000 0.000 0.000         11.173 10.704 0.469
DSCMET_421 2016-09-30 03:30:00 16869 263.300 5.0000 0.0000 0.0000 265.700 5.0000 0.0000 0.0000 299.600 0.0000 0.0000 5.0000 8.810 94.900 8.039 0.000 0.000 0.000 0.000 0.000         11.333 10.755 0.578
DSCMET_421 2016-09-30 03:25:00 16868 263.300 5.0000 0.0000 0.0000 265.800 5.0000 0.0000 0.0000 298.400 0.0000 0.0000 5.0000 8.880 95.100 8.139 0.000 0.000 0.000 0.000 0.000         11.387 10.829 0.558
DSCMET_421 2016-09-30 03:20:00 16867 263.200 5.0000 0.0000 0.0000 265.900 5.0000 0.0000 0.0000 298.400 0.0000 0.0000 5.0000 8.820 95.100 8.080 0.000 0.000 0.000 0.000 0.000         11.341 10.785 0.556
DSCMET_421 2016-09-30 03:15:00 16866 263.000 5.0000 0.0000 0.0000 265.700 5.0000 0.0000 0.0000 296.600 0.0000 0.0000 5.0000 8.890 95.100 8.149 0.000 0.000 0.000 0.000 0.000         11.395 10.836 0.558
DSCMET_421 2016-09-30 03:10:00 16865 263.000 5.0000 0.0000 0.0000 266.000 5.0000 0.0000 0.0000 293.700 0.0000 0.0000 5.0000 8.960 94.900 8.188 0.000 0.000 0.000 0.000 0.000         11.449 10.865 0.584
DSCMET_421 2016-09-30 03:05:00 16864 263.000 5.0000 0.0000 0.0000 266.000 5.0000 0.0000 0.0000 292.100 0.0000 0.0000 5.0000 8.980 95.200 8.254 0.000 0.000 0.000 0.000 0.000         11.464 10.914 0.550
DSCMET_421 2016-09-30 03:00:00 16863 263.000 5.0000 0.0000 0.0000 265.700 5.0000 0.0000 0.0000 288.800 0.0000 0.0000 5.0000 8.970 95.100 8.229 0.000 0.000 0.000 0.000 0.000         11.457 10.895 0.561
DSCMET_421 2016-09-30 02:55:00 16862 263.000 5.0000 0.0000 0.0000 265.200 5.0000 0.0000 0.0000 287.400 0.0000 0.0000 5.0000 9.030 94.900 8.257 0.000 0.000 0.000 0.000 0.000         11.503 10.916 0.587
DSCMET_421 2016-09-30 02:50:00 16861 263.000 5.0000 0.0000 0.0000 264.800 5.0000 0.0000 0.0000 290.900 0.0000 0.0000 5.0000 9.110 94.300 8.243 0.000 0.000 0.000 0.000 0.000         11.565 10.906 0.659
DSCMET_421 2016-09-30 02:45:00 16860 263.000 5.0000 0.0000 0.0000 264.300 5.0000 0.0000 0.0000 290.800 0.0000 0.0000 5.0000 9.140 95.000 8.382 0.000 0.000 0.000 0.000 0.000         11.589 11.009 0.579
DSCMET_421 2016-09-30 02:40:00 16859 263.000 5.0000 0.0000 0.0000 264.300 5.0000 0.0000 0.0000 285.600 0.0000 0.0000 5.0000 9.100 94.800 8.311 0.000 0.000 0.000 0.000 0.000         11.558 10.957 0.601
DSCMET_421 2016-09-30 02:35:00 16858 263.000 5.0000 0.0000 0.0000 264.300 5.0000 0.0000 0.0000 286.300 0.0000 0.0000 5.0000 9.090 95.300 8.379 0.000 0.000 0.000 0.000 0.000         11.550 11.007 0.543
DSCMET_421 2016-09-30 02:30:00 16857 263.000 5.0000 0.0000 0.0000 264.300 5.0000 0.0000 0.0000 295.900 0.0000 0.0000 5.0000 9.130 94.900 8.357 0.000 0.000 0.000 0.000 0.000         11.581 10.990 0.591
DSCMET_421 2016-09-30 02:25:00 16856 263.000 5.0000 0.0000 0.0000 264.300 5.0000 0.0000 0.0000 289.600 0.0000 0.0000 5.0000 9.220 94.900 8.446 0.000 0.000 0.000 0.000 0.000         11.652 11.057 0.594
DSCMET_421 2016-09-30 02:20:00 16855 263.000 5.0000 0.0000 0.0000 264.300 5.0000 0.0000 0.0000 289.700 0.0000 0.0000 5.0000 9.100 95.000 8.342 0.000 0.000 0.000 0.000 0.000         11.558 10.980 0.578
DSCMET_421 2016-09-30 02:15:00 16854 263.000 5.0000 0.0000 0.0000 264.300 5.0000 0.0000 0.0000 283.900 0.0000 4.0000 1.0000 9.240 94.500 8.404 0.000 0.000 0.000 0.000 0.000         11.667 11.026 0.642
DSCMET_421 2016-09-30 02:10:00 16853 263.000 5.0000 0.0000 0.0000 264.200 5.0000 0.0000 0.0000 287.400 0.0000 0.0000 5.0000 9.330 94.400 8.478 0.000 0.000 0.000 0.000 0.000         11.738 11.081 0.657
DSCMET_421 2016-09-30 02:05:00 16852 263.000 5.0000 0.0000 0.0000 264.000 5.0000 0.0000 0.0000 282.900 0.0000 4.2500 0.7500 9.490 93.600 8.511 0.000 0.000 0.000 0.000 0.000         11.865 11.106 0.759
DSCMET_421 2016-09-30 02:00:00 16851 263.000 5.0000 0.0000 0.0000 264.000 5.0000 0.0000 0.0000 278.000 0.0000 5.0000 0.0000 9.580 93.500 8.584 0.000 0.000 0.000 0.000 0.000         11.937 11.161 0.776
DSCMET_421 2016-09-30 01:55:00 16850 263.000 5.0000 0.0000 0.0000 264.000 5.0000 0.0000 0.0000 281.700 0.0000 4.0000 1.0000 9.780 92.000 8.544 0.000 0.000 0.000 0.000 0.000         12.099 11.131 0.968
DSCMET_421 2016-09-30 01:50:00 16849 263.000 5.0000 0.0000 0.0000 264.000 5.0000 0.0000 0.0000 283.100 0.0000 3.5000 1.5000 9.640 93.300 8.612 0.000 0.000 0.000 0.000 0.000         11.986 11.183 0.803
DSCMET_421 2016-09-30 01:45:00 16848 263.000 5.0000 0.0000 0.0000 263.900 5.0000 0.0000 0.0000 278.700 0.0000 4.7500 0.2500 9.660 92.900 8.569 0.000 0.000 0.000 0.000 0.000         12.002 11.150 0.852
DSCMET_421 2016-09-30 01:40:00 16847 263.000 5.0000 0.0000 0.0000 264.000 5.0000 0.0000 0.0000 277.000 0.0000 5.0000 0.0000 9.660 93.300 8.632 0.000 0.000 0.000 0.000 0.000         12.002 11.198 0.804
DSCMET_421 2016-09-30 01:35:00 16846 263.000 5.0000 0.0000 0.0000 263.900 5.0000 0.0000 0.0000 320.900 0.0000 1.7500 3.2500 9.880 92.300 8.691 0.000 0.000 0.000 0.000 0.000         12.180 11.242 0.938
DSCMET_421 2016-09-30 01:30:00 16845 263.000 5.0000 0.0000 0.0000 263.900 5.0000 0.0000 0.0000 281.700 0.0000 4.2500 0.7500 9.940 92.000 8.702 0.000 0.000 0.000 0.000 0.000         12.229 11.251 0.978
DSCMET_421 2016-09-30 01:25:00 16844 263.000 5.0000 0.0000 0.0000 263.900 5.0000 0.0000 0.0000 283.500 0.0000 3.5000 1.5000 9.780 92.500 8.624 0.000 0.000 0.000 0.000 0.000         12.099 11.191 0.907
DSCMET_421 2016-09-30 01:20:00 16843 263.000 5.0000 0.0000 0.0000 263.900 5.0000 0.0000 0.0000 289.000 0.0000 0.0000 5.0000 9.920 92.100 8.699 0.000 0.000 0.000 0.000 0.000         12.213 11.248 0.965
DSCMET_421 2016-09-30 01:15:00 16842 263.000 5.0000 0.0000 0.0000 263.900 5.0000 0.0000 0.0000 287.900 0.0000 0.2500 4.7500 9.950 91.800 8.680 0.000 0.000 0.000 0.000 0.000         12.238 11.234 1.003
DSCMET_421 2016-09-30 01:10:00 16841 263.000 5.0000 0.0000 0.0000 263.900 5.0000 0.0000 0.0000 282.300 0.0000 5.0000 0.0000 9.910 92.200 8.705 0.000 0.000 0.000 0.000 0.000         12.205 11.253 0.952
DSCMET_421 2016-09-30 01:05:00 16840 262.900 5.0000 0.0000 0.0000 263.900 5.0000 0.0000 0.0000 283.100 0.0000 4.5000 0.5000 9.920 92.300 8.731 0.000 0.000 0.000 0.000 0.000         12.213 11.273 0.940
DSCMET_421 2016-09-30 01:00:00 16839 263.000 5.0000 0.0000 0.0000 263.900 5.0000 0.0000 0.0000 283.300 0.0000 4.0000 1.0000 9.940 92.500 8.783 0.000 0.000 0.000 0.000 0.000         12.229 11.312 0.917
DSCMET_421 2016-09-30 00:55:00 16838 262.900 5.0000 0.0000 0.0000 263.900 5.0000 0.0000 0.0000 346.700 0.0000 4.7500 0.2500 9.990 92.200 8.784 0.000 0.000 0.000 0.000 0.000         12.271 11.313 0.957
DSCMET_421 2016-09-30 00:50:00 16837 262.900 5.0000 0.0000 0.0000 263.900 5.0000 0.0000 0.0000 284.800 0.0000 0.5000 4.5000 10.010 92.000 8.772 0.000 0.000 0.000 0.000 0.000         12.287 11.304 0.983
DSCMET_421 2016-09-30 00:45:00 16836 262.900 5.0000 0.0000 0.0000 263.900 5.0000 0.0000 0.0000 348.900 0.0000 1.2500 3.7500 9.980 92.200 8.774 0.000 0.000 0.000 0.000 0.000         12.262 11.306 0.956
DSCMET_421 2016-09-30 00:40:00 16835 262.900 5.0000 0.0000 0.0000 263.600 5.0000 0.0000 0.0000 283.300 0.0000 3.2500 1.7500 10.100 91.800 8.829 0.000 0.000 0.000 0.000 0.000         12.361 11.348 1.014
DSCMET_421 2016-09-30 00:35:00 16834 262.900 5.0000 0.0000 0.0000 263.600 5.0000 0.0000 0.0000 358.600 0.0000 4.0000 1.0000 10.100 91.600 8.796 0.000 0.000 0.000 0.000 0.000         12.361 11.323 1.038
DSCMET_421 2016-09-30 00:30:00 16833 262.900 5.0000 0.0000 0.0000 263.600 5.0000 0.0000 0.0000 284.300 0.0000 1.5000 3.5000 9.990 92.400 8.816 0.000 0.000 0.000 0.000 0.000         12.271 11.338 0.933
DSCMET_421 2016-09-30 00:25:00 16832 262.900 5.0000 0.0000 0.0000 263.600 5.0000 0.0000 0.0000 283.500 0.0000 4.2500 0.7500 10.050 92.200 8.843 0.000 0.000 0.000 0.000 0.000         12.320 11.359 0.961
DSCMET_421 2016-09-30 00:20:00 16831 262.900 5.0000 0.0000 0.0000 263.600 5.0000 0.0000 0.0000 284.200 0.0000 2.7500 2.2500 9.960 92.700 8.834 0.000 0.000 0.000 0.000 0.000         12.246 11.352 0.894
DSCMET_421 2016-09-30 00:15:00 16830 262.800 5.0000 0.0000 0.0000 263.600 5.0000 0.0000 0.0000 293.600 0.0000 3.5000 1.5000 9.900 93.100 8.838 0.000 0.000 0.000 0.000 0.000         12.197 11.355 0.842
DSCMET_421 2016-09-30 00:10:00 16829 262.900 5.0000 0.0000 0.0000 263.700 5.0000 0.0000 0.0000 288.400 0.0000 0.0000 5.0000 10.040 92.800 8.929 0.000 0.000 0.000 0.000 0.000         12.312 11.425 0.886
DSCMET_421 2016-09-30 00:05:00 16828 262.600 5.0000 0.0000 0.0000 263.600 5.0000 0.0000 0.0000 286.600 0.0000 0.0000 5.0000 10.110 92.500 8.951 0.000 0.000 0.000 0.000 0.000         12.370 11.442 0.928
DSCMET_421 2016-09-30 00:00:00 16827 262.600 5.0000 0.0000 0.0000 263.600 5.0000 0.0000 0.0000 284.400 0.0000 3.0000 2.0000 10.070 92.900 8.975 0.000 0.000 0.000 0.000 0.000         12.336 11.461 0.876
DSCMET_421 2016-09-29 23:55:00 16826 262.600 5.0000 0.0000 0.0000 263.600 5.0000 0.0000 0.0000 282.600 0.0000 4.7500 0.2500 10.270 91.800 8.997 0.000 0.000 0.000 0.000 0.000         12.503 11.477 1.025
DSCMET_421 2016-09-29 23:50:00 16825 262.600 5.0000 0.0000 0.0000 263.600 5.0000 0.0000 0.0000 284.100 0.0000 2.2500 2.7500 10.310 91.500 8.988 0.000 0.000 0.000 0.000 0.000         12.536 11.471 1.066
DSCMET_421 2016-09-29 23:45:00 16824 262.600 5.0000 0.0000 0.0000 263.600 5.0000 0.0000 0.0000 334.400 0.0000 3.2500 1.7500 10.240 91.900 8.983 0.000 0.000 0.000 0.000 0.000         12.478 11.467 1.011
DSCMET_421 2016-09-29 23:40:00 16823 262.600 5.0000 0.0000 0.0000 263.600 5.0000 0.0000 0.0000 282.100 0.0000 4.7500 0.2500 10.340 91.500 9.018 0.000 0.000 0.000 0.000 0.000         12.561 11.494 1.068
DSCMET_421 2016-09-29 23:35:00 16822 262.600 5.0000 0.0000 0.0000 263.600 5.0000 0.0000 0.0000 281.700 0.0000 4.7500 0.2500 10.380 91.600 9.073 0.000 0.000 0.000 0.000 0.000         12.595 11.537 1.058
DSCMET_421 2016-09-29 23:30:00 16821 262.600 5.0000 0.0000 0.0000 263.600 5.0000 0.0000 0.0000 276.600 0.0000 5.0000 0.0000 10.480 91.300 9.124 0.000 0.000 0.000 0.000 0.000         12.679 11.576 1.103
DSCMET_421 2016-09-29 23:25:00 16820 262.600 5.0000 0.0000 0.0000 263.600 5.0000 0.0000 0.0000 410.700 0.0000 2.5000 2.5000 10.550 91.100 9.161 0.000 0.000 0.000 0.000 0.000         12.739 11.605 1.134
DSCMET_421 2016-09-29 23:20:00 16819 262.600 5.0000 0.0000 0.0000 263.600 5.0000 0.0000 0.0000 283.800 0.0000 2.7500 2.2500 10.330 92.400 9.153 0.000 0.000 0.000 0.000 0.000         12.553 11.599 0.954
DSCMET_421 2016-09-29 23:15:00 16818 262.600 5.0000 0.0000 0.0000 263.600 5.0000 0.0000 0.0000 289.600 0.0000 0.2500 4.7500 10.400 92.100 9.174 0.000 0.000 0.000 0.000 0.000         12.612 11.615 0.996
DSCMET_421 2016-09-29 23:10:00 16817 262.600 5.0000 0.0000 0.0000 263.600 5.0000 0.0000 0.0000 287.800 0.0000 0.0000 5.0000 10.420 91.900 9.162 0.000 0.000 0.000 0.000 0.000         12.629 11.606 1.023
DSCMET_421 2016-09-29 23:05:00 16816 262.600 5.0000 0.0000 0.0000 263.600 5.0000 0.0000 0.0000 291.000 0.0000 0.0000 5.0000 10.590 91.400 9.249 0.000 0.000 0.000 0.000 0.000         12.773 11.674 1.098
DSCMET_421 2016-09-29 23:00:00 16815 262.600 5.0000 0.0000 0.0000 263.600 5.0000 0.0000 0.0000 286.700 0.0000 0.0000 5.0000 10.720 91.200 9.345 0.000 0.000 0.000 0.000 0.000         12.884 11.750 1.134
DSCMET_421 2016-09-29 22:55:00 16814 262.600 5.0000 0.0000 0.0000 263.600 5.0000 0.0000 0.0000 293.500 0.0000 0.0000 5.0000 10.610 91.700 9.317 0.000 0.000 0.000 0.000 0.000         12.790 11.728 1.062
DSCMET_421 2016-09-29 22:50:00 16813 262.600 5.0000 0.0000 0.0000 263.600 5.0000 0.0000 0.0000 289.600 0.0000 0.0000 5.0000 10.570 91.800 9.294 0.000 0.000 0.000 0.000 0.000         12.756 11.710 1.046
DSCMET_421 2016-09-29 22:45:00 16812 262.600 5.0000 0.0000 0.0000 263.600 5.0000 0.0000 0.0000 289.000 0.0000 0.2500 4.7500 10.610 91.800 9.333 0.000 0.000 0.000 0.000 0.000         12.790 11.741 1.049
DSCMET_421 2016-09-29 22:40:00 16811 262.600 5.0000 0.0000 0.0000 263.600 5.0000 0.0000 0.0000 291.100 0.0000 0.0000 5.0000 10.550 92.800 9.435 0.000 0.000 0.000 0.000 0.000         12.739 11.821 0.917
DSCMET_421 2016-09-29 22:35:00 16810 262.600 5.0000 0.0000 0.0000 263.600 5.0000 0.0000 0.0000 300.400 0.0000 0.0000 5.0000 10.500 92.400 9.321 0.000 0.000 0.000 0.000 0.000         12.696 11.731 0.965
DSCMET_421 2016-09-29 22:30:00 16809 262.600 5.0000 0.0000 0.0000 263.600 5.0000 0.0000 0.0000 486.300 0.0000 0.0000 5.0000 10.740 91.700 9.446 0.000 0.000 0.000 0.000 0.000         12.901 11.830 1.071
DSCMET_421 2016-09-29 22:25:00 16808 262.600 5.0000 0.0000 0.0000 263.600 5.0000 0.0000 0.0000 476.400 0.0000 0.0000 5.0000 10.810 91.200 9.434 0.000 0.000 0.000 0.000 0.000         12.961 11.821 1.141
DSCMET_421 2016-09-29 22:20:00 16807 262.600 5.0000 0.0000 0.0000 263.500 5.0000 0.0000 0.0000 281.800 0.0000 4.7500 0.2500 10.950 90.500 9.458 0.000 0.000 0.000 0.000 0.000         13.083 11.840 1.243
DSCMET_421 2016-09-29 22:15:00 16806 262.600 5.0000 0.0000 0.0000 263.600 5.0000 0.0000 0.0000 287.000 0.0000 0.7500 4.2500 11.140 90.100 9.580 0.000 0.000 0.000 0.000 0.000         13.249 11.937 1.312
DSCMET_421 2016-09-29 22:10:00 16805 262.600 5.0000 0.0000 0.0000 263.300 5.0000 0.0000 0.0000 282.500 0.0000 4.0000 1.0000 11.090 90.500 9.596 0.000 0.000 0.000 0.000 0.000         13.205 11.950 1.254
DSCMET_421 2016-09-29 22:05:00 16804 262.600 5.0000 0.0000 0.0000 263.300 5.0000 0.0000 0.0000 282.400 0.0000 4.5000 0.5000 11.070 90.700 9.609 0.000 0.000 0.000 0.000 0.000         13.187 11.961 1.226
DSCMET_421 2016-09-29 22:00:00 16803 262.600 5.0000 0.0000 0.0000 263.400 5.0000 0.0000 0.0000 283.000 0.0000 3.5000 1.5000 11.250 90.400 9.738 0.000 0.000 0.000 0.000 0.000         13.346 12.065 1.281
DSCMET_421 2016-09-29 21:55:00 16802 262.600 5.0000 0.0000 0.0000 263.200 5.0000 0.0000 0.0000 303.300 0.0000 3.5000 1.5000 11.250 90.000 9.672 0.000 0.000 0.000 0.000 0.000         13.346 12.011 1.335
DSCMET_421 2016-09-29 21:50:00 16801 262.600 5.0000 0.0000 0.0000 263.400 5.0000 0.0000 0.0000 277.500 0.0000 5.0000 0.0000 11.390 89.700 9.760 0.000 0.000 0.000 0.000 0.000         13.470 12.083 1.387
DSCMET_421 2016-09-29 21:45:00 16800 262.600 5.0000 0.0000 0.0000 263.600 5.0000 0.0000 0.0000 277.000 0.0000 4.7500 0.2500 11.300 90.400 9.787 0.000 0.000 0.000 0.000 0.000         13.390 12.105 1.285
DSCMET_421 2016-09-29 21:40:00 16799 262.600 5.0000 0.0000 0.0000 263.600 5.0000 0.0000 0.0000 284.800 0.0000 1.5000 3.5000 11.450 89.500 9.786 0.000 0.000 0.000 0.000 0.000         13.524 12.104 1.420
DSCMET_421 2016-09-29 21:35:00 16798 262.600 5.0000 0.0000 0.0000 263.600 5.0000 0.0000 0.0000 287.300 0.0000 0.5000 4.5000 11.420 89.800 9.806 0.000 0.000 0.000 0.000 0.000         13.497 12.120 1.377
DSCMET_421 2016-09-29 21:30:00 16797 262.600 5.0000 0.0000 0.0000 263.400 5.0000 0.0000 0.0000 283.000 0.0000 3.0000 2.0000 11.400 90.500 9.902 0.000 0.000 0.000 0.000 0.000         13.479 12.199 1.281
DSCMET_421 2016-09-29 21:25:00 16796 262.600 5.0000 0.0000 0.0000 263.200 5.0000 0.0000 0.0000 288.400 0.0000 0.7500 4.2500 11.510 90.400 9.995 0.000 0.000 0.000 0.000 0.000         13.578 12.274 1.303
DSCMET_421 2016-09-29 21:20:00 16795 262.600 5.0000 0.0000 0.0000 263.200 5.0000 0.0000 0.0000 274.800 0.0000 5.0000 0.0000 11.610 89.500 9.944 0.000 0.000 0.000 0.000 0.000         13.668 12.233 1.435
DSCMET_421 2016-09-29 21:15:00 16794 262.600 5.0000 0.0000 0.0000 263.200 5.0000 0.0000 0.0000 275.700 0.0000 4.5000 0.5000 11.690 89.600 10.040 0.000 0.000 0.000 0.000 0.000         13.740 12.311 1.429
DSCMET_421 2016-09-29 21:10:00 16793 262.600 5.0000 0.0000 0.0000 263.200 5.0000 0.0000 0.0000 285.500 0.0000 2.2500 2.7500 11.800 88.900 10.031 0.000 0.000 0.000 0.000 0.000         13.841 12.304 1.536
DSCMET_421 2016-09-29 21:05:00 16792 262.500 5.0000 0.0000 0.0000 263.200 5.0000 0.0000 0.0000 284.700 0.0000 1.7500 3.2500 11.770 89.000 10.018 0.000 0.000 0.000 0.000 0.000         13.813 12.294 1.519
DSCMET_421 2016-09-29 21:00:00 16791 262.500 5.0000 0.0000 0.0000 263.200 5.0000 0.0000 0.0000 286.200 0.0000 1.0000 4.0000 11.770 89.200 10.052 0.000 0.000 0.000 0.000 0.000         13.813 12.321 1.492
DSCMET_421 2016-09-29 20:55:00 16790 262.500 5.0000 0.0000 0.0000 263.200 5.0000 0.0000 0.0000 387.900 0.0000 0.2500 4.7500 11.690 89.400 10.006 0.000 0.000 0.000 0.000 0.000         13.740 12.284 1.456
DSCMET_421 2016-09-29 20:50:00 16789 262.500 5.0000 0.0000 0.0000 263.200 5.0000 0.0000 0.0000 2354.000 0.0000 0.0000 5.0000 11.800 89.300 10.098 0.000 0.000 0.000 0.000 0.000         13.841 12.360 1.481
DSCMET_421 2016-09-29 20:45:00 16788 262.400 5.0000 0.0000 0.0000 263.200 5.0000 0.0000 0.0000 2219.000 0.0000 0.5000 4.5000 11.810 89.600 10.158 0.000 0.000 0.000 0.000 0.000         13.850 12.409 1.440
DSCMET_421 2016-09-29 20:40:00 16787 262.200 5.0000 0.0000 0.0000 263.200 5.0000 0.0000 0.0000 276.400 0.0000 5.0000 0.0000 11.940 89.000 10.186 0.000 0.000 0.000 0.000 0.000         13.969 12.433 1.537
DSCMET_421 2016-09-29 20:35:00 16786 262.200 5.0000 0.0000 0.0000 263.200 5.0000 0.0000 0.0000 275.500 0.2500 4.7500 0.0000 12.120 88.400 10.262 0.000 0.000 0.000 0.000 0.000         14.136 12.496 1.640
DSCMET_421 2016-09-29 20:30:00 16785 262.200 5.0000 0.0000 0.0000 263.200 5.0000 0.0000 0.0000 268.700 5.0000 0.0000 0.0000 12.190 88.100 10.280 0.000 0.000 0.000 0.000 0.000         14.201 12.511 1.690
DSCMET_421 2016-09-29 20:25:00 16784 262.200 5.0000 0.0000 0.0000 263.200 5.0000 0.0000 0.0000 269.000 5.0000 0.0000 0.0000 12.400 87.700 10.419 0.000 0.000 0.000 0.000 0.000         14.399 12.628 1.771
DSCMET_421 2016-09-29 20:20:00 16783 262.200 5.0000 0.0000 0.0000 263.100 5.0000 0.0000 0.0000 269.800 5.0000 0.0000 0.0000 12.500 87.500 10.483 0.000 0.000 0.000 0.000 0.000         14.494 12.682 1.812
DSCMET_421 2016-09-29 20:15:00 16782 262.200 5.0000 0.0000 0.0000 262.900 5.0000 0.0000 0.0000 268.500 5.0000 0.0000 0.0000 12.720 86.800 10.579 0.000 0.000 0.000 0.000 0.000         14.704 12.763 1.941
DSCMET_421 2016-09-29 20:10:00 16781 262.200 5.0000 0.0000 0.0000 262.900 5.0000 0.0000 0.0000 267.800 5.0000 0.0000 0.0000 12.850 85.800 10.533 0.000 0.000 0.000 0.000 0.000         14.830 12.724 2.106
DSCMET_421 2016-09-29 20:05:00 16780 262.200 5.0000 0.0000 0.0000 262.800 5.0000 0.0000 0.0000 474.500 4.5000 0.0000 0.5000 12.780 86.500 10.586 0.000 0.000 0.000 0.000 0.000         14.762 12.769 1.993
DSCMET_421 2016-09-29 20:00:00 16779 262.200 5.0000 0.0000 0.0000 262.800 5.0000 0.0000 0.0000 2351.000 0.0000 0.0000 5.0000 12.860 86.500 10.665 0.000 0.000 0.000 0.000 0.000         14.840 12.836 2.003
DSCMET_421 2016-09-29 19:55:00 16778 262.200 5.0000 0.0000 0.0000 262.800 5.0000 0.0000 0.0000 2379.000 0.0000 0.0000 5.0000 13.060 85.600 10.704 0.000 0.000 0.000 0.000 0.000         15.035 12.870 2.165
DSCMET_421 2016-09-29 19:50:00 16777 262.200 5.0000 0.0000 0.0000 262.800 5.0000 0.0000 0.0000 2413.000 0.0000 0.0000 5.0000 13.130 84.900 10.650 0.000 0.000 0.000 0.000 0.000         15.104 12.824 2.281
DSCMET_421 2016-09-29 19:45:00 16776 262.200 5.0000 0.0000 0.0000 262.800 5.0000 0.0000 0.0000 2348.000 0.0000 0.2500 4.7500 13.310 84.500 10.755 0.000 0.000 0.000 0.000 0.000         15.283 12.914 2.369
DSCMET_421 2016-09-29 19:40:00 16775 262.200 5.0000 0.0000 0.0000 262.800 5.0000 0.0000 0.0000 274.300 1.2500 3.7500 0.0000 13.630 83.100 10.817 0.000 0.000 0.000 0.000 0.000         15.605 12.968 2.637
DSCMET_421 2016-09-29 19:35:00 16774 262.200 5.0000 0.0000 0.0000 262.800 5.0000 0.0000 0.0000 381.200 4.7500 0.0000 0.2500 13.790 82.500 10.865 0.000 0.000 0.000 0.000 0.000         15.768 13.009 2.759
DSCMET_421 2016-09-29 19:30:00 16773 262.000 5.0000 0.0000 0.0000 262.800 5.0000 0.0000 0.0000 270.200 5.0000 0.0000 0.0000 13.780 82.200 10.800 0.000 0.000 0.000 0.000 0.000         15.758 12.953 2.805
DSCMET_421 2016-09-29 19:25:00 16772 261.800 5.0000 0.0000 0.0000 262.500 5.0000 0.0000 0.0000 1074.000 2.0000 0.5000 2.5000 13.710 82.800 10.841 0.000 0.000 0.000 0.000 0.000         15.686 12.988 2.698
DSCMET_421 2016-09-29 19:20:00 16771 261.800 5.0000 0.0000 0.0000 262.500 5.0000 0.0000 0.0000 278.200 0.0000 5.0000 0.0000 13.920 81.800 10.864 0.000 0.000 0.000 0.000 0.000         15.902 13.008 2.894
DSCMET_421 2016-09-29 19:15:00 16770 261.800 5.0000 0.0000 0.0000 262.500 5.0000 0.0000 0.0000 279.500 0.0000 5.0000 0.0000 14.180 80.700 10.914 0.000 0.000 0.000 0.000 0.000         16.172 13.051 3.121
DSCMET_421 2016-09-29 19:10:00 16769 261.800 5.0000 0.0000 0.0000 262.500 5.0000 0.0000 0.0000 277.600 0.0000 5.0000 0.0000 14.590 77.880 10.778 0.000 0.000 0.000 0.000 0.000         16.607 12.934 3.673
DSCMET_421 2016-09-29 19:05:00 16768 261.800 5.0000 0.0000 0.0000 262.600 5.0000 0.0000 0.0000 280.200 0.0000 5.0000 0.0000 14.560 77.740 10.722 0.000 0.000 0.000 0.000 0.000         16.575 12.885 3.690
DSCMET_421 2016-09-29 19:00:00 16767 261.800 5.0000 0.0000 0.0000 262.500 5.0000 0.0000 0.0000 280.900 0.0000 5.0000 0.0000 14.170 80.700 10.904 0.000 0.000 0.000 0.000 0.000         16.162 13.043 3.119
DSCMET_421 2016-09-29 18:55:00 16766 261.800 5.0000 0.0000 0.0000 262.500 5.0000 0.0000 0.0000 281.100 0.0000 5.0000 0.0000 14.150 81.300 10.996 0.000 0.000 0.000 0.000 0.000         16.141 13.123 3.018
DSCMET_421 2016-09-29 18:50:00 16765 261.800 5.0000 0.0000 0.0000 262.400 5.0000 0.0000 0.0000 279.600 0.0000 5.0000 0.0000 14.460 78.900 10.847 0.000 0.000 0.000 0.000 0.000         16.468 12.993 3.475
DSCMET_421 2016-09-29 18:45:00 16764 261.800 5.0000 0.0000 0.0000 262.400 5.0000 0.0000 0.0000 280.300 0.2500 4.7500 0.0000 14.480 79.260 10.935 0.000 0.000 0.000 0.000 0.000         16.489 13.069 3.420
DSCMET_421 2016-09-29 18:40:00 16763 261.800 5.0000 0.0000 0.0000 262.400 5.0000 0.0000 0.0000 272.300 5.0000 0.0000 0.0000 14.540 79.370 11.014 0.000 0.000 0.000 0.000 0.000         16.553 13.138 3.415
DSCMET_421 2016-09-29 18:35:00 16762 261.800 5.0000 0.0000 0.0000 262.400 5.0000 0.0000 0.0000 272.300 4.7500 0.2500 0.0000 14.700 78.840 11.069 0.000 0.000 0.000 0.000 0.000         16.725 13.186 3.539
DSCMET_421 2016-09-29 18:30:00 16761 261.600 5.0000 0.0000 0.0000 262.300 5.0000 0.0000 0.0000 277.000 0.0000 5.0000 0.0000 14.860 78.430 11.146 0.000 0.000 0.000 0.000 0.000         16.899 13.254 3.645
DSCMET_421 2016-09-29 18:25:00 16760 261.400 5.0000 0.0000 0.0000 262.100 5.0000 0.0000 0.0000 273.600 3.2500 1.7500 0.0000 14.900 77.430 10.991 0.000 0.000 0.000 0.000 0.000         16.942 13.119 3.824
DSCMET_421 2016-09-29 18:20:00 16759 261.400 5.0000 0.0000 0.0000 262.100 5.0000 0.0000 0.0000 278.400 0.0000 5.0000 0.0000 14.990 77.510 11.094 0.000 0.000 0.000 0.000 0.000         17.041 13.208 3.833
DSCMET_421 2016-09-29 18:15:00 16758 261.400 5.0000 0.0000 0.0000 262.100 5.0000 0.0000 0.0000 279.300 0.0000 5.0000 0.0000 15.160 76.080 10.978 0.000 0.000 0.000 0.000 0.000         17.228 13.107 4.121
DSCMET_421 2016-09-29 18:10:00 16757 261.400 5.0000 0.0000 0.0000 262.100 5.0000 0.0000 0.0000 275.400 0.0000 5.0000 0.0000 15.250 74.640 10.778 0.000 0.000 0.000 0.000 0.000         17.328 12.934 4.394
DSCMET_421 2016-09-29 18:05:00 16756 261.400 5.0000 0.0000 0.0000 262.100 5.0000 0.0000 0.0000 274.600 0.5000 4.5000 0.0000 15.210 75.650 10.942 0.000 0.000 0.000 0.000 0.000         17.284 13.075 4.209
DSCMET_421 2016-09-29 18:00:00 16755 261.400 5.0000 0.0000 0.0000 262.100 5.0000 0.0000 0.0000 265.300 5.0000 0.0000 0.0000 15.250 76.000 11.050 0.000 0.000 0.000 0.000 0.000         17.328 13.169 4.159
DSCMET_421 2016-09-29 17:55:00 16754 261.400 5.0000 0.0000 0.0000 262.100 5.0000 0.0000 0.0000 265.300 5.0000 0.0000 0.0000 15.500 74.860 11.064 0.000 0.000 0.000 0.000 0.000         17.609 13.182 4.427
DSCMET_421 2016-09-29 17:50:00 16753 261.300 5.0000 0.0000 0.0000 262.000 5.0000 0.0000 0.0000 262.400 5.0000 0.0000 0.0000 15.710 73.660 11.023 0.000 0.000 0.000 0.000 0.000         17.847 13.146 4.701
DSCMET_421 2016-09-29 17:45:00 16752 261.100 5.0000 0.0000 0.0000 261.700 5.0000 0.0000 0.0000 262.500 5.0000 0.0000 0.0000 15.790 72.270 10.813 0.000 0.000 0.000 0.000 0.000         17.939 12.964 4.974
DSCMET_421 2016-09-29 17:40:00 16751 261.100 5.0000 0.0000 0.0000 261.700 5.0000 0.0000 0.0000 264.200 5.0000 0.0000 0.0000 15.920 71.160 10.706 0.000 0.000 0.000 0.000 0.000         18.088 12.872 5.217
DSCMET_421 2016-09-29 17:35:00 16750 261.000 5.0000 0.0000 0.0000 261.700 5.0000 0.0000 0.0000 265.400 4.7500 0.0000 0.2500 16.030 70.520 10.676 0.000 0.000 0.000 0.000 0.000         18.216 12.846 5.370
DSCMET_421 2016-09-29 17:30:00 16749 261.000 5.0000 0.0000 0.0000 261.700 5.0000 0.0000 0.0000 268.700 5.0000 0.0000 0.0000 16.280 68.920 10.571 0.000 0.000 0.000 0.000 0.000         18.509 12.756 5.753
DSCMET_421 2016-09-29 17:25:00 16748 261.000 5.0000 0.0000 0.0000 261.700 5.0000 0.0000 0.0000 269.600 4.7500 0.2500 0.0000 16.360 68.290 10.509 0.000 0.000 0.000 0.000 0.000         18.603 12.704 5.899
DSCMET_421 2016-09-29 17:20:00 16747 261.000 5.0000 0.0000 0.0000 261.500 5.0000 0.0000 0.0000 279.300 0.0000 5.0000 0.0000 16.760 66.450 10.481 0.000 0.000 0.000 0.000 0.000         19.083 12.680 6.402
DSCMET_421 2016-09-29 17:15:00 16746 261.000 5.0000 0.0000 0.0000 261.300 5.0000 0.0000 0.0000 278.000 0.5000 4.5000 0.0000 16.700 66.290 10.388 0.000 0.000 0.000 0.000 0.000         19.010 12.602 6.408
DSCMET_421 2016-09-29 17:10:00 16745 260.900 5.0000 0.0000 0.0000 261.300 5.0000 0.0000 0.0000 273.000 4.5000 0.5000 0.0000 16.780 66.000 10.399 0.000 0.000 0.000 0.000 0.000         19.107 12.611 6.496
DSCMET_421 2016-09-29 17:05:00 16744 260.700 5.0000 0.0000 0.0000 261.300 5.0000 0.0000 0.0000 273.400 3.7500 1.2500 0.0000 16.940 64.410 10.186 0.000 0.000 0.000 0.000 0.000         19.302 12.432 6.870
DSCMET_421 2016-09-29 17:00:00 16743 260.700 5.0000 0.0000 0.0000 261.300 5.0000 0.0000 0.0000 267.000 5.0000 0.0000 0.0000 17.230 62.690 10.056 0.000 0.000 0.000 0.000 0.000         19.660 12.325 7.335
DSCMET_421 2016-09-29 16:55:00 16742 260.700 5.0000 0.0000 0.0000 261.000 5.0000 0.0000 0.0000 266.400 5.0000 0.0000 0.0000 17.550 61.200 9.998 0.000 0.000 0.000 0.000 0.000         20.061 12.277 7.784
DSCMET_421 2016-09-29 16:50:00 16741 260.700 5.0000 0.0000 0.0000 261.000 5.0000 0.0000 0.0000 261.600 5.0000 0.0000 0.0000 17.790 59.120 9.708 0.000 0.000 0.000 0.000 0.000         20.367 12.041 8.326
DSCMET_421 2016-09-29 16:45:00 16740 260.300 5.0000 0.0000 0.0000 261.000 5.0000 0.0000 0.0000 261.300 5.0000 0.0000 0.0000 18.260 55.330 9.163 0.000 0.000 0.000 0.000 0.000         20.978 11.607 9.371
DSCMET_421 2016-09-29 16:40:00 16739 260.300 5.0000 0.0000 0.0000 261.000 5.0000 0.0000 0.0000 260.700 5.0000 0.0000 0.0000 18.420 53.820 8.902 0.000 0.000 0.000 0.000 0.000         21.189 11.404 9.785
DSCMET_421 2016-09-29 16:35:00 16738 260.300 5.0000 0.0000 0.0000 260.700 5.0000 0.0000 0.0000 260.600 5.0000 0.0000 0.0000 18.790 53.100 9.045 0.000 0.000 0.000 0.000 0.000         21.685 11.515 10.170
DSCMET_421 2016-09-29 16:30:00 16737 260.300 5.0000 0.0000 0.0000 260.900 5.0000 0.0000 0.0000 260.200 5.0000 0.0000 0.0000 19.310 49.890 8.603 0.000 0.000 0.000 0.000 0.000         22.400 11.175 11.225
DSCMET_421 2016-09-29 16:25:00 16736 260.100 5.0000 0.0000 0.0000 260.900 5.0000 0.0000 0.0000 260.300 5.0000 0.0000 0.0000 19.660 47.550 8.216 0.000 0.000 0.000 0.000 0.000         22.893 10.885 12.007
DSCMET_421 2016-09-29 16:20:00 16735 260.000 5.0000 0.0000 0.0000 260.800 5.0000 0.0000 0.0000 260.300 5.0000 0.0000 0.0000 19.960 47.090 8.346 0.000 0.000 0.000 0.000 0.000         23.322 10.983 12.340
DSCMET_421 2016-09-29 16:15:00 16734 260.000 5.0000 0.0000 0.0000 260.700 5.0000 0.0000 0.0000 260.300 5.0000 0.0000 0.0000 20.150 45.730 8.088 0.000 0.000 0.000 0.000 0.000         23.598 10.791 12.807
DSCMET_421 2016-09-29 16:10:00 16733 260.000 5.0000 0.0000 0.0000 260.700 5.0000 0.0000 0.0000 260.300 5.0000 0.0000 0.0000 20.360 44.820 7.983 0.000 0.000 0.000 0.000 0.000         23.906 10.715 13.192
DSCMET_421 2016-09-29 16:05:00 16732 260.000 5.0000 0.0000 0.0000 260.700 5.0000 0.0000 0.0000 260.300 5.0000 0.0000 0.0000 20.390 44.870 8.027 0.000 0.000 0.000 0.000 0.000         23.951 10.747 13.204
DSCMET_421 2016-09-29 16:00:00 16731 260.000 5.0000 0.0000 0.0000 260.600 5.0000 0.0000 0.0000 260.300 5.0000 0.0000 0.0000 20.520 44.220 7.930 0.000 0.000 0.000 0.000 0.000         24.143 10.676 13.467
DSCMET_421 2016-09-29 15:55:00 16730 260.000 5.0000 0.0000 0.0000 260.600 5.0000 0.0000 0.0000 260.300 5.0000 0.0000 0.0000 20.650 43.870 7.931 0.000 0.000 0.000 0.000 0.000         24.338 10.677 13.661
DSCMET_421 2016-09-29 15:50:00 16729 260.000 5.0000 0.0000 0.0000 260.600 5.0000 0.0000 0.0000 260.300 5.0000 0.0000 0.0000 20.800 43.240 7.855 0.000 0.000 0.000 0.000 0.000         24.563 10.621 13.942
DSCMET_421 2016-09-29 15:45:00 16728 260.000 5.0000 0.0000 0.0000 260.600 5.0000 0.0000 0.0000 260.500 5.0000 0.0000 0.0000 21.020 42.700 7.869 0.000 0.000 0.000 0.000 0.000         24.898 10.631 14.266
DSCMET_421 2016-09-29 15:40:00 16727 260.000 5.0000 0.0000 0.0000 260.600 5.0000 0.0000 0.0000 260.600 5.0000 0.0000 0.0000 21.170 42.330 7.876 0.000 0.000 0.000 0.000 0.000         25.128 10.637 14.491
DSCMET_421 2016-09-29 15:35:00 16726 260.000 5.0000 0.0000 0.0000 260.600 5.0000 0.0000 0.0000 260.700 5.0000 0.0000 0.0000 21.220 41.950 7.789 0.000 0.000 0.000 0.000 0.000         25.205 10.574 14.632
DSCMET_421 2016-09-29 15:30:00 16725 260.000 5.0000 0.0000 0.0000 260.600 5.0000 0.0000 0.0000 260.800 5.0000 0.0000 0.0000 21.160 41.270 7.496 0.000 0.000 0.000 0.000 0.000         25.113 10.364 14.749
DSCMET_421 2016-09-29 15:25:00 16724 260.000 5.0000 0.0000 0.0000 260.600 5.0000 0.0000 0.0000 260.700 5.0000 0.0000 0.0000 21.120 41.500 7.541 0.000 0.000 0.000 0.000 0.000         25.051 10.396 14.655
DSCMET_421 2016-09-29 15:20:00 16723 260.000 5.0000 0.0000 0.0000 260.600 5.0000 0.0000 0.0000 260.700 5.0000 0.0000 0.0000 21.140 41.170 7.442 0.000 0.000 0.000 0.000 0.000         25.082 10.326 14.756
DSCMET_421 2016-09-29 15:15:00 16722 260.000 5.0000 0.0000 0.0000 260.700 5.0000 0.0000 0.0000 260.900 5.0000 0.0000 0.0000 21.160 41.560 7.598 0.000 0.000 0.000 0.000 0.000         25.113 10.437 14.676
DSCMET_421 2016-09-29 15:10:00 16721 260.000 5.0000 0.0000 0.0000 260.600 5.0000 0.0000 0.0000 261.000 5.0000 0.0000 0.0000 21.080 40.890 7.289 0.000 0.000 0.000 0.000 0.000         24.990 10.218 14.771
DSCMET_421 2016-09-29 15:05:00 16720 260.000 5.0000 0.0000 0.0000 260.700 5.0000 0.0000 0.0000 261.300 5.0000 0.0000 0.0000 21.310 40.040 7.188 0.000 0.000 0.000 0.000 0.000         25.345 10.148 15.197
DSCMET_421 2016-09-29 15:00:00 16719 260.000 5.0000 0.0000 0.0000 260.800 5.0000 0.0000 0.0000 260.800 5.0000 0.0000 0.0000 21.300 40.070 7.190 0.000 0.000 0.000 0.000 0.000         25.329 10.149 15.180
DSCMET_421 2016-09-29 14:55:00 16718 260.000 5.0000 0.0000 0.0000 260.700 5.0000 0.0000 0.0000 261.300 5.0000 0.0000 0.0000 21.310 41.170 7.595 0.000 0.000 0.000 0.000 0.000         25.345 10.434 14.910
DSCMET_421 2016-09-29 14:50:00 16717 260.000 5.0000 0.0000 0.0000 260.700 5.0000 0.0000 0.0000 261.200 5.0000 0.0000 0.0000 21.300 42.020 7.885 0.000 0.000 0.000 0.000 0.000         25.329 10.643 14.686
DSCMET_421 2016-09-29 14:45:00 16716 260.000 5.0000 0.0000 0.0000 260.700 5.0000 0.0000 0.0000 261.100 5.0000 0.0000 0.0000 21.480 40.760 7.600 0.000 0.000 0.000 0.000 0.000         25.610 10.439 15.171
DSCMET_421 2016-09-29 14:40:00 16715 260.000 5.0000 0.0000 0.0000 260.800 5.0000 0.0000 0.0000 261.400 5.0000 0.0000 0.0000 21.210 40.220 7.164 0.000 0.000 0.000 0.000 0.000         25.190 10.131 15.058
DSCMET_421 2016-09-29 14:35:00 16714 260.000 5.0000 0.0000 0.0000 261.000 5.0000 0.0000 0.0000 261.700 5.0000 0.0000 0.0000 21.260 41.210 7.564 0.000 0.000 0.000 0.000 0.000         25.267 10.413 14.855
DSCMET_421 2016-09-29 14:30:00 16713 260.000 5.0000 0.0000 0.0000 261.000 5.0000 0.0000 0.0000 261.400 5.0000 0.0000 0.0000 21.230 41.570 7.664 0.000 0.000 0.000 0.000 0.000         25.221 10.484 14.736
DSCMET_421 2016-09-29 14:25:00 16712 260.000 5.0000 0.0000 0.0000 261.000 5.0000 0.0000 0.0000 261.400 5.0000 0.0000 0.0000 21.230 42.050 7.833 0.000 0.000 0.000 0.000 0.000         25.221 10.605 14.615
DSCMET_421 2016-09-29 14:20:00 16711 260.000 5.0000 0.0000 0.0000 261.000 5.0000 0.0000 0.0000 261.300 5.0000 0.0000 0.0000 21.380 42.430 8.100 0.000 0.000 0.000 0.000 0.000         25.454 10.800 14.654
DSCMET_421 2016-09-29 14:15:00 16710 260.000 5.0000 0.0000 0.0000 261.000 5.0000 0.0000 0.0000 261.300 5.0000 0.0000 0.0000 21.230 43.350 8.280 0.000 0.000 0.000 0.000 0.000         25.221 10.933 14.288
DSCMET_421 2016-09-29 14:10:00 16709 260.100 5.0000 0.0000 0.0000 260.800 5.0000 0.0000 0.0000 261.400 5.0000 0.0000 0.0000 21.210 43.560 8.333 0.000 0.000 0.000 0.000 0.000         25.190 10.973 14.217
DSCMET_421 2016-09-29 14:05:00 16708 260.000 5.0000 0.0000 0.0000 260.600 5.0000 0.0000 0.0000 261.500 5.0000 0.0000 0.0000 21.110 44.070 8.414 0.000 0.000 0.000 0.000 0.000         25.036 11.033 14.002
DSCMET_421 2016-09-29 14:00:00 16707 260.300 5.0000 0.0000 0.0000 260.600 5.0000 0.0000 0.0000 261.700 5.0000 0.0000 0.0000 21.040 44.190 8.391 0.000 0.000 0.000 0.000 0.000         24.928 11.016 13.913
DSCMET_421 2016-09-29 13:55:00 16706 260.100 5.0000 0.0000 0.0000 260.400 5.0000 0.0000 0.0000 261.300 5.0000 0.0000 0.0000 21.050 44.910 8.638 0.000 0.000 0.000 0.000 0.000         24.944 11.202 13.741
DSCMET_421 2016-09-29 13:50:00 16705 260.000 5.0000 0.0000 0.0000 260.300 5.0000 0.0000 0.0000 261.300 5.0000 0.0000 0.0000 20.920 45.350 8.664 0.000 0.000 0.000 0.000 0.000         24.745 11.222 13.523
DSCMET_421 2016-09-29 13:45:00 16704 260.100 5.0000 0.0000 0.0000 260.300 5.0000 0.0000 0.0000 261.300 5.0000 0.0000 0.0000 21.130 45.600 8.936 0.000 0.000 0.000 0.000 0.000         25.066 11.430 13.636
DSCMET_421 2016-09-29 13:40:00 16703 260.100 5.0000 0.0000 0.0000 260.500 5.0000 0.0000 0.0000 261.300 5.0000 0.0000 0.0000 21.050 47.270 9.396 0.000 0.000 0.000 0.000 0.000         24.944 11.791 13.153
DSCMET_421 2016-09-29 13:35:00 16702 259.900 5.0000 0.0000 0.0000 260.700 5.0000 0.0000 0.0000 261.400 5.0000 0.0000 0.0000 21.060 46.530 9.171 0.000 0.000 0.000 0.000 0.000         24.959 11.613 13.346
DSCMET_421 2016-09-29 13:30:00 16701 259.700 5.0000 0.0000 0.0000 261.000 5.0000 0.0000 0.0000 261.700 5.0000 0.0000 0.0000 20.740 47.080 9.054 0.000 0.000 0.000 0.000 0.000         24.473 11.522 12.951
DSCMET_421 2016-09-29 13:25:00 16700 259.700 5.0000 0.0000 0.0000 261.200 5.0000 0.0000 0.0000 261.900 5.0000 0.0000 0.0000 20.860 47.170 9.192 0.000 0.000 0.000 0.000 0.000         24.654 11.629 13.025
DSCMET_421 2016-09-29 13:20:00 16699 260.100 5.0000 0.0000 0.0000 261.300 5.0000 0.0000 0.0000 261.900 5.0000 0.0000 0.0000 20.680 47.300 9.068 0.000 0.000 0.000 0.000 0.000         24.383 11.533 12.850
DSCMET_421 2016-09-29 13:15:00 16698 260.000 5.0000 0.0000 0.0000 261.200 5.0000 0.0000 0.0000 262.200 5.0000 0.0000 0.0000 20.530 47.840 9.100 0.000 0.000 0.000 0.000 0.000         24.158 11.557 12.601
DSCMET_421 2016-09-29 13:10:00 16697 260.100 5.0000 0.0000 0.0000 261.000 5.0000 0.0000 0.0000 264.500 4.7500 0.2500 0.0000 20.610 47.420 9.042 0.000 0.000 0.000 0.000 0.000         24.278 11.513 12.765
DSCMET_421 2016-09-29 13:05:00 16696 260.200 5.0000 0.0000 0.0000 261.100 5.0000 0.0000 0.0000 266.100 5.0000 0.0000 0.0000 20.690 47.150 9.031 0.000 0.000 0.000 0.000 0.000         24.398 11.503 12.894
DSCMET_421 2016-09-29 13:00:00 16695 260.200 5.0000 0.0000 0.0000 261.400 5.0000 0.0000 0.0000 267.800 5.0000 0.0000 0.0000 20.690 48.900 9.571 0.000 0.000 0.000 0.000 0.000         24.398 11.930 12.467
DSCMET_421 2016-09-29 12:55:00 16694 260.200 5.0000 0.0000 0.0000 261.400 5.0000 0.0000 0.0000 276.500 0.7500 4.2500 0.0000 20.510 48.890 9.403 0.000 0.000 0.000 0.000 0.000         24.129 11.796 12.332
DSCMET_421 2016-09-29 12:50:00 16693 260.000 5.0000 0.0000 0.0000 261.400 5.0000 0.0000 0.0000 273.300 4.0000 1.0000 0.0000 20.540 49.940 9.747 0.000 0.000 0.000 0.000 0.000         24.173 12.072 12.101
DSCMET_421 2016-09-29 12:45:00 16692 260.400 5.0000 0.0000 0.0000 261.500 5.0000 0.0000 0.0000 272.200 4.5000 0.2500 0.2500 20.630 49.970 9.839 0.000 0.000 0.000 0.000 0.000         24.308 12.147 12.161
DSCMET_421 2016-09-29 12:40:00 16691 260.600 5.0000 0.0000 0.0000 261.400 5.0000 0.0000 0.0000 286.100 0.0000 0.0000 5.0000 20.540 50.180 9.818 0.000 0.000 0.000 0.000 0.000         24.173 12.130 12.043
DSCMET_421 2016-09-29 12:35:00 16690 260.900 5.0000 0.0000 0.0000 261.700 5.0000 0.0000 0.0000 286.700 0.0000 0.5000 4.5000 20.190 51.570 9.904 0.000 0.000 0.000 0.000 0.000         23.657 12.200 11.457
DSCMET_421 2016-09-29 12:30:00 16689 261.200 5.0000 0.0000 0.0000 261.700 5.0000 0.0000 0.0000 277.700 0.0000 5.0000 0.0000 20.270 51.830 10.052 0.000 0.000 0.000 0.000 0.000         23.774 12.322 11.452
DSCMET_421 2016-09-29 12:25:00 16688 261.300 5.0000 0.0000 0.0000 261.700 5.0000 0.0000 0.0000 278.300 0.2500 4.7500 0.0000 20.390 52.380 10.321 0.000 0.000 0.000 0.000 0.000         23.951 12.545 11.405
DSCMET_421 2016-09-29 12:20:00 16687 261.300 5.0000 0.0000 0.0000 261.600 5.0000 0.0000 0.0000 273.500 5.0000 0.0000 0.0000 19.700 53.290 9.940 0.000 0.000 0.000 0.000 0.000         22.950 12.230 10.720
DSCMET_421 2016-09-29 12:15:00 16686 261.300 5.0000 0.0000 0.0000 261.800 5.0000 0.0000 0.0000 274.200 2.2500 2.7500 0.0000 20.050 53.000 10.183 0.000 0.000 0.000 0.000 0.000         23.453 12.430 11.023
DSCMET_421 2016-09-29 12:10:00 16685 261.300 5.0000 0.0000 0.0000 262.000 5.0000 0.0000 0.0000 274.900 0.0000 5.0000 0.0000 19.940 54.900 10.608 0.000 0.000 0.000 0.000 0.000         23.294 12.788 10.505
DSCMET_421 2016-09-29 12:05:00 16684 261.600 5.0000 0.0000 0.0000 262.000 5.0000 0.0000 0.0000 274.000 1.5000 3.5000 0.0000 19.470 55.180 10.248 0.000 0.000 0.000 0.000 0.000         22.624 12.484 10.140
DSCMET_421 2016-09-29 12:00:00 16683 261.700 5.0000 0.0000 0.0000 262.200 5.0000 0.0000 0.0000 267.000 5.0000 0.0000 0.0000 19.650 55.540 10.512 0.000 0.000 0.000 0.000 0.000         22.878 12.707 10.172
DSCMET_421 2016-09-29 11:55:00 16682 261.700 5.0000 0.0000 0.0000 262.500 5.0000 0.0000 0.0000 266.800 5.0000 0.0000 0.0000 20.150 56.830 11.323 0.000 0.000 0.000 0.000 0.000         23.598 13.411 10.187
DSCMET_421 2016-09-29 11:50:00 16681 261.900 5.0000 0.0000 0.0000 262.600 5.0000 0.0000 0.0000 268.700 5.0000 0.0000 0.0000 19.700 57.960 11.200 0.000 0.000 0.000 0.000 0.000         22.950 13.302 9.648
DSCMET_421 2016-09-29 11:45:00 16680 261.800 5.0000 0.0000 0.0000 262.300 5.0000 0.0000 0.0000 268.200 5.0000 0.0000 0.0000 18.960 58.330 10.603 0.000 0.000 0.000 0.000 0.000         21.917 12.784 9.133
DSCMET_421 2016-09-29 11:40:00 16679 262.000 5.0000 0.0000 0.0000 262.700 5.0000 0.0000 0.0000 269.300 5.0000 0.0000 0.0000 19.270 59.060 11.081 0.000 0.000 0.000 0.000 0.000         22.344 13.197 9.148
DSCMET_421 2016-09-29 11:35:00 16678 262.000 5.0000 0.0000 0.0000 262.700 5.0000 0.0000 0.0000 272.000 4.2500 0.7500 0.0000 19.290 59.770 11.279 0.000 0.000 0.000 0.000 0.000         22.372 13.372 9.000
DSCMET_421 2016-09-29 11:30:00 16677 262.100 5.0000 0.0000 0.0000 262.700 5.0000 0.0000 0.0000 279.400 0.0000 5.0000 0.0000 19.000 61.280 11.383 0.000 0.000 0.000 0.000 0.000         21.972 13.464 8.507
DSCMET_421 2016-09-29 11:25:00 16676 262.100 5.0000 0.0000 0.0000 262.700 5.0000 0.0000 0.0000 279.500 0.0000 5.0000 0.0000 18.600 60.320 10.769 0.000 0.000 0.000 0.000 0.000         21.429 12.926 8.503
DSCMET_421 2016-09-29 11:20:00 16675 262.400 5.0000 0.0000 0.0000 262.700 5.0000 0.0000 0.0000 275.500 2.0000 3.0000 0.0000 18.440 60.490 10.661 0.000 0.000 0.000 0.000 0.000         21.216 12.833 8.382
DSCMET_421 2016-09-29 11:15:00 16674 262.700 5.0000 0.0000 0.0000 262.900 5.0000 0.0000 0.0000 270.400 5.0000 0.0000 0.0000 18.900 59.160 10.759 0.000 0.000 0.000 0.000 0.000         21.835 12.918 8.917
DSCMET_421 2016-09-29 11:10:00 16673 262.700 5.0000 0.0000 0.0000 263.100 5.0000 0.0000 0.0000 266.400 5.0000 0.0000 0.0000 19.410 61.130 11.732 0.000 0.000 0.000 0.000 0.000         22.540 13.779 8.761
DSCMET_421 2016-09-29 11:05:00 16672 262.700 5.0000 0.0000 0.0000 263.100 5.0000 0.0000 0.0000 266.500 5.0000 0.0000 0.0000 18.900 64.730 12.118 0.000 0.000 0.000 0.000 0.000         21.835 14.134 7.701
DSCMET_421 2016-09-29 11:00:00 16671 262.800 5.0000 0.0000 0.0000 263.100 5.0000 0.0000 0.0000 267.500 5.0000 0.0000 0.0000 18.060 63.480 11.028 0.000 0.000 0.000 0.000 0.000         20.716 13.150 7.565
DSCMET_421 2016-09-29 10:55:00 16670 262.900 5.0000 0.0000 0.0000 263.400 5.0000 0.0000 0.0000 267.700 5.0000 0.0000 0.0000 17.810 66.270 11.439 0.000 0.000 0.000 0.000 0.000         20.393 13.514 6.878
DSCMET_421 2016-09-29 10:50:00 16669 263.000 5.0000 0.0000 0.0000 263.200 5.0000 0.0000 0.0000 266.400 5.0000 0.0000 0.0000 17.740 65.440 11.182 0.000 0.000 0.000 0.000 0.000         20.303 13.286 7.017
DSCMET_421 2016-09-29 10:45:00 16668 263.000 5.0000 0.0000 0.0000 263.400 5.0000 0.0000 0.0000 266.900 5.0000 0.0000 0.0000 17.850 68.760 12.035 0.000 0.000 0.000 0.000 0.000         20.444 14.057 6.387
DSCMET_421 2016-09-29 10:40:00 16667 263.100 5.0000 0.0000 0.0000 263.400 5.0000 0.0000 0.0000 269.700 5.0000 0.0000 0.0000 18.100 68.030 12.112 0.000 0.000 0.000 0.000 0.000         20.768 14.128 6.639
DSCMET_421 2016-09-29 10:35:00 16666 263.100 5.0000 0.0000 0.0000 263.400 5.0000 0.0000 0.0000 271.300 4.5000 0.2500 0.2500 17.700 67.310 11.570 0.000 0.000 0.000 0.000 0.000         20.252 13.631 6.620
DSCMET_421 2016-09-29 10:30:00 16665 263.200 5.0000 0.0000 0.0000 263.700 5.0000 0.0000 0.0000 288.300 0.0000 0.0000 5.0000 17.750 68.830 11.955 0.000 0.000 0.000 0.000 0.000         20.316 13.983 6.332
DSCMET_421 2016-09-29 10:25:00 16664 263.400 5.0000 0.0000 0.0000 263.700 5.0000 0.0000 0.0000 287.200 0.0000 0.2500 4.7500 17.420 71.220 12.157 0.000 0.000 0.000 0.000 0.000         19.897 14.171 5.726
DSCMET_421 2016-09-29 10:20:00 16663 263.400 5.0000 0.0000 0.0000 263.900 5.0000 0.0000 0.0000 280.600 0.0000 5.0000 0.0000 16.930 71.440 11.734 0.000 0.000 0.000 0.000 0.000         19.290 13.780 5.509
DSCMET_421 2016-09-29 10:15:00 16662 263.600 5.0000 0.0000 0.0000 264.100 5.0000 0.0000 0.0000 280.900 0.0000 5.0000 0.0000 17.250 71.720 12.100 0.000 0.000 0.000 0.000 0.000         19.684 14.118 5.567
DSCMET_421 2016-09-29 10:10:00 16661 263.700 5.0000 0.0000 0.0000 264.200 5.0000 0.0000 0.0000 279.800 0.0000 5.0000 0.0000 17.260 72.180 12.207 0.000 0.000 0.000 0.000 0.000         19.697 14.217 5.480
DSCMET_421 2016-09-29 10:05:00 16660 263.800 5.0000 0.0000 0.0000 264.300 5.0000 0.0000 0.0000 280.600 0.0000 5.0000 0.0000 16.940 73.630 12.202 0.000 0.000 0.000 0.000 0.000         19.302 14.212 5.090
DSCMET_421 2016-09-29 10:00:00 16659 263.800 5.0000 0.0000 0.0000 264.300 5.0000 0.0000 0.0000 279.400 0.0000 5.0000 0.0000 16.660 72.770 11.754 0.000 0.000 0.000 0.000 0.000         18.962 13.799 5.163
DSCMET_421 2016-09-29 09:55:00 16658 263.800 5.0000 0.0000 0.0000 264.400 5.0000 0.0000 0.0000 283.700 0.0000 3.7500 1.2500 16.940 73.970 12.272 0.000 0.000 0.000 0.000 0.000         19.302 14.278 5.024
DSCMET_421 2016-09-29 09:50:00 16657 263.800 5.0000 0.0000 0.0000 264.500 5.0000 0.0000 0.0000 284.000 0.0000 2.2500 2.7500 16.680 76.520 12.536 0.000 0.000 0.000 0.000 0.000         18.986 14.528 4.458
DSCMET_421 2016-09-29 09:45:00 16656 263.800 5.0000 0.0000 0.0000 264.500 5.0000 0.0000 0.0000 282.900 0.0000 4.0000 1.0000 16.360 78.860 12.685 0.000 0.000 0.000 0.000 0.000         18.603 14.671 3.933
DSCMET_421 2016-09-29 09:40:00 16655 263.800 5.0000 0.0000 0.0000 264.500 5.0000 0.0000 0.0000 285.500 0.0000 2.2500 2.7500 15.960 78.840 12.293 0.000 0.000 0.000 0.000 0.000         18.135 14.297 3.837
DSCMET_421 2016-09-29 09:35:00 16654 263.800 5.0000 0.0000 0.0000 264.500 5.0000 0.0000 0.0000 289.400 0.0000 0.0000 5.0000 15.690 78.010 11.870 0.000 0.000 0.000 0.000 0.000         17.824 13.905 3.920
DSCMET_421 2016-09-29 09:30:00 16653 263.800 5.0000 0.0000 0.0000 264.600 5.0000 0.0000 0.0000 321.800 0.0000 0.0000 5.0000 15.880 76.980 11.853 0.000 0.000 0.000 0.000 0.000         18.042 13.889 4.153
DSCMET_421 2016-09-29 09:25:00 16652 263.900 5.0000 0.0000 0.0000 264.900 5.0000 0.0000 0.0000 380.700 0.0000 0.0000 5.0000 15.650 78.800 11.984 0.000 0.000 0.000 0.000 0.000         17.779 14.010 3.769
DSCMET_421 2016-09-29 09:20:00 16651 263.900 5.0000 0.0000 0.0000 264.900 5.0000 0.0000 0.0000 428.300 0.0000 0.0000 5.0000 15.210 82.200 12.197 0.000 0.000 0.000 0.000 0.000         17.284 14.207 3.077
DSCMET_421 2016-09-29 09:15:00 16650 263.900 5.0000 0.0000 0.0000 264.900 5.0000 0.0000 0.0000 2179.000 0.0000 0.0000 5.0000 14.770 83.500 12.005 0.000 0.000 0.000 0.000 0.000         16.801 14.029 2.772
DSCMET_421 2016-09-29 09:10:00 16649 263.900 5.0000 0.0000 0.0000 264.900 5.0000 0.0000 0.0000 2314.000 0.0000 0.0000 5.0000 14.120 86.200 11.850 0.000 0.000 0.000 0.000 0.000         16.110 13.886 2.223
DSCMET_421 2016-09-29 09:05:00 16648 263.900 5.0000 0.0000 0.0000 264.900 5.0000 0.0000 0.0000 2348.000 0.0000 0.0000 5.0000 13.720 87.300 11.649 0.000 0.000 0.000 0.000 0.000         15.697 13.703 1.993
DSCMET_421 2016-09-29 09:00:00 16647 263.900 5.0000 0.0000 0.0000 264.900 5.0000 0.0000 0.0000 2396.000 0.0000 0.0000 5.0000 13.360 88.700 11.535 0.000 0.000 0.000 0.000 0.000         15.333 13.600 1.733
DSCMET_421 2016-09-29 08:55:00 16646 263.700 5.0000 0.0000 0.0000 264.900 5.0000 0.0000 0.0000 2362.000 0.0000 0.0000 5.0000 13.340 88.300 11.447 0.000 0.000 0.000 0.000 0.000         15.313 13.521 1.792
DSCMET_421 2016-09-29 08:50:00 16645 263.700 5.0000 0.0000 0.0000 264.900 5.0000 0.0000 0.0000 525.400 0.0000 0.0000 5.0000 13.110 89.400 11.407 0.000 0.000 0.000 0.000 0.000         15.085 13.486 1.599
DSCMET_421 2016-09-29 08:45:00 16644 263.700 5.0000 0.0000 0.0000 264.900 5.0000 0.0000 0.0000 703.300 0.0000 0.0000 5.0000 12.940 89.900 11.324 0.000 0.000 0.000 0.000 0.000         14.918 13.411 1.507
DSCMET_421 2016-09-29 08:40:00 16643 263.900 5.0000 0.0000 0.0000 264.900 5.0000 0.0000 0.0000 536.600 0.0000 0.0000 5.0000 12.640 90.800 11.177 0.000 0.000 0.000 0.000 0.000         14.627 13.282 1.346
DSCMET_421 2016-09-29 08:35:00 16642 263.600 5.0000 0.0000 0.0000 265.500 5.0000 0.0000 0.0000 543.300 0.0000 0.0000 5.0000 12.410 91.700 11.098 0.000 0.000 0.000 0.000 0.000         14.408 13.212 1.196
DSCMET_421 2016-09-29 08:30:00 16641 263.600 5.0000 0.0000 0.0000 266.500 5.0000 0.0000 0.0000 547.300 0.0000 0.0000 5.0000 12.260 93.200 11.194 0.000 0.000 0.000 0.000 0.000         14.267 13.297 0.970
DSCMET_421 2016-09-29 08:25:00 16640 263.600 5.0000 0.0000 0.0000 268.000 5.0000 0.0000 0.0000 550.000 0.0000 0.0000 5.0000 12.060 93.300 11.012 0.000 0.000 0.000 0.000 0.000         14.080 13.137 0.943
DSCMET_421 2016-09-29 08:20:00 16639 263.600 5.0000 0.0000 0.0000 270.600 5.0000 0.0000 0.0000 544.500 0.0000 0.0000 5.0000 11.810 94.000 10.877 0.000 0.000 0.000 0.000 0.000         13.850 13.019 0.831
DSCMET_421 2016-09-29 08:15:00 16638 263.600 5.0000 0.0000 0.0000 274.200 2.2500 2.7500 0.0000 547.800 0.0000 0.0000 5.0000 11.530 94.500 10.678 0.000 0.000 0.000 0.000 0.000         13.596 12.848 0.748
DSCMET_421 2016-09-29 08:10:00 16637 263.600 5.0000 0.0000 0.0000 277.800 0.0000 5.0000 0.0000 546.100 0.0000 0.0000 5.0000 11.460 94.100 10.545 0.000 0.000 0.000 0.000 0.000         13.533 12.734 0.798
DSCMET_421 2016-09-29 08:05:00 16636 263.600 5.0000 0.0000 0.0000 281.800 0.0000 5.0000 0.0000 574.900 0.0000 0.0000 5.0000 11.520 94.400 10.652 0.000 0.000 0.000 0.000 0.000         13.587 12.826 0.761
DSCMET_421 2016-09-29 08:00:00 16635 263.600 5.0000 0.0000 0.0000 285.100 0.0000 0.7500 4.2500 554.200 0.0000 0.0000 5.0000 11.370 94.600 10.535 0.000 0.000 0.000 0.000 0.000         13.452 12.726 0.726
DSCMET_421 2016-09-29 07:55:00 16634 263.600 5.0000 0.0000 0.0000 288.600 0.0000 0.0000 5.0000 591.800 0.0000 0.0000 5.0000 11.210 94.800 10.408 0.000 0.000 0.000 0.000 0.000         13.310 12.618 0.692
DSCMET_421 2016-09-29 07:50:00 16633 263.600 5.0000 0.0000 0.0000 292.100 0.0000 0.0000 5.0000 560.900 0.0000 0.0000 5.0000 11.160 95.500 10.468 0.000 0.000 0.000 0.000 0.000         13.266 12.669 0.597
DSCMET_421 2016-09-29 07:45:00 16632 263.600 5.0000 0.0000 0.0000 294.700 0.0000 0.0000 5.0000 569.600 0.0000 0.0000 5.0000 11.100 95.600 10.424 0.000 0.000 0.000 0.000 0.000         13.214 12.632 0.581
DSCMET_421 2016-09-29 07:40:00 16631 263.600 5.0000 0.0000 0.0000 297.200 0.0000 0.0000 5.0000 569.900 0.0000 0.0000 5.0000 10.940 95.400 10.234 0.000 0.000 0.000 0.000 0.000         13.074 12.472 0.601
DSCMET_421 2016-09-29 07:35:00 16630 263.600 5.0000 0.0000 0.0000 299.200 0.0000 0.0000 5.0000 569.300 0.0000 0.0000 5.0000 10.850 95.700 10.191 0.000 0.000 0.000 0.000 0.000         12.996 12.437 0.559
DSCMET_421 2016-09-29 07:30:00 16629 263.700 5.0000 0.0000 0.0000 301.500 0.0000 0.0000 5.0000 560.600 0.0000 0.0000 5.0000 10.680 95.700 10.022 0.000 0.000 0.000 0.000 0.000         12.850 12.297 0.553
DSCMET_421 2016-09-29 07:25:00 16628 263.800 5.0000 0.0000 0.0000 303.600 0.0000 0.0000 5.0000 563.000 0.0000 0.0000 5.0000 10.740 96.000 10.129 0.000 0.000 0.000 0.000 0.000         12.901 12.385 0.516
DSCMET_421 2016-09-29 07:20:00 16627 263.700 5.0000 0.0000 0.0000 305.600 0.0000 0.0000 5.0000 569.800 0.0000 0.0000 5.0000 10.740 95.800 10.097 0.000 0.000 0.000 0.000 0.000         12.901 12.359 0.542
DSCMET_421 2016-09-29 07:15:00 16626 263.600 5.0000 0.0000 0.0000 307.300 0.0000 0.0000 5.0000 571.700 0.0000 0.0000 5.0000 10.590 95.700 9.933 0.000 0.000 0.000 0.000 0.000         12.773 12.223 0.549
DSCMET_421 2016-09-29 07:10:00 16625 263.600 5.0000 0.0000 0.0000 309.300 0.0000 0.0000 5.0000 565.100 0.0000 0.0000 5.0000 10.590 95.500 9.901 0.000 0.000 0.000 0.000 0.000         12.773 12.198 0.575
DSCMET_421 2016-09-29 07:05:00 16624 263.600 5.0000 0.0000 0.0000 310.800 0.0000 0.0000 5.0000 567.100 0.0000 0.0000 5.0000 10.420 95.100 9.670 0.000 0.000 0.000 0.000 0.000         12.629 12.010 0.619
DSCMET_421 2016-09-29 07:00:00 16623 263.600 5.0000 0.0000 0.0000 312.300 0.0000 0.0000 5.0000 577.700 0.0000 0.0000 5.0000 10.280 95.500 9.593 0.000 0.000 0.000 0.000 0.000         12.511 11.948 0.563
DSCMET_421 2016-09-29 06:55:00 16622 263.600 5.0000 0.0000 0.0000 313.500 0.0000 0.0000 5.0000 587.700 0.0000 0.0000 5.0000 10.170 95.700 9.515 0.000 0.000 0.000 0.000 0.000         12.419 11.885 0.534
DSCMET_421 2016-09-29 06:50:00 16621 263.600 5.0000 0.0000 0.0000 314.500 0.0000 0.0000 5.0000 572.800 0.0000 0.0000 5.0000 10.140 95.700 9.485 0.000 0.000 0.000 0.000 0.000         12.394 11.861 0.533
DSCMET_421 2016-09-29 06:45:00 16620 263.700 5.0000 0.0000 0.0000 315.500 0.0000 0.0000 5.0000 592.100 0.0000 0.0000 5.0000 10.040 95.800 9.401 0.000 0.000 0.000 0.000 0.000         12.312 11.795 0.517
DSCMET_421 2016-09-29 06:40:00 16619 263.600 5.0000 0.0000 0.0000 316.800 0.0000 0.0000 5.0000 572.100 0.0000 0.0000 5.0000 9.900 96.100 9.308 0.000 0.000 0.000 0.000 0.000         12.197 11.721 0.476
DSCMET_421 2016-09-29 06:35:00 16618 263.700 5.0000 0.0000 0.0000 317.900 0.0000 0.0000 5.0000 701.400 0.0000 0.0000 5.0000 9.890 96.000 9.283 0.000 0.000 0.000 0.000 0.000         12.189 11.701 0.488
DSCMET_421 2016-09-29 06:30:00 16617 263.800 5.0000 0.0000 0.0000 319.100 0.0000 0.0000 5.0000 570.500 0.0000 0.0000 5.0000 9.880 96.000 9.273 0.000 0.000 0.000 0.000 0.000         12.180 11.693 0.487
DSCMET_421 2016-09-29 06:25:00 16616 264.000 5.0000 0.0000 0.0000 319.900 0.0000 0.0000 5.0000 658.600 0.0000 0.0000 5.0000 9.810 96.300 9.249 0.000 0.000 0.000 0.000 0.000         12.123 11.675 0.449
DSCMET_421 2016-09-29 06:20:00 16615 264.000 5.0000 0.0000 0.0000 320.800 0.0000 0.0000 5.0000 581.900 0.0000 0.0000 5.0000 9.650 96.800 9.167 0.000 0.000 0.000 0.000 0.000         11.994 11.610 0.384
DSCMET_421 2016-09-29 06:15:00 16614 264.000 5.0000 0.0000 0.0000 321.500 0.0000 0.0000 5.0000 581.700 0.0000 0.0000 5.0000 9.660 96.500 9.131 0.000 0.000 0.000 0.000 0.000         12.002 11.582 0.420
DSCMET_421 2016-09-29 06:10:00 16613 264.000 5.0000 0.0000 0.0000 322.200 0.0000 0.0000 5.0000 576.900 0.0000 0.0000 5.0000 9.620 96.700 9.122 0.000 0.000 0.000 0.000 0.000         11.970 11.575 0.395
DSCMET_421 2016-09-29 06:05:00 16612 264.000 5.0000 0.0000 0.0000 322.900 0.0000 0.0000 5.0000 577.400 0.0000 0.0000 5.0000 9.630 96.700 9.132 0.000 0.000 0.000 0.000 0.000         11.978 11.582 0.395
DSCMET_421 2016-09-29 06:00:00 16611 264.000 5.0000 0.0000 0.0000 323.500 0.0000 0.0000 5.0000 573.300 0.0000 0.0000 5.0000 9.600 96.900 9.132 0.000 0.000 0.000 0.000 0.000         11.953 11.583 0.371
DSCMET_421 2016-09-29 05:55:00 16610 264.000 5.0000 0.0000 0.0000 324.100 0.0000 0.0000 5.0000 574.200 0.0000 0.0000 5.0000 9.530 97.200 9.108 0.000 0.000 0.000 0.000 0.000         11.897 11.564 0.333
DSCMET_421 2016-09-29 05:50:00 16609 264.100 5.0000 0.0000 0.0000 324.600 0.0000 0.0000 5.0000 582.400 0.0000 0.0000 5.0000 9.480 97.200 9.059 0.000 0.000 0.000 0.000 0.000         11.857 11.525 0.332
DSCMET_421 2016-09-29 05:45:00 16608 264.300 5.0000 0.0000 0.0000 325.200 0.0000 0.0000 5.0000 583.200 0.0000 0.0000 5.0000 9.370 97.300 8.964 0.000 0.000 0.000 0.000 0.000         11.770 11.452 0.318
DSCMET_421 2016-09-29 05:40:00 16607 264.500 5.0000 0.0000 0.0000 325.600 0.0000 0.0000 5.0000 578.500 0.0000 0.0000 5.0000 9.320 97.500 8.945 0.000 0.000 0.000 0.000 0.000         11.730 11.437 0.293
DSCMET_421 2016-09-29 05:35:00 16606 264.700 5.0000 0.0000 0.0000 326.100 0.0000 0.0000 5.0000 579.200 0.0000 0.0000 5.0000 9.290 97.300 8.885 0.000 0.000 0.000 0.000 0.000         11.707 11.391 0.316
DSCMET_421 2016-09-29 05:30:00 16605 265.000 5.0000 0.0000 0.0000 326.500 0.0000 0.0000 5.0000 581.100 0.0000 0.0000 5.0000 9.340 97.300 8.934 0.000 0.000 0.000 0.000 0.000         11.746 11.429 0.317
DSCMET_421 2016-09-29 05:25:00 16604 265.400 5.0000 0.0000 0.0000 326.900 0.0000 0.0000 5.0000 582.400 0.0000 0.0000 5.0000 9.270 97.600 8.910 0.000 0.000 0.000 0.000 0.000         11.691 11.410 0.281
DSCMET_421 2016-09-29 05:20:00 16603 265.700 5.0000 0.0000 0.0000 327.300 0.0000 0.0000 5.0000 579.200 0.0000 0.0000 5.0000 9.170 97.800 8.841 0.000 0.000 0.000 0.000 0.000         11.612 11.357 0.255
DSCMET_421 2016-09-29 05:15:00 16602 266.000 5.0000 0.0000 0.0000 327.400 0.0000 0.0000 5.0000 579.400 0.0000 0.0000 5.0000 9.140 98.000 8.841 0.000 0.000 0.000 0.000 0.000         11.589 11.357 0.232
DSCMET_421 2016-09-29 05:10:00 16601 266.300 5.0000 0.0000 0.0000 327.400 0.0000 0.0000 5.0000 581.700 0.0000 0.0000 5.0000 9.050 97.900 8.736 0.000 0.000 0.000 0.000 0.000         11.519 11.277 0.242
DSCMET_421 2016-09-29 05:05:00 16600 266.400 5.0000 0.0000 0.0000 327.200 0.0000 0.0000 5.0000 584.100 0.0000 0.0000 5.0000 9.060 97.900 8.746 0.000 0.000 0.000 0.000 0.000         11.526 11.284 0.242
DSCMET_421 2016-09-29 05:00:00 16599 266.600 5.0000 0.0000 0.0000 326.900 0.0000 0.0000 5.0000 584.800 0.0000 0.0000 5.0000 9.080 98.000 8.781 0.000 0.000 0.000 0.000 0.000         11.542 11.311 0.231
DSCMET_421 2016-09-29 04:55:00 16598 266.600 5.0000 0.0000 0.0000 326.200 0.0000 0.0000 5.0000 583.200 0.0000 0.0000 5.0000 9.010 97.900 8.696 0.000 0.000 0.000 0.000 0.000         11.488 11.246 0.241
DSCMET_421 2016-09-29 04:50:00 16597 266.600 5.0000 0.0000 0.0000 325.400 0.0000 0.0000 5.0000 578.100 0.0000 0.0000 5.0000 9.170 97.900 8.856 0.000 0.000 0.000 0.000 0.000         11.612 11.368 0.244
DSCMET_421 2016-09-29 04:45:00 16596 266.600 5.0000 0.0000 0.0000 324.500 0.0000 0.0000 5.0000 576.300 0.0000 0.0000 5.0000 9.180 98.000 8.881 0.000 0.000 0.000 0.000 0.000         11.620 11.388 0.232
DSCMET_421 2016-09-29 04:40:00 16595 266.600 5.0000 0.0000 0.0000 323.400 0.0000 0.0000 5.0000 562.500 0.0000 0.0000 5.0000 9.170 98.100 8.886 0.000 0.000 0.000 0.000 0.000         11.612 11.392 0.221
DSCMET_421 2016-09-29 04:35:00 16594 266.600 5.0000 0.0000 0.0000 322.300 0.0000 0.0000 5.0000 561.300 0.0000 0.0000 5.0000 9.160 98.100 8.876 0.000 0.000 0.000 0.000 0.000         11.604 11.384 0.220
DSCMET_421 2016-09-29 04:30:00 16593 266.600 5.0000 0.0000 0.0000 321.200 0.0000 0.0000 5.0000 559.300 0.0000 0.0000 5.0000 9.160 98.100 8.876 0.000 0.000 0.000 0.000 0.000         11.604 11.384 0.220
DSCMET_421 2016-09-29 04:25:00 16592 266.600 5.0000 0.0000 0.0000 320.300 0.0000 0.0000 5.0000 773.600 0.0000 0.0000 5.0000 9.220 98.100 8.936 0.000 0.000 0.000 0.000 0.000         11.652 11.430 0.221
DSCMET_421 2016-09-29 04:20:00 16591 266.300 5.0000 0.0000 0.0000 319.200 0.0000 0.0000 5.0000 703.700 0.0000 0.0000 5.0000 9.220 98.200 8.951 0.000 0.000 0.000 0.000 0.000         11.652 11.442 0.210
DSCMET_421 2016-09-29 04:15:00 16590 266.300 5.0000 0.0000 0.0000 318.200 0.0000 0.0000 5.0000 905.000 0.0000 0.0000 5.0000 9.240 98.100 8.956 0.000 0.000 0.000 0.000 0.000         11.667 11.446 0.222
DSCMET_421 2016-09-29 04:10:00 16589 266.300 5.0000 0.0000 0.0000 317.200 0.0000 0.0000 5.0000 550.700 0.0000 0.0000 5.0000 9.230 98.000 8.931 0.000 0.000 0.000 0.000 0.000         11.659 11.426 0.233
DSCMET_421 2016-09-29 04:05:00 16588 266.300 5.0000 0.0000 0.0000 316.200 0.0000 0.0000 5.0000 549.300 0.0000 0.0000 5.0000 9.320 97.900 9.005 0.000 0.000 0.000 0.000 0.000         11.730 11.484 0.246
DSCMET_421 2016-09-29 04:00:00 16587 266.300 5.0000 0.0000 0.0000 315.500 0.0000 0.0000 5.0000 547.500 0.0000 0.0000 5.0000 9.390 97.800 9.060 0.000 0.000 0.000 0.000 0.000         11.786 11.526 0.259
DSCMET_421 2016-09-29 03:55:00 16586 266.300 5.0000 0.0000 0.0000 314.600 0.0000 0.0000 5.0000 546.000 0.0000 0.0000 5.0000 9.470 97.900 9.155 0.000 0.000 0.000 0.000 0.000         11.849 11.601 0.249
DSCMET_421 2016-09-29 03:50:00 16585 266.300 5.0000 0.0000 0.0000 313.500 0.0000 0.0000 5.0000 549.800 0.0000 0.0000 5.0000 9.500 98.000 9.200 0.000 0.000 0.000 0.000 0.000         11.873 11.636 0.237
DSCMET_421 2016-09-29 03:45:00 16584 266.200 5.0000 0.0000 0.0000 312.500 0.0000 0.0000 5.0000 579.700 0.0000 0.0000 5.0000 9.480 97.900 9.165 0.000 0.000 0.000 0.000 0.000         11.857 11.608 0.249
DSCMET_421 2016-09-29 03:40:00 16583 266.100 5.0000 0.0000 0.0000 311.600 0.0000 0.0000 5.0000 1271.000 0.0000 0.0000 5.0000 9.570 97.900 9.255 0.000 0.000 0.000 0.000 0.000         11.929 11.679 0.251
DSCMET_421 2016-09-29 03:35:00 16582 266.000 5.0000 0.0000 0.0000 310.800 0.0000 0.0000 5.0000 1242.000 0.0000 0.0000 5.0000 9.540 98.000 9.240 0.000 0.000 0.000 0.000 0.000         11.905 11.667 0.238
DSCMET_421 2016-09-29 03:30:00 16581 265.900 5.0000 0.0000 0.0000 309.700 0.0000 0.0000 5.0000 2082.000 0.0000 0.0000 5.0000 9.520 97.900 9.205 0.000 0.000 0.000 0.000 0.000         11.889 11.640 0.250
DSCMET_421 2016-09-29 03:25:00 16580 265.900 5.0000 0.0000 0.0000 308.700 0.0000 0.0000 5.0000 2083.000 0.0000 0.0000 5.0000 9.580 97.800 9.250 0.000 0.000 0.000 0.000 0.000         11.937 11.675 0.263
DSCMET_421 2016-09-29 03:20:00 16579 265.900 5.0000 0.0000 0.0000 307.700 0.0000 0.0000 5.0000 1917.000 0.0000 0.0000 5.0000 9.680 97.800 9.349 0.000 0.000 0.000 0.000 0.000         12.018 11.754 0.264
DSCMET_421 2016-09-29 03:15:00 16578 265.900 5.0000 0.0000 0.0000 307.000 0.0000 0.0000 5.0000 1907.000 0.0000 0.0000 5.0000 9.690 97.700 9.344 0.000 0.000 0.000 0.000 0.000         12.026 11.749 0.277
DSCMET_421 2016-09-29 03:10:00 16577 265.900 5.0000 0.0000 0.0000 306.200 0.0000 0.0000 5.0000 1974.000 0.0000 0.0000 5.0000 9.770 97.700 9.424 0.000 0.000 0.000 0.000 0.000         12.091 11.813 0.278
DSCMET_421 2016-09-29 03:05:00 16576 265.900 5.0000 0.0000 0.0000 305.400 0.0000 0.0000 5.0000 2129.000 0.0000 0.0000 5.0000 9.810 97.800 9.479 0.000 0.000 0.000 0.000 0.000         12.123 11.857 0.267
DSCMET_421 2016-09-29 03:00:00 16575 265.900 5.0000 0.0000 0.0000 304.400 0.0000 0.0000 5.0000 2440.000 0.0000 0.0000 5.0000 9.740 97.800 9.409 0.000 0.000 0.000 0.000 0.000         12.066 11.801 0.265
DSCMET_421 2016-09-29 02:55:00 16574 265.900 5.0000 0.0000 0.0000 303.400 0.0000 0.0000 5.0000 2444.000 0.0000 0.0000 5.0000 9.850 97.700 9.504 0.000 0.000 0.000 0.000 0.000         12.156 11.876 0.280
DSCMET_421 2016-09-29 02:50:00 16573 265.900 5.0000 0.0000 0.0000 302.700 0.0000 0.0000 5.0000 520.700 0.0000 0.0000 5.0000 9.890 97.700 9.544 0.000 0.000 0.000 0.000 0.000         12.189 11.908 0.280
DSCMET_421 2016-09-29 02:45:00 16572 265.900 5.0000 0.0000 0.0000 302.000 0.0000 0.0000 5.0000 514.400 0.0000 0.0000 5.0000 9.880 97.700 9.534 0.000 0.000 0.000 0.000 0.000         12.180 11.900 0.280
DSCMET_421 2016-09-29 02:40:00 16571 265.900 5.0000 0.0000 0.0000 301.100 0.0000 0.0000 5.0000 502.000 0.0000 0.0000 5.0000 9.970 97.700 9.623 0.000 0.000 0.000 0.000 0.000         12.254 11.972 0.282
DSCMET_421 2016-09-29 02:35:00 16570 265.900 5.0000 0.0000 0.0000 300.400 0.0000 0.0000 5.0000 498.900 0.0000 0.0000 5.0000 9.950 97.500 9.573 0.000 0.000 0.000 0.000 0.000         12.238 11.932 0.306
DSCMET_421 2016-09-29 02:30:00 16569 265.900 5.0000 0.0000 0.0000 299.700 0.0000 0.0000 5.0000 488.300 0.0000 0.0000 5.0000 10.130 97.400 9.737 0.000 0.000 0.000 0.000 0.000         12.386 12.064 0.322
DSCMET_421 2016-09-29 02:25:00 16568 265.800 5.0000 0.0000 0.0000 298.900 0.0000 0.0000 5.0000 637.000 0.0000 0.0000 5.0000 10.140 97.600 9.778 0.000 0.000 0.000 0.000 0.000         12.394 12.097 0.297
DSCMET_421 2016-09-29 02:20:00 16567 265.600 5.0000 0.0000 0.0000 297.900 0.0000 0.0000 5.0000 1995.000 0.0000 0.0000 5.0000 10.130 97.600 9.768 0.000 0.000 0.000 0.000 0.000         12.386 12.089 0.297
DSCMET_421 2016-09-29 02:15:00 16566 265.600 5.0000 0.0000 0.0000 297.100 0.0000 0.0000 5.0000 1990.000 0.0000 0.0000 5.0000 10.170 97.500 9.792 0.000 0.000 0.000 0.000 0.000         12.419 12.109 0.310
DSCMET_421 2016-09-29 02:10:00 16565 265.600 5.0000 0.0000 0.0000 296.200 0.0000 0.0000 5.0000 1996.000 0.0000 0.0000 5.0000 10.220 97.600 9.857 0.000 0.000 0.000 0.000 0.000         12.461 12.162 0.299
DSCMET_421 2016-09-29 02:05:00 16564 265.600 5.0000 0.0000 0.0000 295.500 0.0000 0.0000 5.0000 1990.000 0.0000 0.0000 5.0000 10.190 97.800 9.858 0.000 0.000 0.000 0.000 0.000         12.436 12.162 0.274
DSCMET_421 2016-09-29 02:00:00 16563 265.600 5.0000 0.0000 0.0000 294.800 0.0000 0.0000 5.0000 1992.000 0.0000 0.0000 5.0000 10.170 97.800 9.838 0.000 0.000 0.000 0.000 0.000         12.419 12.146 0.273
DSCMET_421 2016-09-29 01:55:00 16562 265.600 5.0000 0.0000 0.0000 293.900 0.0000 0.0000 5.0000 2039.000 0.0000 0.0000 5.0000 10.200 97.600 9.837 0.000 0.000 0.000 0.000 0.000         12.444 12.146 0.299
DSCMET_421 2016-09-29 01:50:00 16561 265.500 5.0000 0.0000 0.0000 293.100 0.0000 0.0000 5.0000 2080.000 0.0000 0.0000 5.0000 10.270 97.600 9.907 0.000 0.000 0.000 0.000 0.000         12.503 12.203 0.300
DSCMET_421 2016-09-29 01:45:00 16560 265.600 5.0000 0.0000 0.0000 292.400 0.0000 0.0000 5.0000 2324.000 0.0000 0.0000 5.0000 10.350 97.400 9.956 0.000 0.000 0.000 0.000 0.000         12.570 12.243 0.327
DSCMET_421 2016-09-29 01:40:00 16559 265.600 5.0000 0.0000 0.0000 291.900 0.0000 0.0000 5.0000 463.000 0.0000 0.0000 5.0000 10.460 97.100 10.020 0.000 0.000 0.000 0.000 0.000         12.662 12.295 0.367
DSCMET_421 2016-09-29 01:35:00 16558 265.400 5.0000 0.0000 0.0000 291.200 0.0000 0.0000 5.0000 460.100 0.0000 0.0000 5.0000 10.560 97.300 10.150 0.000 0.000 0.000 0.000 0.000         12.747 12.403 0.344
DSCMET_421 2016-09-29 01:30:00 16557 265.300 5.0000 0.0000 0.0000 290.500 0.0000 0.0000 5.0000 512.100 0.0000 0.0000 5.0000 10.610 97.600 10.246 0.000 0.000 0.000 0.000 0.000         12.790 12.483 0.307
DSCMET_421 2016-09-29 01:25:00 16556 265.300 5.0000 0.0000 0.0000 289.800 0.0000 0.0000 5.0000 464.300 0.0000 0.0000 5.0000 10.540 97.900 10.222 0.000 0.000 0.000 0.000 0.000         12.730 12.463 0.267
DSCMET_421 2016-09-29 01:20:00 16555 265.300 5.0000 0.0000 0.0000 289.100 0.0000 0.0000 5.0000 446.900 0.0000 0.0000 5.0000 10.410 97.800 10.077 0.000 0.000 0.000 0.000 0.000         12.620 12.343 0.278
DSCMET_421 2016-09-29 01:15:00 16554 265.300 5.0000 0.0000 0.0000 288.400 0.0000 0.0000 5.0000 444.400 0.0000 0.0000 5.0000 10.480 97.800 10.147 0.000 0.000 0.000 0.000 0.000         12.679 12.400 0.279
DSCMET_421 2016-09-29 01:10:00 16553 265.200 5.0000 0.0000 0.0000 287.700 0.0000 0.0000 5.0000 445.500 0.0000 0.0000 5.0000 10.450 97.700 10.102 0.000 0.000 0.000 0.000 0.000         12.654 12.363 0.291
DSCMET_421 2016-09-29 01:05:00 16552 264.900 5.0000 0.0000 0.0000 287.000 0.0000 0.0000 5.0000 442.500 0.0000 0.0000 5.0000 10.540 97.500 10.161 0.000 0.000 0.000 0.000 0.000         12.730 12.412 0.318
DSCMET_421 2016-09-29 01:00:00 16551 264.900 5.0000 0.0000 0.0000 286.300 0.0000 0.0000 5.0000 433.000 0.0000 0.0000 5.0000 10.640 97.400 10.245 0.000 0.000 0.000 0.000 0.000         12.815 12.482 0.333
DSCMET_421 2016-09-29 00:55:00 16550 264.900 5.0000 0.0000 0.0000 285.500 0.0000 0.0000 5.0000 430.800 0.0000 0.0000 5.0000 10.730 97.400 10.335 0.000 0.000 0.000 0.000 0.000         12.892 12.557 0.335
DSCMET_421 2016-09-29 00:50:00 16549 264.900 5.0000 0.0000 0.0000 284.800 0.0000 0.0000 5.0000 437.600 0.0000 0.0000 5.0000 10.790 97.300 10.380 0.000 0.000 0.000 0.000 0.000         12.944 12.595 0.349
DSCMET_421 2016-09-29 00:45:00 16548 264.900 5.0000 0.0000 0.0000 284.200 0.0000 1.0000 4.0000 440.200 0.0000 0.0000 5.0000 10.830 97.300 10.419 0.000 0.000 0.000 0.000 0.000         12.979 12.628 0.350
DSCMET_421 2016-09-29 00:40:00 16547 264.900 5.0000 0.0000 0.0000 283.600 0.0000 5.0000 0.0000 435.000 0.0000 0.0000 5.0000 10.900 97.300 10.489 0.000 0.000 0.000 0.000 0.000         13.039 12.687 0.352
DSCMET_421 2016-09-29 00:35:00 16546 264.700 5.0000 0.0000 0.0000 282.900 0.0000 5.0000 0.0000 428.900 0.0000 0.0000 5.0000 10.890 97.400 10.495 0.000 0.000 0.000 0.000 0.000         13.030 12.692 0.339
DSCMET_421 2016-09-29 00:30:00 16545 264.600 5.0000 0.0000 0.0000 282.300 0.0000 5.0000 0.0000 419.900 0.0000 0.0000 5.0000 10.890 97.300 10.479 0.000 0.000 0.000 0.000 0.000         13.030 12.679 0.352
DSCMET_421 2016-09-29 00:25:00 16544 264.600 5.0000 0.0000 0.0000 281.700 0.0000 5.0000 0.0000 517.900 0.0000 0.0000 5.0000 11.000 97.300 10.589 0.000 0.000 0.000 0.000 0.000         13.126 12.772 0.354
DSCMET_421 2016-09-29 00:20:00 16543 264.600 5.0000 0.0000 0.0000 281.100 0.0000 5.0000 0.0000 2458.000 0.0000 0.0000 5.0000 11.020 97.300 10.609 0.000 0.000 0.000 0.000 0.000         13.144 12.789 0.355
DSCMET_421 2016-09-29 00:15:00 16542 264.500 5.0000 0.0000 0.0000 280.400 0.0000 5.0000 0.0000 2416.000 0.0000 0.0000 5.0000 11.080 97.100 10.638 0.000 0.000 0.000 0.000 0.000         13.196 12.813 0.383
DSCMET_421 2016-09-29 00:10:00 16541 264.600 5.0000 0.0000 0.0000 280.000 0.0000 5.0000 0.0000 413.400 0.0000 0.0000 5.0000 11.150 97.100 10.708 0.000 0.000 0.000 0.000 0.000         13.258 12.873 0.384
DSCMET_421 2016-09-29 00:05:00 16540 264.300 5.0000 0.0000 0.0000 279.300 0.0000 5.0000 0.0000 410.300 0.0000 0.0000 5.0000 11.180 97.200 10.753 0.000 0.000 0.000 0.000 0.000         13.284 12.912 0.372
DSCMET_421 2016-09-29 00:00:00 16539 264.200 5.0000 0.0000 0.0000 278.700 0.0000 5.0000 0.0000 399.000 0.0000 0.0000 5.0000 11.150 97.300 10.738 0.000 0.000 0.000 0.000 0.000         13.258 12.900 0.358
DSCMET_421 2016-09-28 23:55:00 16538 264.200 5.0000 0.0000 0.0000 278.100 0.0000 5.0000 0.0000 827.000 0.0000 0.0000 5.0000 11.140 97.200 10.713 0.000 0.000 0.000 0.000 0.000         13.249 12.878 0.371
DSCMET_421 2016-09-28 23:50:00 16537 264.200 5.0000 0.0000 0.0000 277.400 0.0000 5.0000 0.0000 399.300 0.0000 0.0000 5.0000 11.300 97.000 10.841 0.000 0.000 0.000 0.000 0.000         13.390 12.988 0.402
DSCMET_421 2016-09-28 23:45:00 16536 264.200 5.0000 0.0000 0.0000 276.900 0.0000 5.0000 0.0000 399.200 0.0000 0.0000 5.0000 11.350 96.900 10.876 0.000 0.000 0.000 0.000 0.000         13.435 13.018 0.416
DSCMET_421 2016-09-28 23:40:00 16535 264.200 5.0000 0.0000 0.0000 276.300 0.0000 5.0000 0.0000 398.500 0.0000 0.0000 5.0000 11.470 96.500 10.933 0.000 0.000 0.000 0.000 0.000         13.542 13.068 0.474
DSCMET_421 2016-09-28 23:35:00 16534 264.200 5.0000 0.0000 0.0000 275.800 0.0000 5.0000 0.0000 474.600 0.0000 0.0000 5.0000 11.560 96.800 11.069 0.000 0.000 0.000 0.000 0.000         13.623 13.187 0.436
DSCMET_421 2016-09-28 23:30:00 16533 264.100 5.0000 0.0000 0.0000 275.200 0.0000 5.0000 0.0000 2004.000 0.0000 0.0000 5.0000 11.550 96.800 11.059 0.000 0.000 0.000 0.000 0.000         13.614 13.178 0.436
DSCMET_421 2016-09-28 23:25:00 16532 264.100 5.0000 0.0000 0.0000 274.700 0.0000 5.0000 0.0000 1991.000 0.0000 0.0000 5.0000 11.600 96.700 11.094 0.000 0.000 0.000 0.000 0.000         13.659 13.208 0.451
DSCMET_421 2016-09-28 23:20:00 16531 263.900 5.0000 0.0000 0.0000 274.100 2.2500 2.7500 0.0000 1982.000 0.0000 0.0000 5.0000 11.660 96.700 11.153 0.000 0.000 0.000 0.000 0.000         13.713 13.261 0.453
DSCMET_421 2016-09-28 23:15:00 16530 263.900 5.0000 0.0000 0.0000 273.500 5.0000 0.0000 0.0000 2059.000 0.0000 0.0000 5.0000 11.720 96.600 11.198 0.000 0.000 0.000 0.000 0.000         13.768 13.300 0.468
DSCMET_421 2016-09-28 23:10:00 16529 263.900 5.0000 0.0000 0.0000 273.000 5.0000 0.0000 0.0000 2141.000 0.0000 0.0000 5.0000 11.730 96.800 11.239 0.000 0.000 0.000 0.000 0.000         13.777 13.336 0.441
DSCMET_421 2016-09-28 23:05:00 16528 263.900 5.0000 0.0000 0.0000 272.400 5.0000 0.0000 0.0000 2140.000 0.0000 0.0000 5.0000 11.800 96.700 11.293 0.000 0.000 0.000 0.000 0.000         13.841 13.384 0.457
DSCMET_421 2016-09-28 23:00:00 16527 263.900 5.0000 0.0000 0.0000 271.800 5.0000 0.0000 0.0000 2138.000 0.0000 0.0000 5.0000 11.810 96.500 11.272 0.000 0.000 0.000 0.000 0.000         13.850 13.365 0.485
DSCMET_421 2016-09-28 22:55:00 16526 263.900 5.0000 0.0000 0.0000 271.300 5.0000 0.0000 0.0000 2133.000 0.0000 0.0000 5.0000 11.950 96.200 11.364 0.000 0.000 0.000 0.000 0.000         13.978 13.447 0.531
DSCMET_421 2016-09-28 22:50:00 16525 263.900 5.0000 0.0000 0.0000 270.900 5.0000 0.0000 0.0000 2130.000 0.0000 0.0000 5.0000 12.050 96.600 11.526 0.000 0.000 0.000 0.000 0.000         14.071 13.592 0.478
DSCMET_421 2016-09-28 22:45:00 16524 263.900 5.0000 0.0000 0.0000 270.400 5.0000 0.0000 0.0000 2133.000 0.0000 0.0000 5.0000 11.880 97.000 11.419 0.000 0.000 0.000 0.000 0.000         13.914 13.497 0.417
DSCMET_421 2016-09-28 22:40:00 16523 263.700 5.0000 0.0000 0.0000 269.800 5.0000 0.0000 0.0000 2130.000 0.0000 0.0000 5.0000 11.840 97.000 11.379 0.000 0.000 0.000 0.000 0.000         13.877 13.461 0.416
DSCMET_421 2016-09-28 22:35:00 16522 263.500 5.0000 0.0000 0.0000 269.400 5.0000 0.0000 0.0000 2126.000 0.0000 0.0000 5.0000 11.910 96.800 11.418 0.000 0.000 0.000 0.000 0.000         13.941 13.495 0.446
DSCMET_421 2016-09-28 22:30:00 16521 263.500 5.0000 0.0000 0.0000 268.900 5.0000 0.0000 0.0000 2129.000 0.0000 0.0000 5.0000 12.020 96.600 11.496 0.000 0.000 0.000 0.000 0.000         14.043 13.566 0.477
DSCMET_421 2016-09-28 22:25:00 16520 263.500 5.0000 0.0000 0.0000 268.300 5.0000 0.0000 0.0000 2132.000 0.0000 0.0000 5.0000 12.090 96.500 11.550 0.000 0.000 0.000 0.000 0.000         14.108 13.614 0.494
DSCMET_421 2016-09-28 22:20:00 16519 263.500 5.0000 0.0000 0.0000 268.000 5.0000 0.0000 0.0000 2130.000 0.0000 0.0000 5.0000 12.130 96.300 11.559 0.000 0.000 0.000 0.000 0.000         14.145 13.622 0.523
DSCMET_421 2016-09-28 22:15:00 16518 263.500 5.0000 0.0000 0.0000 267.700 5.0000 0.0000 0.0000 2126.000 0.0000 0.0000 5.0000 12.280 95.800 11.629 0.000 0.000 0.000 0.000 0.000         14.286 13.686 0.600
DSCMET_421 2016-09-28 22:10:00 16517 263.500 5.0000 0.0000 0.0000 267.500 5.0000 0.0000 0.0000 2124.000 0.0000 0.0000 5.0000 12.450 95.800 11.799 0.000 0.000 0.000 0.000 0.000         14.446 13.839 0.607
DSCMET_421 2016-09-28 22:05:00 16516 263.300 5.0000 0.0000 0.0000 267.200 5.0000 0.0000 0.0000 2123.000 0.0000 0.0000 5.0000 12.400 95.800 11.749 0.000 0.000 0.000 0.000 0.000         14.399 13.794 0.605
DSCMET_421 2016-09-28 22:00:00 16515 263.200 5.0000 0.0000 0.0000 266.900 5.0000 0.0000 0.0000 2119.000 0.0000 0.0000 5.0000 12.560 95.400 11.845 0.000 0.000 0.000 0.000 0.000         14.551 13.881 0.669
DSCMET_421 2016-09-28 21:55:00 16514 263.200 5.0000 0.0000 0.0000 266.800 5.0000 0.0000 0.0000 2114.000 0.0000 0.0000 5.0000 12.650 95.400 11.934 0.000 0.000 0.000 0.000 0.000         14.637 13.964 0.673
DSCMET_421 2016-09-28 21:50:00 16513 263.200 5.0000 0.0000 0.0000 266.800 5.0000 0.0000 0.0000 2110.000 0.0000 0.0000 5.0000 12.640 95.200 11.892 0.000 0.000 0.000 0.000 0.000         14.627 13.925 0.702
DSCMET_421 2016-09-28 21:45:00 16512 263.200 5.0000 0.0000 0.0000 266.500 5.0000 0.0000 0.0000 2099.000 0.0000 0.0000 5.0000 12.780 95.300 12.047 0.000 0.000 0.000 0.000 0.000         14.762 14.068 0.694
DSCMET_421 2016-09-28 21:40:00 16511 263.200 5.0000 0.0000 0.0000 266.300 5.0000 0.0000 0.0000 2158.000 0.0000 0.0000 5.0000 12.760 95.600 12.075 0.000 0.000 0.000 0.000 0.000         14.743 14.094 0.649
DSCMET_421 2016-09-28 21:35:00 16510 263.200 5.0000 0.0000 0.0000 265.900 5.0000 0.0000 0.0000 2227.000 0.0000 0.0000 5.0000 12.810 95.300 12.077 0.000 0.000 0.000 0.000 0.000         14.791 14.096 0.695
DSCMET_421 2016-09-28 21:30:00 16509 263.200 5.0000 0.0000 0.0000 265.700 5.0000 0.0000 0.0000 2237.000 0.0000 0.0000 5.0000 13.070 94.200 12.159 0.000 0.000 0.000 0.000 0.000         15.045 14.173 0.873
DSCMET_421 2016-09-28 21:25:00 16508 263.200 5.0000 0.0000 0.0000 265.500 5.0000 0.0000 0.0000 2252.000 0.0000 0.0000 5.0000 13.040 94.600 12.194 0.000 0.000 0.000 0.000 0.000         15.016 14.205 0.811
DSCMET_421 2016-09-28 21:20:00 16507 263.200 5.0000 0.0000 0.0000 265.500 5.0000 0.0000 0.0000 2274.000 0.0000 0.0000 5.0000 12.940 94.900 12.143 0.000 0.000 0.000 0.000 0.000         14.918 14.157 0.761
DSCMET_421 2016-09-28 21:15:00 16506 263.200 5.0000 0.0000 0.0000 265.500 5.0000 0.0000 0.0000 2298.000 0.0000 0.0000 5.0000 13.090 94.700 12.260 0.000 0.000 0.000 0.000 0.000         15.065 14.266 0.798
DSCMET_421 2016-09-28 21:10:00 16505 263.200 5.0000 0.0000 0.0000 265.200 5.0000 0.0000 0.0000 2333.000 0.0000 0.0000 5.0000 13.030 95.100 12.264 0.000 0.000 0.000 0.000 0.000         15.006 14.271 0.735
DSCMET_421 2016-09-28 21:05:00 16504 263.200 5.0000 0.0000 0.0000 265.200 5.0000 0.0000 0.0000 2373.000 0.0000 0.0000 5.0000 13.050 95.400 12.332 0.000 0.000 0.000 0.000 0.000         15.025 14.334 0.691
DSCMET_421 2016-09-28 21:00:00 16503 263.200 5.0000 0.0000 0.0000 265.200 5.0000 0.0000 0.0000 2413.000 0.0000 0.0000 5.0000 13.180 94.600 12.333 0.000 0.000 0.000 0.000 0.000         15.154 14.335 0.818
DSCMET_421 2016-09-28 20:55:00 16502 263.200 5.0000 0.0000 0.0000 265.100 5.0000 0.0000 0.0000 2356.000 0.0000 0.0000 5.0000 13.420 94.000 12.474 0.000 0.000 0.000 0.000 0.000         15.393 14.469 0.924
DSCMET_421 2016-09-28 20:50:00 16501 263.200 5.0000 0.0000 0.0000 265.000 5.0000 0.0000 0.0000 288.500 0.0000 0.0000 5.0000 13.470 94.000 12.524 0.000 0.000 0.000 0.000 0.000         15.443 14.517 0.927
DSCMET_421 2016-09-28 20:45:00 16500 263.200 5.0000 0.0000 0.0000 264.800 5.0000 0.0000 0.0000 287.200 0.0000 0.0000 5.0000 13.580 94.000 12.633 0.000 0.000 0.000 0.000 0.000         15.554 14.621 0.933
DSCMET_421 2016-09-28 20:40:00 16499 263.200 5.0000 0.0000 0.0000 264.800 5.0000 0.0000 0.0000 283.200 0.0000 3.7500 1.2500 13.590 94.200 12.676 0.000 0.000 0.000 0.000 0.000         15.564 14.662 0.903
DSCMET_421 2016-09-28 20:35:00 16498 263.200 5.0000 0.0000 0.0000 264.500 5.0000 0.0000 0.0000 281.700 0.0000 4.7500 0.2500 13.780 93.700 12.783 0.000 0.000 0.000 0.000 0.000         15.758 14.765 0.993
DSCMET_421 2016-09-28 20:30:00 16497 263.100 5.0000 0.0000 0.0000 264.500 5.0000 0.0000 0.0000 1385.000 0.0000 2.2500 2.7500 13.850 93.300 12.787 0.000 0.000 0.000 0.000 0.000         15.830 14.769 1.061
DSCMET_421 2016-09-28 20:25:00 16496 263.000 5.0000 0.0000 0.0000 264.500 5.0000 0.0000 0.0000 2314.000 0.0000 0.0000 5.0000 13.880 92.700 12.718 0.000 0.000 0.000 0.000 0.000         15.861 14.703 1.158
DSCMET_421 2016-09-28 20:20:00 16495 262.900 5.0000 0.0000 0.0000 264.500 5.0000 0.0000 0.0000 2328.000 0.0000 0.0000 5.0000 13.930 92.700 12.768 0.000 0.000 0.000 0.000 0.000         15.912 14.751 1.162
DSCMET_421 2016-09-28 20:15:00 16494 262.800 5.0000 0.0000 0.0000 264.400 5.0000 0.0000 0.0000 2362.000 0.0000 0.0000 5.0000 14.050 93.000 12.936 0.000 0.000 0.000 0.000 0.000         16.037 14.914 1.123
DSCMET_421 2016-09-28 20:10:00 16493 262.800 5.0000 0.0000 0.0000 264.200 5.0000 0.0000 0.0000 2402.000 0.0000 0.0000 5.0000 14.170 92.600 12.989 0.000 0.000 0.000 0.000 0.000         16.162 14.966 1.196
DSCMET_421 2016-09-28 20:05:00 16492 262.800 5.0000 0.0000 0.0000 264.100 5.0000 0.0000 0.0000 2341.000 0.0000 0.0000 5.0000 14.230 92.000 12.949 0.000 0.000 0.000 0.000 0.000         16.225 14.927 1.298
DSCMET_421 2016-09-28 20:00:00 16491 262.800 5.0000 0.0000 0.0000 264.100 5.0000 0.0000 0.0000 280.000 0.0000 3.7500 1.2500 14.300 91.800 12.985 0.000 0.000 0.000 0.000 0.000         16.298 14.962 1.336
DSCMET_421 2016-09-28 19:55:00 16490 262.800 5.0000 0.0000 0.0000 263.800 5.0000 0.0000 0.0000 1044.000 0.2500 3.0000 1.7500 14.390 92.100 13.124 0.000 0.000 0.000 0.000 0.000         16.394 15.099 1.295
DSCMET_421 2016-09-28 19:50:00 16489 262.800 5.0000 0.0000 0.0000 263.800 5.0000 0.0000 0.0000 274.100 2.0000 3.0000 0.0000 14.490 91.600 13.140 0.000 0.000 0.000 0.000 0.000         16.500 15.114 1.386
DSCMET_421 2016-09-28 19:45:00 16488 262.800 5.0000 0.0000 0.0000 263.800 5.0000 0.0000 0.0000 275.000 2.0000 2.7500 0.2500 14.650 90.300 13.079 0.000 0.000 0.000 0.000 0.000         16.671 15.054 1.617
DSCMET_421 2016-09-28 19:40:00 16487 262.800 5.0000 0.0000 0.0000 263.800 5.0000 0.0000 0.0000 283.200 0.0000 3.7500 1.2500 14.830 90.900 13.359 0.000 0.000 0.000 0.000 0.000         16.866 15.331 1.535
DSCMET_421 2016-09-28 19:35:00 16486 262.800 5.0000 0.0000 0.0000 263.800 5.0000 0.0000 0.0000 282.000 0.0000 4.7500 0.2500 14.800 91.200 13.379 0.000 0.000 0.000 0.000 0.000         16.834 15.352 1.481
DSCMET_421 2016-09-28 19:30:00 16485 262.800 5.0000 0.0000 0.0000 263.800 5.0000 0.0000 0.0000 279.900 0.0000 5.0000 0.0000 14.950 90.500 13.410 0.000 0.000 0.000 0.000 0.000         16.997 15.382 1.615
DSCMET_421 2016-09-28 19:25:00 16484 262.800 5.0000 0.0000 0.0000 263.800 5.0000 0.0000 0.0000 281.000 0.0000 5.0000 0.0000 15.120 89.600 13.424 0.000 0.000 0.000 0.000 0.000         17.184 15.397 1.787
DSCMET_421 2016-09-28 19:20:00 16483 262.800 5.0000 0.0000 0.0000 263.800 5.0000 0.0000 0.0000 280.500 0.0000 5.0000 0.0000 15.180 90.100 13.569 0.000 0.000 0.000 0.000 0.000         17.250 15.543 1.708
DSCMET_421 2016-09-28 19:15:00 16482 262.800 5.0000 0.0000 0.0000 263.800 5.0000 0.0000 0.0000 280.800 0.0000 5.0000 0.0000 15.180 90.900 13.705 0.000 0.000 0.000 0.000 0.000         17.250 15.681 1.570
DSCMET_421 2016-09-28 19:10:00 16481 262.800 5.0000 0.0000 0.0000 263.700 5.0000 0.0000 0.0000 275.900 0.0000 5.0000 0.0000 15.360 89.800 13.695 0.000 0.000 0.000 0.000 0.000         17.451 15.671 1.780
DSCMET_421 2016-09-28 19:05:00 16480 262.700 5.0000 0.0000 0.0000 263.500 5.0000 0.0000 0.0000 274.800 0.2500 4.7500 0.0000 15.500 88.200 13.557 0.000 0.000 0.000 0.000 0.000         17.609 15.531 2.078
DSCMET_421 2016-09-28 19:00:00 16479 262.700 5.0000 0.0000 0.0000 263.400 5.0000 0.0000 0.0000 269.000 5.0000 0.0000 0.0000 15.420 89.000 13.617 0.000 0.000 0.000 0.000 0.000         17.518 15.591 1.927
DSCMET_421 2016-09-28 18:55:00 16478 262.600 5.0000 0.0000 0.0000 263.400 5.0000 0.0000 0.0000 269.200 5.0000 0.0000 0.0000 15.410 88.700 13.555 0.000 0.000 0.000 0.000 0.000         17.507 15.529 1.978
DSCMET_421 2016-09-28 18:50:00 16477 262.400 5.0000 0.0000 0.0000 263.400 5.0000 0.0000 0.0000 266.300 5.0000 0.0000 0.0000 15.650 88.100 13.687 0.000 0.000 0.000 0.000 0.000         17.779 15.663 2.116
DSCMET_421 2016-09-28 18:45:00 16476 262.400 5.0000 0.0000 0.0000 263.400 5.0000 0.0000 0.0000 266.100 5.0000 0.0000 0.0000 15.730 87.500 13.661 0.000 0.000 0.000 0.000 0.000         17.870 15.636 2.234
DSCMET_421 2016-09-28 18:40:00 16475 262.400 5.0000 0.0000 0.0000 263.400 5.0000 0.0000 0.0000 266.000 5.0000 0.0000 0.0000 15.850 86.700 13.638 0.000 0.000 0.000 0.000 0.000         18.008 15.613 2.395
DSCMET_421 2016-09-28 18:35:00 16474 262.400 5.0000 0.0000 0.0000 263.100 5.0000 0.0000 0.0000 266.200 5.0000 0.0000 0.0000 16.070 86.300 13.783 0.000 0.000 0.000 0.000 0.000         18.263 15.761 2.502
DSCMET_421 2016-09-28 18:30:00 16473 262.400 5.0000 0.0000 0.0000 263.000 5.0000 0.0000 0.0000 264.400 5.0000 0.0000 0.0000 16.160 85.800 13.782 0.000 0.000 0.000 0.000 0.000         18.368 15.760 2.608
DSCMET_421 2016-09-28 18:25:00 16472 262.400 5.0000 0.0000 0.0000 263.000 5.0000 0.0000 0.0000 264.300 5.0000 0.0000 0.0000 16.330 85.200 13.840 0.000 0.000 0.000 0.000 0.000         18.568 15.820 2.748
DSCMET_421 2016-09-28 18:20:00 16471 262.400 5.0000 0.0000 0.0000 263.000 5.0000 0.0000 0.0000 264.300 5.0000 0.0000 0.0000 16.480 86.100 14.149 0.000 0.000 0.000 0.000 0.000         18.746 16.140 2.606
DSCMET_421 2016-09-28 18:15:00 16470 262.400 5.0000 0.0000 0.0000 263.000 5.0000 0.0000 0.0000 264.300 5.0000 0.0000 0.0000 16.660 86.000 14.308 0.000 0.000 0.000 0.000 0.000         18.962 16.307 2.655
DSCMET_421 2016-09-28 18:10:00 16469 262.300 5.0000 0.0000 0.0000 263.000 5.0000 0.0000 0.0000 263.100 5.0000 0.0000 0.0000 16.870 84.700 14.279 0.000 0.000 0.000 0.000 0.000         19.216 16.276 2.940
DSCMET_421 2016-09-28 18:05:00 16468 262.100 5.0000 0.0000 0.0000 262.800 5.0000 0.0000 0.0000 263.100 5.0000 0.0000 0.0000 16.990 83.900 14.250 0.000 0.000 0.000 0.000 0.000         19.363 16.246 3.117
DSCMET_421 2016-09-28 18:00:00 16467 262.000 5.0000 0.0000 0.0000 262.700 5.0000 0.0000 0.0000 263.000 5.0000 0.0000 0.0000 17.120 82.400 14.099 0.000 0.000 0.000 0.000 0.000         19.523 16.087 3.436
DSCMET_421 2016-09-28 17:55:00 16466 262.000 5.0000 0.0000 0.0000 262.700 5.0000 0.0000 0.0000 263.000 5.0000 0.0000 0.0000 17.270 81.900 14.151 0.000 0.000 0.000 0.000 0.000         19.709 16.142 3.567
DSCMET_421 2016-09-28 17:50:00 16465 262.000 5.0000 0.0000 0.0000 262.700 5.0000 0.0000 0.0000 263.300 5.0000 0.0000 0.0000 17.460 80.900 14.147 0.000 0.000 0.000 0.000 0.000         19.947 16.137 3.810
DSCMET_421 2016-09-28 17:45:00 16464 262.000 5.0000 0.0000 0.0000 262.300 5.0000 0.0000 0.0000 263.100 5.0000 0.0000 0.0000 17.600 80.300 14.168 0.000 0.000 0.000 0.000 0.000         20.124 16.160 3.965
DSCMET_421 2016-09-28 17:40:00 16463 261.900 5.0000 0.0000 0.0000 262.300 5.0000 0.0000 0.0000 263.300 5.0000 0.0000 0.0000 17.770 78.820 14.047 0.000 0.000 0.000 0.000 0.000         20.341 16.033 4.308
DSCMET_421 2016-09-28 17:35:00 16462 261.700 5.0000 0.0000 0.0000 262.300 5.0000 0.0000 0.0000 263.100 5.0000 0.0000 0.0000 17.920 77.390 13.910 0.000 0.000 0.000 0.000 0.000         20.534 15.891 4.643
DSCMET_421 2016-09-28 17:30:00 16461 261.600 5.0000 0.0000 0.0000 262.100 5.0000 0.0000 0.0000 264.200 5.0000 0.0000 0.0000 18.300 75.190 13.833 0.000 0.000 0.000 0.000 0.000         21.030 15.813 5.218
DSCMET_421 2016-09-28 17:25:00 16460 261.600 5.0000 0.0000 0.0000 262.000 5.0000 0.0000 0.0000 264.300 5.0000 0.0000 0.0000 18.620 73.190 13.727 0.000 0.000 0.000 0.000 0.000         21.456 15.704 5.752
DSCMET_421 2016-09-28 17:20:00 16459 261.600 5.0000 0.0000 0.0000 261.900 5.0000 0.0000 0.0000 263.800 5.0000 0.0000 0.0000 19.040 69.500 13.336 0.000 0.000 0.000 0.000 0.000         22.026 15.308 6.718
DSCMET_421 2016-09-28 17:15:00 16458 261.500 5.0000 0.0000 0.0000 261.900 5.0000 0.0000 0.0000 263.700 5.0000 0.0000 0.0000 19.450 65.670 12.859 0.000 0.000 0.000 0.000 0.000         22.596 14.839 7.757
DSCMET_421 2016-09-28 17:10:00 16457 261.300 5.0000 0.0000 0.0000 261.800 5.0000 0.0000 0.0000 261.900 5.0000 0.0000 0.0000 19.800 63.120 12.586 0.000 0.000 0.000 0.000 0.000         23.092 14.576 8.516
DSCMET_421 2016-09-28 17:05:00 16456 261.300 5.0000 0.0000 0.0000 261.700 5.0000 0.0000 0.0000 261.900 5.0000 0.0000 0.0000 20.330 59.990 12.311 0.000 0.000 0.000 0.000 0.000         23.862 14.315 9.547
DSCMET_421 2016-09-28 17:00:00 16455 261.300 5.0000 0.0000 0.0000 261.600 5.0000 0.0000 0.0000 261.600 5.0000 0.0000 0.0000 20.550 59.490 12.390 0.000 0.000 0.000 0.000 0.000         24.188 14.390 9.799
DSCMET_421 2016-09-28 16:55:00 16454 261.300 5.0000 0.0000 0.0000 261.700 5.0000 0.0000 0.0000 261.600 5.0000 0.0000 0.0000 20.800 58.110 12.267 0.000 0.000 0.000 0.000 0.000         24.563 14.274 10.290
DSCMET_421 2016-09-28 16:50:00 16453 261.300 5.0000 0.0000 0.0000 261.600 5.0000 0.0000 0.0000 261.600 5.0000 0.0000 0.0000 20.800 58.820 12.452 0.000 0.000 0.000 0.000 0.000         24.563 14.448 10.115
DSCMET_421 2016-09-28 16:45:00 16452 261.300 5.0000 0.0000 0.0000 261.600 5.0000 0.0000 0.0000 261.600 5.0000 0.0000 0.0000 21.070 57.840 12.449 0.000 0.000 0.000 0.000 0.000         24.974 14.445 10.529
DSCMET_421 2016-09-28 16:40:00 16451 261.300 5.0000 0.0000 0.0000 261.700 5.0000 0.0000 0.0000 261.600 5.0000 0.0000 0.0000 21.310 57.030 12.458 0.000 0.000 0.000 0.000 0.000         25.345 14.454 10.891
DSCMET_421 2016-09-28 16:35:00 16450 261.200 5.0000 0.0000 0.0000 261.600 5.0000 0.0000 0.0000 261.600 5.0000 0.0000 0.0000 21.480 56.620 12.507 0.000 0.000 0.000 0.000 0.000         25.610 14.500 11.110
DSCMET_421 2016-09-28 16:30:00 16449 261.200 5.0000 0.0000 0.0000 261.600 5.0000 0.0000 0.0000 261.600 5.0000 0.0000 0.0000 21.710 56.750 12.756 0.000 0.000 0.000 0.000 0.000         25.973 14.739 11.233
DSCMET_421 2016-09-28 16:25:00 16448 261.200 5.0000 0.0000 0.0000 261.600 5.0000 0.0000 0.0000 261.600 5.0000 0.0000 0.0000 22.070 54.650 12.516 0.000 0.000 0.000 0.000 0.000         26.549 14.509 12.040
DSCMET_421 2016-09-28 16:20:00 16447 261.200 5.0000 0.0000 0.0000 261.700 5.0000 0.0000 0.0000 261.600 5.0000 0.0000 0.0000 22.310 54.990 12.834 0.000 0.000 0.000 0.000 0.000         26.940 14.814 12.126
DSCMET_421 2016-09-28 16:15:00 16446 261.200 5.0000 0.0000 0.0000 261.600 5.0000 0.0000 0.0000 261.600 5.0000 0.0000 0.0000 22.450 53.890 12.655 0.000 0.000 0.000 0.000 0.000         27.170 14.642 12.528
DSCMET_421 2016-09-28 16:10:00 16445 261.200 5.0000 0.0000 0.0000 261.600 5.0000 0.0000 0.0000 261.600 5.0000 0.0000 0.0000 22.680 53.550 12.771 0.000 0.000 0.000 0.000 0.000         27.552 14.754 12.798
DSCMET_421 2016-09-28 16:05:00 16444 261.200 5.0000 0.0000 0.0000 261.600 5.0000 0.0000 0.0000 261.700 5.0000 0.0000 0.0000 22.960 53.360 12.976 0.000 0.000 0.000 0.000 0.000         28.023 14.953 13.070
DSCMET_421 2016-09-28 16:00:00 16443 261.200 5.0000 0.0000 0.0000 261.600 5.0000 0.0000 0.0000 261.900 5.0000 0.0000 0.0000 23.210 52.950 13.089 0.000 0.000 0.000 0.000 0.000         28.450 15.064 13.386
DSCMET_421 2016-09-28 15:55:00 16442 261.200 5.0000 0.0000 0.0000 261.600 5.0000 0.0000 0.0000 261.900 5.0000 0.0000 0.0000 23.260 52.220 12.923 0.000 0.000 0.000 0.000 0.000         28.536 14.901 13.634
DSCMET_421 2016-09-28 15:50:00 16441 261.200 5.0000 0.0000 0.0000 261.600 5.0000 0.0000 0.0000 261.900 5.0000 0.0000 0.0000 23.210 52.540 12.970 0.000 0.000 0.000 0.000 0.000         28.450 14.947 13.502
DSCMET_421 2016-09-28 15:45:00 16440 261.200 5.0000 0.0000 0.0000 261.600 5.0000 0.0000 0.0000 261.900 5.0000 0.0000 0.0000 23.150 53.700 13.249 0.000 0.000 0.000 0.000 0.000         28.347 15.222 13.125
DSCMET_421 2016-09-28 15:40:00 16439 261.200 5.0000 0.0000 0.0000 261.600 5.0000 0.0000 0.0000 261.900 5.0000 0.0000 0.0000 23.310 53.000 13.196 0.000 0.000 0.000 0.000 0.000         28.622 15.170 13.452
DSCMET_421 2016-09-28 15:35:00 16438 261.200 5.0000 0.0000 0.0000 261.600 5.0000 0.0000 0.0000 262.000 5.0000 0.0000 0.0000 23.230 52.830 13.073 0.000 0.000 0.000 0.000 0.000         28.484 15.048 13.436
DSCMET_421 2016-09-28 15:30:00 16437 261.200 5.0000 0.0000 0.0000 261.600 5.0000 0.0000 0.0000 262.200 5.0000 0.0000 0.0000 23.380 53.700 13.462 0.000 0.000 0.000 0.000 0.000         28.743 15.435 13.308
DSCMET_421 2016-09-28 15:25:00 16436 261.100 5.0000 0.0000 0.0000 261.600 5.0000 0.0000 0.0000 262.200 5.0000 0.0000 0.0000 23.340 53.930 13.491 0.000 0.000 0.000 0.000 0.000         28.674 15.464 13.210
DSCMET_421 2016-09-28 15:20:00 16435 261.200 5.0000 0.0000 0.0000 261.600 5.0000 0.0000 0.0000 262.200 5.0000 0.0000 0.0000 23.550 53.150 13.461 0.000 0.000 0.000 0.000 0.000         29.039 15.434 13.605
DSCMET_421 2016-09-28 15:15:00 16434 261.200 5.0000 0.0000 0.0000 261.600 5.0000 0.0000 0.0000 262.300 5.0000 0.0000 0.0000 23.210 53.190 13.158 0.000 0.000 0.000 0.000 0.000         28.450 15.132 13.317
DSCMET_421 2016-09-28 15:10:00 16433 261.200 5.0000 0.0000 0.0000 261.900 5.0000 0.0000 0.0000 262.500 5.0000 0.0000 0.0000 23.310 53.380 13.306 0.000 0.000 0.000 0.000 0.000         28.622 15.278 13.344
DSCMET_421 2016-09-28 15:05:00 16432 261.200 5.0000 0.0000 0.0000 261.900 5.0000 0.0000 0.0000 262.600 5.0000 0.0000 0.0000 23.350 53.840 13.474 0.000 0.000 0.000 0.000 0.000         28.691 15.447 13.244
DSCMET_421 2016-09-28 15:00:00 16431 261.200 5.0000 0.0000 0.0000 261.900 5.0000 0.0000 0.0000 262.600 5.0000 0.0000 0.0000 23.350 54.300 13.605 0.000 0.000 0.000 0.000 0.000         28.691 15.579 13.112
DSCMET_421 2016-09-28 14:55:00 16430 261.300 5.0000 0.0000 0.0000 261.800 5.0000 0.0000 0.0000 262.600 5.0000 0.0000 0.0000 23.280 53.880 13.421 0.000 0.000 0.000 0.000 0.000         28.570 15.394 13.177
DSCMET_421 2016-09-28 14:50:00 16429 261.300 5.0000 0.0000 0.0000 261.900 5.0000 0.0000 0.0000 262.900 5.0000 0.0000 0.0000 23.340 54.800 13.736 0.000 0.000 0.000 0.000 0.000         28.674 15.713 12.961
DSCMET_421 2016-09-28 14:45:00 16428 261.300 5.0000 0.0000 0.0000 261.900 5.0000 0.0000 0.0000 262.900 5.0000 0.0000 0.0000 23.310 54.740 13.692 0.000 0.000 0.000 0.000 0.000         28.622 15.668 12.954
DSCMET_421 2016-09-28 14:40:00 16427 261.300 5.0000 0.0000 0.0000 261.900 5.0000 0.0000 0.0000 263.500 5.0000 0.0000 0.0000 23.240 55.190 13.753 0.000 0.000 0.000 0.000 0.000         28.501 15.730 12.771
DSCMET_421 2016-09-28 14:35:00 16426 261.300 5.0000 0.0000 0.0000 261.900 5.0000 0.0000 0.0000 263.200 5.0000 0.0000 0.0000 23.130 55.340 13.692 0.000 0.000 0.000 0.000 0.000         28.313 15.668 12.644
DSCMET_421 2016-09-28 14:30:00 16425 261.300 5.0000 0.0000 0.0000 261.900 5.0000 0.0000 0.0000 263.500 5.0000 0.0000 0.0000 23.080 55.350 13.649 0.000 0.000 0.000 0.000 0.000         28.227 15.624 12.603
DSCMET_421 2016-09-28 14:25:00 16424 261.300 5.0000 0.0000 0.0000 261.900 5.0000 0.0000 0.0000 263.000 5.0000 0.0000 0.0000 23.110 55.860 13.817 0.000 0.000 0.000 0.000 0.000         28.278 15.796 12.482
DSCMET_421 2016-09-28 14:20:00 16423 261.300 5.0000 0.0000 0.0000 261.800 5.0000 0.0000 0.0000 263.100 5.0000 0.0000 0.0000 22.930 55.880 13.656 0.000 0.000 0.000 0.000 0.000         27.972 15.631 12.341
DSCMET_421 2016-09-28 14:15:00 16422 261.300 5.0000 0.0000 0.0000 261.600 5.0000 0.0000 0.0000 263.200 5.0000 0.0000 0.0000 23.180 56.630 14.094 0.000 0.000 0.000 0.000 0.000         28.398 16.082 12.316
DSCMET_421 2016-09-28 14:10:00 16421 261.300 5.0000 0.0000 0.0000 261.600 5.0000 0.0000 0.0000 262.900 5.0000 0.0000 0.0000 23.110 56.420 13.971 0.000 0.000 0.000 0.000 0.000         28.278 15.955 12.324
DSCMET_421 2016-09-28 14:05:00 16420 261.200 5.0000 0.0000 0.0000 261.400 5.0000 0.0000 0.0000 262.600 5.0000 0.0000 0.0000 22.880 56.820 13.866 0.000 0.000 0.000 0.000 0.000         27.888 15.846 12.042
DSCMET_421 2016-09-28 14:00:00 16419 261.000 5.0000 0.0000 0.0000 261.300 5.0000 0.0000 0.0000 262.500 5.0000 0.0000 0.0000 22.950 57.100 14.007 0.000 0.000 0.000 0.000 0.000         28.006 15.992 12.015
DSCMET_421 2016-09-28 13:55:00 16418 261.100 5.0000 0.0000 0.0000 261.200 5.0000 0.0000 0.0000 262.500 5.0000 0.0000 0.0000 23.030 56.970 14.046 0.000 0.000 0.000 0.000 0.000         28.142 16.032 12.109
DSCMET_421 2016-09-28 13:50:00 16417 261.000 5.0000 0.0000 0.0000 261.100 5.0000 0.0000 0.0000 262.500 5.0000 0.0000 0.0000 22.880 57.080 13.936 0.000 0.000 0.000 0.000 0.000         27.888 15.918 11.969
DSCMET_421 2016-09-28 13:45:00 16416 261.100 5.0000 0.0000 0.0000 261.200 5.0000 0.0000 0.0000 262.600 5.0000 0.0000 0.0000 22.900 58.680 14.381 0.000 0.000 0.000 0.000 0.000         27.922 16.384 11.537
DSCMET_421 2016-09-28 13:40:00 16415 260.900 5.0000 0.0000 0.0000 261.400 5.0000 0.0000 0.0000 262.500 5.0000 0.0000 0.0000 22.720 58.520 14.171 0.000 0.000 0.000 0.000 0.000         27.619 16.163 11.456
DSCMET_421 2016-09-28 13:35:00 16414 260.500 5.0000 0.0000 0.0000 261.600 5.0000 0.0000 0.0000 262.400 5.0000 0.0000 0.0000 22.390 59.400 14.092 0.000 0.000 0.000 0.000 0.000         27.071 16.080 10.991
DSCMET_421 2016-09-28 13:30:00 16413 260.600 5.0000 0.0000 0.0000 262.100 5.0000 0.0000 0.0000 262.500 5.0000 0.0000 0.0000 22.530 59.020 14.124 0.000 0.000 0.000 0.000 0.000         27.302 16.114 11.188
DSCMET_421 2016-09-28 13:25:00 16412 260.400 5.0000 0.0000 0.0000 262.200 5.0000 0.0000 0.0000 262.500 5.0000 0.0000 0.0000 22.080 60.430 14.066 0.000 0.000 0.000 0.000 0.000         26.565 16.053 10.512
DSCMET_421 2016-09-28 13:20:00 16411 260.700 5.0000 0.0000 0.0000 262.200 5.0000 0.0000 0.0000 262.500 5.0000 0.0000 0.0000 22.140 60.520 14.146 0.000 0.000 0.000 0.000 0.000         26.663 16.136 10.526
DSCMET_421 2016-09-28 13:15:00 16410 261.000 5.0000 0.0000 0.0000 262.300 5.0000 0.0000 0.0000 262.500 5.0000 0.0000 0.0000 22.020 60.430 14.010 0.000 0.000 0.000 0.000 0.000         26.468 15.995 10.474
DSCMET_421 2016-09-28 13:10:00 16409 260.900 5.0000 0.0000 0.0000 262.100 5.0000 0.0000 0.0000 262.600 5.0000 0.0000 0.0000 21.780 61.570 14.072 0.000 0.000 0.000 0.000 0.000         26.084 16.060 10.024
DSCMET_421 2016-09-28 13:05:00 16408 261.000 5.0000 0.0000 0.0000 262.000 5.0000 0.0000 0.0000 262.400 5.0000 0.0000 0.0000 21.190 62.520 13.752 0.000 0.000 0.000 0.000 0.000         25.159 15.729 9.430
DSCMET_421 2016-09-28 13:00:00 16407 260.800 5.0000 0.0000 0.0000 262.100 5.0000 0.0000 0.0000 262.500 5.0000 0.0000 0.0000 21.170 62.830 13.809 0.000 0.000 0.000 0.000 0.000         25.128 15.788 9.340
DSCMET_421 2016-09-28 12:55:00 16406 260.800 5.0000 0.0000 0.0000 262.000 5.0000 0.0000 0.0000 262.300 5.0000 0.0000 0.0000 21.000 63.050 13.703 0.000 0.000 0.000 0.000 0.000         24.867 15.679 9.188
DSCMET_421 2016-09-28 12:50:00 16405 260.500 5.0000 0.0000 0.0000 262.200 5.0000 0.0000 0.0000 262.400 5.0000 0.0000 0.0000 21.240 62.460 13.785 0.000 0.000 0.000 0.000 0.000         25.236 15.763 9.474
DSCMET_421 2016-09-28 12:45:00 16404 260.800 5.0000 0.0000 0.0000 262.100 5.0000 0.0000 0.0000 262.300 5.0000 0.0000 0.0000 21.360 61.620 13.689 0.000 0.000 0.000 0.000 0.000         25.422 15.665 9.757
DSCMET_421 2016-09-28 12:40:00 16403 260.900 5.0000 0.0000 0.0000 262.000 5.0000 0.0000 0.0000 262.400 5.0000 0.0000 0.0000 21.370 61.350 13.631 0.000 0.000 0.000 0.000 0.000         25.438 15.606 9.832
DSCMET_421 2016-09-28 12:35:00 16402 261.100 5.0000 0.0000 0.0000 262.200 5.0000 0.0000 0.0000 262.400 5.0000 0.0000 0.0000 21.270 62.350 13.786 0.000 0.000 0.000 0.000 0.000         25.283 15.764 9.519
DSCMET_421 2016-09-28 12:30:00 16401 261.600 5.0000 0.0000 0.0000 262.300 5.0000 0.0000 0.0000 263.400 5.0000 0.0000 0.0000 21.110 63.300 13.867 0.000 0.000 0.000 0.000 0.000         25.036 15.848 9.188
DSCMET_421 2016-09-28 12:25:00 16400 262.000 5.0000 0.0000 0.0000 262.300 5.0000 0.0000 0.0000 263.200 5.0000 0.0000 0.0000 20.870 62.940 13.553 0.000 0.000 0.000 0.000 0.000         24.669 15.527 9.142
DSCMET_421 2016-09-28 12:20:00 16399 262.000 5.0000 0.0000 0.0000 262.200 5.0000 0.0000 0.0000 262.500 5.0000 0.0000 0.0000 20.920 63.420 13.717 0.000 0.000 0.000 0.000 0.000         24.745 15.693 9.052
DSCMET_421 2016-09-28 12:15:00 16398 262.200 5.0000 0.0000 0.0000 262.200 5.0000 0.0000 0.0000 262.800 5.0000 0.0000 0.0000 20.540 64.340 13.579 0.000 0.000 0.000 0.000 0.000         24.173 15.553 8.620
DSCMET_421 2016-09-28 12:10:00 16397 262.100 5.0000 0.0000 0.0000 262.300 5.0000 0.0000 0.0000 262.700 5.0000 0.0000 0.0000 20.460 64.850 13.624 0.000 0.000 0.000 0.000 0.000         24.054 15.599 8.455
DSCMET_421 2016-09-28 12:05:00 16396 262.300 5.0000 0.0000 0.0000 262.400 5.0000 0.0000 0.0000 262.400 5.0000 0.0000 0.0000 20.230 65.640 13.592 0.000 0.000 0.000 0.000 0.000         23.715 15.567 8.149
DSCMET_421 2016-09-28 12:00:00 16395 262.300 5.0000 0.0000 0.0000 263.000 5.0000 0.0000 0.0000 261.800 5.0000 0.0000 0.0000 20.320 65.970 13.755 0.000 0.000 0.000 0.000 0.000         23.847 15.732 8.115
DSCMET_421 2016-09-28 11:55:00 16394 262.400 5.0000 0.0000 0.0000 263.000 5.0000 0.0000 0.0000 261.700 5.0000 0.0000 0.0000 20.180 65.960 13.620 0.000 0.000 0.000 0.000 0.000         23.642 15.594 8.048
DSCMET_421 2016-09-28 11:50:00 16393 262.500 5.0000 0.0000 0.0000 263.100 5.0000 0.0000 0.0000 262.000 5.0000 0.0000 0.0000 20.130 67.390 13.902 0.000 0.000 0.000 0.000 0.000         23.569 15.883 7.686
DSCMET_421 2016-09-28 11:45:00 16392 262.600 5.0000 0.0000 0.0000 263.100 5.0000 0.0000 0.0000 262.100 5.0000 0.0000 0.0000 19.630 67.740 13.505 0.000 0.000 0.000 0.000 0.000         22.850 15.479 7.371
DSCMET_421 2016-09-28 11:40:00 16391 262.500 5.0000 0.0000 0.0000 263.100 5.0000 0.0000 0.0000 262.500 5.0000 0.0000 0.0000 19.290 68.850 13.430 0.000 0.000 0.000 0.000 0.000         22.372 15.403 6.969
DSCMET_421 2016-09-28 11:35:00 16390 262.400 5.0000 0.0000 0.0000 263.100 5.0000 0.0000 0.0000 262.700 5.0000 0.0000 0.0000 19.040 70.180 13.485 0.000 0.000 0.000 0.000 0.000         22.026 15.458 6.568
DSCMET_421 2016-09-28 11:30:00 16389 262.700 5.0000 0.0000 0.0000 263.100 5.0000 0.0000 0.0000 264.200 5.0000 0.0000 0.0000 18.860 70.670 13.419 0.000 0.000 0.000 0.000 0.000         21.780 15.392 6.388
DSCMET_421 2016-09-28 11:25:00 16388 262.700 5.0000 0.0000 0.0000 263.200 5.0000 0.0000 0.0000 263.300 5.0000 0.0000 0.0000 18.790 70.930 13.409 0.000 0.000 0.000 0.000 0.000         21.685 15.381 6.304
DSCMET_421 2016-09-28 11:20:00 16387 262.900 5.0000 0.0000 0.0000 263.100 5.0000 0.0000 0.0000 265.800 5.0000 0.0000 0.0000 18.750 71.220 13.433 0.000 0.000 0.000 0.000 0.000         21.631 15.406 6.225
DSCMET_421 2016-09-28 11:15:00 16386 263.100 5.0000 0.0000 0.0000 263.200 5.0000 0.0000 0.0000 267.600 5.0000 0.0000 0.0000 18.680 71.740 13.477 0.000 0.000 0.000 0.000 0.000         21.537 15.450 6.086
DSCMET_421 2016-09-28 11:10:00 16385 263.100 5.0000 0.0000 0.0000 263.200 5.0000 0.0000 0.0000 271.700 4.2500 0.7500 0.0000 18.490 72.580 13.473 0.000 0.000 0.000 0.000 0.000         21.282 15.447 5.836
DSCMET_421 2016-09-28 11:05:00 16384 263.100 5.0000 0.0000 0.0000 263.400 5.0000 0.0000 0.0000 273.700 4.7500 0.2500 0.0000 18.270 74.080 13.576 0.000 0.000 0.000 0.000 0.000         20.991 15.550 5.441
DSCMET_421 2016-09-28 11:00:00 16383 263.100 5.0000 0.0000 0.0000 263.400 5.0000 0.0000 0.0000 280.600 0.0000 5.0000 0.0000 18.030 75.200 13.575 0.000 0.000 0.000 0.000 0.000         20.677 15.549 5.128
DSCMET_421 2016-09-28 10:55:00 16382 263.100 5.0000 0.0000 0.0000 263.400 5.0000 0.0000 0.0000 279.700 0.0000 5.0000 0.0000 17.660 76.600 13.500 0.000 0.000 0.000 0.000 0.000         20.201 15.474 4.727
DSCMET_421 2016-09-28 10:50:00 16381 263.100 5.0000 0.0000 0.0000 263.500 5.0000 0.0000 0.0000 277.900 0.5000 4.5000 0.0000 17.680 75.800 13.359 0.000 0.000 0.000 0.000 0.000         20.226 15.331 4.895
DSCMET_421 2016-09-28 10:45:00 16380 263.100 5.0000 0.0000 0.0000 263.500 5.0000 0.0000 0.0000 273.600 4.7500 0.2500 0.0000 17.740 75.920 13.441 0.000 0.000 0.000 0.000 0.000         20.303 15.414 4.889
DSCMET_421 2016-09-28 10:40:00 16379 263.300 5.0000 0.0000 0.0000 263.400 5.0000 0.0000 0.0000 280.300 0.0000 5.0000 0.0000 17.230 77.340 13.231 0.000 0.000 0.000 0.000 0.000         19.660 15.205 4.455
DSCMET_421 2016-09-28 10:35:00 16378 263.400 5.0000 0.0000 0.0000 263.500 5.0000 0.0000 0.0000 280.700 0.2500 4.7500 0.0000 17.180 77.910 13.296 0.000 0.000 0.000 0.000 0.000         19.597 15.268 4.329
DSCMET_421 2016-09-28 10:30:00 16377 263.400 5.0000 0.0000 0.0000 263.800 5.0000 0.0000 0.0000 341.400 3.7500 1.0000 0.2500 17.060 78.380 13.271 0.000 0.000 0.000 0.000 0.000         19.449 15.244 4.205
DSCMET_421 2016-09-28 10:25:00 16376 263.400 5.0000 0.0000 0.0000 263.800 5.0000 0.0000 0.0000 372.400 4.7500 0.0000 0.2500 16.860 79.670 13.327 0.000 0.000 0.000 0.000 0.000         19.204 15.300 3.904
DSCMET_421 2016-09-28 10:20:00 16375 263.400 5.0000 0.0000 0.0000 263.800 5.0000 0.0000 0.0000 2317.000 0.0000 0.0000 5.0000 16.290 82.100 13.232 0.000 0.000 0.000 0.000 0.000         18.521 15.205 3.315
DSCMET_421 2016-09-28 10:15:00 16374 263.500 5.0000 0.0000 0.0000 263.800 5.0000 0.0000 0.0000 2361.000 0.0000 0.0000 5.0000 16.090 82.500 13.111 0.000 0.000 0.000 0.000 0.000         18.286 15.086 3.200
DSCMET_421 2016-09-28 10:10:00 16373 263.500 5.0000 0.0000 0.0000 263.800 5.0000 0.0000 0.0000 2405.000 0.0000 0.0000 5.0000 15.880 83.000 12.999 0.000 0.000 0.000 0.000 0.000         18.042 14.975 3.067
DSCMET_421 2016-09-28 10:05:00 16372 263.500 5.0000 0.0000 0.0000 263.900 5.0000 0.0000 0.0000 2348.000 0.2500 0.0000 4.7500 16.030 83.300 13.200 0.000 0.000 0.000 0.000 0.000         18.216 15.174 3.042
DSCMET_421 2016-09-28 10:00:00 16371 263.500 5.0000 0.0000 0.0000 263.800 5.0000 0.0000 0.0000 270.300 5.0000 0.0000 0.0000 15.620 84.000 12.927 0.000 0.000 0.000 0.000 0.000         17.745 14.905 2.839
DSCMET_421 2016-09-28 09:55:00 16370 263.500 5.0000 0.0000 0.0000 264.100 5.0000 0.0000 0.0000 270.100 5.0000 0.0000 0.0000 15.540 84.300 12.903 0.000 0.000 0.000 0.000 0.000         17.654 14.882 2.772
DSCMET_421 2016-09-28 09:50:00 16369 263.500 5.0000 0.0000 0.0000 264.200 5.0000 0.0000 0.0000 269.200 5.0000 0.0000 0.0000 15.410 84.800 12.866 0.000 0.000 0.000 0.000 0.000         17.507 14.846 2.661
DSCMET_421 2016-09-28 09:45:00 16368 263.500 5.0000 0.0000 0.0000 264.100 5.0000 0.0000 0.0000 584.400 4.2500 0.0000 0.7500 15.110 85.300 12.662 0.000 0.000 0.000 0.000 0.000         17.173 14.649 2.524
DSCMET_421 2016-09-28 09:40:00 16367 263.500 5.0000 0.0000 0.0000 264.200 5.0000 0.0000 0.0000 2362.000 0.0000 0.0000 5.0000 14.960 85.800 12.604 0.000 0.000 0.000 0.000 0.000         17.008 14.593 2.415
DSCMET_421 2016-09-28 09:35:00 16366 263.500 5.0000 0.0000 0.0000 264.200 5.0000 0.0000 0.0000 2304.000 0.2500 0.0000 4.7500 14.830 86.700 12.635 0.000 0.000 0.000 0.000 0.000         16.866 14.623 2.243
DSCMET_421 2016-09-28 09:30:00 16365 263.500 5.0000 0.0000 0.0000 264.200 5.0000 0.0000 0.0000 806.000 3.7500 0.0000 1.2500 14.790 87.200 12.684 0.000 0.000 0.000 0.000 0.000         16.823 14.669 2.153
DSCMET_421 2016-09-28 09:25:00 16364 263.500 5.0000 0.0000 0.0000 264.200 5.0000 0.0000 0.0000 2349.000 0.2500 0.0000 4.7500 14.470 88.500 12.594 0.000 0.000 0.000 0.000 0.000         16.479 14.584 1.895
DSCMET_421 2016-09-28 09:20:00 16363 263.500 5.0000 0.0000 0.0000 264.200 5.0000 0.0000 0.0000 274.700 2.5000 2.5000 0.0000 14.270 88.900 12.466 0.000 0.000 0.000 0.000 0.000         16.267 14.461 1.806
DSCMET_421 2016-09-28 09:15:00 16362 263.600 5.0000 0.0000 0.0000 264.300 5.0000 0.0000 0.0000 288.900 0.0000 1.5000 3.5000 14.180 89.100 12.411 0.000 0.000 0.000 0.000 0.000         16.172 14.410 1.763
DSCMET_421 2016-09-28 09:10:00 16361 263.800 5.0000 0.0000 0.0000 264.500 5.0000 0.0000 0.0000 309.800 0.0000 0.0000 5.0000 14.130 89.900 12.498 0.000 0.000 0.000 0.000 0.000         16.120 14.492 1.628
DSCMET_421 2016-09-28 09:05:00 16360 263.800 5.0000 0.0000 0.0000 264.500 5.0000 0.0000 0.0000 1446.000 0.0000 0.0000 5.0000 14.070 90.200 12.490 0.000 0.000 0.000 0.000 0.000         16.057 14.484 1.574
DSCMET_421 2016-09-28 09:00:00 16359 263.900 5.0000 0.0000 0.0000 264.800 5.0000 0.0000 0.0000 2345.000 0.0000 0.0000 5.0000 14.170 90.500 12.639 0.000 0.000 0.000 0.000 0.000         16.162 14.626 1.535
DSCMET_421 2016-09-28 08:55:00 16358 263.900 5.0000 0.0000 0.0000 264.900 5.0000 0.0000 0.0000 2432.000 0.0000 0.0000 5.0000 13.980 91.000 12.535 0.000 0.000 0.000 0.000 0.000         15.964 14.527 1.437
DSCMET_421 2016-09-28 08:50:00 16357 263.900 5.0000 0.0000 0.0000 264.900 5.0000 0.0000 0.0000 2461.000 0.0000 0.0000 5.0000 13.880 91.500 12.520 0.000 0.000 0.000 0.000 0.000         15.861 14.512 1.348
DSCMET_421 2016-09-28 08:45:00 16356 263.900 5.0000 0.0000 0.0000 264.900 5.0000 0.0000 0.0000 2426.000 0.0000 0.0000 5.0000 13.680 92.200 12.438 0.000 0.000 0.000 0.000 0.000         15.656 14.435 1.221
DSCMET_421 2016-09-28 08:40:00 16355 263.900 5.0000 0.0000 0.0000 265.200 5.0000 0.0000 0.0000 2218.000 0.0000 0.0000 5.0000 13.590 92.900 12.464 0.000 0.000 0.000 0.000 0.000         15.564 14.459 1.105
DSCMET_421 2016-09-28 08:35:00 16354 263.900 5.0000 0.0000 0.0000 265.200 5.0000 0.0000 0.0000 2379.000 0.0000 0.0000 5.0000 13.490 93.500 12.463 0.000 0.000 0.000 0.000 0.000         15.463 14.458 1.005
DSCMET_421 2016-09-28 08:30:00 16353 263.900 5.0000 0.0000 0.0000 265.200 5.0000 0.0000 0.0000 2268.000 0.0000 0.0000 5.0000 13.430 93.600 12.419 0.000 0.000 0.000 0.000 0.000         15.403 14.417 0.986
DSCMET_421 2016-09-28 08:25:00 16352 263.900 5.0000 0.0000 0.0000 265.200 5.0000 0.0000 0.0000 2340.000 0.0000 0.0000 5.0000 13.450 94.200 12.537 0.000 0.000 0.000 0.000 0.000         15.423 14.528 0.895
DSCMET_421 2016-09-28 08:20:00 16351 263.900 5.0000 0.0000 0.0000 265.500 5.0000 0.0000 0.0000 2345.000 0.0000 0.0000 5.0000 13.360 94.500 12.496 0.000 0.000 0.000 0.000 0.000         15.333 14.489 0.843
DSCMET_421 2016-09-28 08:15:00 16350 263.900 5.0000 0.0000 0.0000 265.500 5.0000 0.0000 0.0000 2288.000 0.0000 0.0000 5.0000 13.210 95.200 12.459 0.000 0.000 0.000 0.000 0.000         15.183 14.455 0.729
DSCMET_421 2016-09-28 08:10:00 16349 263.900 5.0000 0.0000 0.0000 265.500 5.0000 0.0000 0.0000 445.300 0.0000 0.0000 5.0000 13.170 95.500 12.467 0.000 0.000 0.000 0.000 0.000         15.144 14.462 0.681
DSCMET_421 2016-09-28 08:05:00 16348 263.900 5.0000 0.0000 0.0000 265.500 5.0000 0.0000 0.0000 445.800 0.0000 0.0000 5.0000 13.060 95.700 12.390 0.000 0.000 0.000 0.000 0.000         15.035 14.389 0.647
DSCMET_421 2016-09-28 08:00:00 16347 263.900 5.0000 0.0000 0.0000 265.500 5.0000 0.0000 0.0000 449.500 0.0000 0.0000 5.0000 12.980 95.900 12.342 0.000 0.000 0.000 0.000 0.000         14.957 14.344 0.613
DSCMET_421 2016-09-28 07:55:00 16346 263.900 5.0000 0.0000 0.0000 265.500 5.0000 0.0000 0.0000 452.000 0.0000 0.0000 5.0000 12.890 96.000 12.268 0.000 0.000 0.000 0.000 0.000         14.869 14.274 0.595
DSCMET_421 2016-09-28 07:50:00 16345 263.900 5.0000 0.0000 0.0000 265.500 5.0000 0.0000 0.0000 443.200 0.0000 0.0000 5.0000 12.930 95.900 12.292 0.000 0.000 0.000 0.000 0.000         14.908 14.297 0.611
DSCMET_421 2016-09-28 07:45:00 16344 263.900 5.0000 0.0000 0.0000 265.500 5.0000 0.0000 0.0000 445.400 0.0000 0.0000 5.0000 12.870 96.400 12.311 0.000 0.000 0.000 0.000 0.000         14.850 14.315 0.535
DSCMET_421 2016-09-28 07:40:00 16343 263.900 5.0000 0.0000 0.0000 265.500 5.0000 0.0000 0.0000 448.200 0.0000 0.0000 5.0000 12.730 96.700 12.219 0.000 0.000 0.000 0.000 0.000         14.714 14.228 0.486
DSCMET_421 2016-09-28 07:35:00 16342 263.900 5.0000 0.0000 0.0000 265.500 5.0000 0.0000 0.0000 450.600 0.0000 0.0000 5.0000 12.660 96.900 12.181 0.000 0.000 0.000 0.000 0.000         14.647 14.193 0.454
DSCMET_421 2016-09-28 07:30:00 16341 263.900 5.0000 0.0000 0.0000 265.500 5.0000 0.0000 0.0000 450.800 0.0000 0.0000 5.0000 12.570 97.200 12.138 0.000 0.000 0.000 0.000 0.000         14.560 14.153 0.408
DSCMET_421 2016-09-28 07:25:00 16340 263.900 5.0000 0.0000 0.0000 265.500 5.0000 0.0000 0.0000 538.000 0.0000 0.0000 5.0000 12.520 97.300 12.104 0.000 0.000 0.000 0.000 0.000         14.513 14.121 0.392
DSCMET_421 2016-09-28 07:20:00 16339 263.900 5.0000 0.0000 0.0000 265.800 5.0000 0.0000 0.0000 2191.000 0.0000 0.0000 5.0000 12.480 97.300 12.064 0.000 0.000 0.000 0.000 0.000         14.475 14.084 0.391
DSCMET_421 2016-09-28 07:15:00 16338 263.900 5.0000 0.0000 0.0000 265.900 5.0000 0.0000 0.0000 2274.000 0.0000 0.0000 5.0000 12.440 97.600 12.071 0.000 0.000 0.000 0.000 0.000         14.437 14.090 0.346
DSCMET_421 2016-09-28 07:10:00 16337 263.900 5.0000 0.0000 0.0000 266.100 5.0000 0.0000 0.0000 2261.000 0.0000 0.0000 5.0000 12.350 98.000 12.043 0.000 0.000 0.000 0.000 0.000         14.351 14.064 0.287
DSCMET_421 2016-09-28 07:05:00 16336 264.100 5.0000 0.0000 0.0000 266.800 5.0000 0.0000 0.0000 2366.000 0.0000 0.0000 5.0000 12.240 98.000 11.933 0.000 0.000 0.000 0.000 0.000         14.248 13.963 0.285
DSCMET_421 2016-09-28 07:00:00 16335 264.000 5.0000 0.0000 0.0000 266.500 5.0000 0.0000 0.0000 2419.000 0.0000 0.0000 5.0000 12.230 97.800 11.892 0.000 0.000 0.000 0.000 0.000         14.239 13.925 0.313
DSCMET_421 2016-09-28 06:55:00 16334 263.900 5.0000 0.0000 0.0000 266.400 5.0000 0.0000 0.0000 2427.000 0.0000 0.0000 5.0000 12.250 97.800 11.912 0.000 0.000 0.000 0.000 0.000         14.257 13.944 0.314
DSCMET_421 2016-09-28 06:50:00 16333 264.000 5.0000 0.0000 0.0000 267.100 5.0000 0.0000 0.0000 464.800 0.0000 0.0000 5.0000 12.190 97.800 11.853 0.000 0.000 0.000 0.000 0.000         14.201 13.889 0.312
DSCMET_421 2016-09-28 06:45:00 16332 264.200 5.0000 0.0000 0.0000 267.000 5.0000 0.0000 0.0000 462.800 0.0000 0.0000 5.0000 12.150 98.000 11.844 0.000 0.000 0.000 0.000 0.000         14.164 13.881 0.283
DSCMET_421 2016-09-28 06:40:00 16331 264.000 5.0000 0.0000 0.0000 266.600 5.0000 0.0000 0.0000 455.100 0.0000 0.0000 5.0000 12.070 98.100 11.779 0.000 0.000 0.000 0.000 0.000         14.089 13.822 0.268
DSCMET_421 2016-09-28 06:35:00 16330 263.900 5.0000 0.0000 0.0000 266.200 5.0000 0.0000 0.0000 455.300 0.0000 0.0000 5.0000 12.050 97.900 11.728 0.000 0.000 0.000 0.000 0.000         14.071 13.775 0.295
DSCMET_421 2016-09-28 06:30:00 16329 263.900 5.0000 0.0000 0.0000 265.900 5.0000 0.0000 0.0000 452.600 0.0000 0.0000 5.0000 12.100 97.800 11.763 0.000 0.000 0.000 0.000 0.000         14.117 13.807 0.311
DSCMET_421 2016-09-28 06:25:00 16328 263.900 5.0000 0.0000 0.0000 266.200 5.0000 0.0000 0.0000 453.600 0.0000 0.0000 5.0000 12.120 97.600 11.752 0.000 0.000 0.000 0.000 0.000         14.136 13.797 0.339
DSCMET_421 2016-09-28 06:20:00 16327 263.900 5.0000 0.0000 0.0000 266.300 5.0000 0.0000 0.0000 453.600 0.0000 0.0000 5.0000 12.090 97.100 11.644 0.000 0.000 0.000 0.000 0.000         14.108 13.699 0.409
DSCMET_421 2016-09-28 06:15:00 16326 263.900 5.0000 0.0000 0.0000 266.700 5.0000 0.0000 0.0000 1689.000 0.0000 0.0000 5.0000 12.060 96.900 11.583 0.000 0.000 0.000 0.000 0.000         14.080 13.644 0.436
DSCMET_421 2016-09-28 06:10:00 16325 263.900 5.0000 0.0000 0.0000 266.500 5.0000 0.0000 0.0000 454.100 0.0000 0.0000 5.0000 12.020 96.800 11.528 0.000 0.000 0.000 0.000 0.000         14.043 13.594 0.449
DSCMET_421 2016-09-28 06:05:00 16324 263.900 5.0000 0.0000 0.0000 266.600 5.0000 0.0000 0.0000 456.000 0.0000 0.0000 5.0000 12.030 96.600 11.506 0.000 0.000 0.000 0.000 0.000         14.052 13.574 0.478
DSCMET_421 2016-09-28 06:00:00 16323 263.900 5.0000 0.0000 0.0000 266.900 5.0000 0.0000 0.0000 467.900 0.0000 0.0000 5.0000 12.070 96.500 11.531 0.000 0.000 0.000 0.000 0.000         14.089 13.596 0.493
DSCMET_421 2016-09-28 05:55:00 16322 263.900 5.0000 0.0000 0.0000 267.200 5.0000 0.0000 0.0000 462.100 0.0000 0.0000 5.0000 12.030 96.600 11.506 0.000 0.000 0.000 0.000 0.000         14.052 13.574 0.478
DSCMET_421 2016-09-28 05:50:00 16321 263.900 5.0000 0.0000 0.0000 267.600 5.0000 0.0000 0.0000 460.800 0.0000 0.0000 5.0000 12.030 96.400 11.475 0.000 0.000 0.000 0.000 0.000         14.052 13.546 0.506
DSCMET_421 2016-09-28 05:45:00 16320 263.900 5.0000 0.0000 0.0000 268.300 5.0000 0.0000 0.0000 472.600 0.0000 0.0000 5.0000 12.120 95.900 11.486 0.000 0.000 0.000 0.000 0.000         14.136 13.556 0.580
DSCMET_421 2016-09-28 05:40:00 16319 263.900 5.0000 0.0000 0.0000 269.000 5.0000 0.0000 0.0000 454.200 0.0000 0.0000 5.0000 12.230 95.700 11.564 0.000 0.000 0.000 0.000 0.000         14.239 13.626 0.612
DSCMET_421 2016-09-28 05:35:00 16318 263.900 5.0000 0.0000 0.0000 270.000 5.0000 0.0000 0.0000 747.200 0.0000 0.0000 5.0000 12.200 96.000 11.581 0.000 0.000 0.000 0.000 0.000         14.211 13.642 0.568
DSCMET_421 2016-09-28 05:30:00 16317 263.900 5.0000 0.0000 0.0000 271.000 5.0000 0.0000 0.0000 468.700 0.0000 0.0000 5.0000 12.130 96.000 11.512 0.000 0.000 0.000 0.000 0.000         14.145 13.579 0.566
DSCMET_421 2016-09-28 05:25:00 16316 263.700 5.0000 0.0000 0.0000 272.100 5.0000 0.0000 0.0000 468.700 0.0000 0.0000 5.0000 12.090 95.600 11.409 0.000 0.000 0.000 0.000 0.000         14.108 13.487 0.621
DSCMET_421 2016-09-28 05:20:00 16315 263.800 5.0000 0.0000 0.0000 273.200 5.0000 0.0000 0.0000 468.500 0.0000 0.0000 5.0000 12.070 95.800 11.421 0.000 0.000 0.000 0.000 0.000         14.089 13.498 0.592
DSCMET_421 2016-09-28 05:15:00 16314 263.700 5.0000 0.0000 0.0000 274.400 0.7500 4.2500 0.0000 469.300 0.0000 0.0000 5.0000 12.020 96.000 11.402 0.000 0.000 0.000 0.000 0.000         14.043 13.481 0.562
DSCMET_421 2016-09-28 05:10:00 16313 263.800 5.0000 0.0000 0.0000 275.600 0.0000 5.0000 0.0000 461.400 0.0000 0.0000 5.0000 11.990 96.100 11.388 0.000 0.000 0.000 0.000 0.000         14.015 13.469 0.547
DSCMET_421 2016-09-28 05:05:00 16312 263.800 5.0000 0.0000 0.0000 277.000 0.0000 5.0000 0.0000 462.900 0.0000 0.0000 5.0000 11.910 96.500 11.371 0.000 0.000 0.000 0.000 0.000         13.941 13.454 0.488
DSCMET_421 2016-09-28 05:00:00 16311 263.600 5.0000 0.0000 0.0000 278.500 0.0000 5.0000 0.0000 470.200 0.0000 0.0000 5.0000 11.890 96.300 11.320 0.000 0.000 0.000 0.000 0.000         13.923 13.408 0.515
DSCMET_421 2016-09-28 04:55:00 16310 263.600 5.0000 0.0000 0.0000 280.000 0.0000 5.0000 0.0000 476.600 0.0000 0.0000 5.0000 11.850 96.100 11.249 0.000 0.000 0.000 0.000 0.000         13.886 13.345 0.542
DSCMET_421 2016-09-28 04:50:00 16309 263.600 5.0000 0.0000 0.0000 281.400 0.0000 5.0000 0.0000 472.400 0.0000 0.0000 5.0000 11.810 96.100 11.209 0.000 0.000 0.000 0.000 0.000         13.850 13.310 0.540
DSCMET_421 2016-09-28 04:45:00 16308 263.600 5.0000 0.0000 0.0000 282.700 0.0000 5.0000 0.0000 473.300 0.0000 0.0000 5.0000 11.800 96.000 11.183 0.000 0.000 0.000 0.000 0.000         13.841 13.287 0.554
DSCMET_421 2016-09-28 04:40:00 16307 263.600 5.0000 0.0000 0.0000 284.000 0.0000 2.5000 2.5000 465.500 0.0000 0.0000 5.0000 11.780 96.000 11.164 0.000 0.000 0.000 0.000 0.000         13.822 13.269 0.553
DSCMET_421 2016-09-28 04:35:00 16306 263.600 5.0000 0.0000 0.0000 285.200 0.0000 0.0000 5.0000 467.300 0.0000 0.0000 5.0000 11.760 96.200 11.175 0.000 0.000 0.000 0.000 0.000         13.804 13.280 0.525
DSCMET_421 2016-09-28 04:30:00 16305 263.700 5.0000 0.0000 0.0000 286.300 0.0000 0.0000 5.0000 480.600 0.0000 0.0000 5.0000 11.750 96.100 11.149 0.000 0.000 0.000 0.000 0.000         13.795 13.257 0.538
DSCMET_421 2016-09-28 04:25:00 16304 263.700 5.0000 0.0000 0.0000 287.400 0.0000 0.0000 5.0000 480.200 0.0000 0.0000 5.0000 11.740 96.200 11.155 0.000 0.000 0.000 0.000 0.000         13.786 13.262 0.524
DSCMET_421 2016-09-28 04:20:00 16303 263.800 5.0000 0.0000 0.0000 288.300 0.0000 0.0000 5.0000 477.600 0.0000 0.0000 5.0000 11.720 96.800 11.229 0.000 0.000 0.000 0.000 0.000         13.768 13.327 0.441
DSCMET_421 2016-09-28 04:15:00 16302 263.800 5.0000 0.0000 0.0000 289.200 0.0000 0.0000 5.0000 480.000 0.0000 0.0000 5.0000 11.730 96.100 11.129 0.000 0.000 0.000 0.000 0.000         13.777 13.239 0.537
DSCMET_421 2016-09-28 04:10:00 16301 263.900 5.0000 0.0000 0.0000 290.200 0.0000 0.0000 5.0000 480.400 0.0000 0.0000 5.0000 11.660 96.300 11.091 0.000 0.000 0.000 0.000 0.000         13.713 13.206 0.507
DSCMET_421 2016-09-28 04:05:00 16300 263.900 5.0000 0.0000 0.0000 291.100 0.0000 0.0000 5.0000 482.700 0.0000 0.0000 5.0000 11.630 96.400 11.077 0.000 0.000 0.000 0.000 0.000         13.686 13.193 0.493
DSCMET_421 2016-09-28 04:00:00 16299 263.900 5.0000 0.0000 0.0000 291.800 0.0000 0.0000 5.0000 478.000 0.0000 0.0000 5.0000 11.590 96.600 11.068 0.000 0.000 0.000 0.000 0.000         13.650 13.186 0.464
DSCMET_421 2016-09-28 03:55:00 16298 263.900 5.0000 0.0000 0.0000 292.500 0.0000 0.0000 5.0000 476.900 0.0000 0.0000 5.0000 11.530 97.000 11.071 0.000 0.000 0.000 0.000 0.000         13.596 13.188 0.408
DSCMET_421 2016-09-28 03:50:00 16297 263.900 5.0000 0.0000 0.0000 293.000 0.0000 0.0000 5.0000 486.200 0.0000 0.0000 5.0000 11.550 97.000 11.091 0.000 0.000 0.000 0.000 0.000         13.614 13.205 0.408
DSCMET_421 2016-09-28 03:45:00 16296 263.900 5.0000 0.0000 0.0000 293.600 0.0000 0.0000 5.0000 492.600 0.0000 0.0000 5.0000 11.430 96.900 10.955 0.000 0.000 0.000 0.000 0.000         13.506 13.087 0.419
DSCMET_421 2016-09-28 03:40:00 16295 263.900 5.0000 0.0000 0.0000 294.000 0.0000 0.0000 5.0000 489.100 0.0000 0.0000 5.0000 11.420 97.100 10.977 0.000 0.000 0.000 0.000 0.000         13.497 13.106 0.391
DSCMET_421 2016-09-28 03:35:00 16294 263.900 5.0000 0.0000 0.0000 294.400 0.0000 0.0000 5.0000 488.500 0.0000 0.0000 5.0000 11.340 97.500 10.959 0.000 0.000 0.000 0.000 0.000         13.426 13.090 0.336
DSCMET_421 2016-09-28 03:30:00 16293 263.900 5.0000 0.0000 0.0000 294.700 0.0000 0.0000 5.0000 475.700 0.0000 0.0000 5.0000 11.290 97.500 10.909 0.000 0.000 0.000 0.000 0.000         13.381 13.047 0.335
DSCMET_421 2016-09-28 03:25:00 16292 264.200 5.0000 0.0000 0.0000 294.900 0.0000 0.0000 5.0000 544.400 0.0000 0.0000 5.0000 11.280 97.400 10.883 0.000 0.000 0.000 0.000 0.000         13.372 13.025 0.348
DSCMET_421 2016-09-28 03:20:00 16291 264.200 5.0000 0.0000 0.0000 295.100 0.0000 0.0000 5.0000 1821.000 0.0000 0.0000 5.0000 11.270 97.400 10.873 0.000 0.000 0.000 0.000 0.000         13.364 13.016 0.347
DSCMET_421 2016-09-28 03:15:00 16290 264.500 5.0000 0.0000 0.0000 295.100 0.0000 0.0000 5.0000 1899.000 0.0000 0.0000 5.0000 11.280 97.500 10.899 0.000 0.000 0.000 0.000 0.000         13.372 13.038 0.334
DSCMET_421 2016-09-28 03:10:00 16289 264.600 5.0000 0.0000 0.0000 295.100 0.0000 0.0000 5.0000 479.600 0.0000 0.0000 5.0000 11.310 97.600 10.944 0.000 0.000 0.000 0.000 0.000         13.399 13.077 0.322
DSCMET_421 2016-09-28 03:05:00 16288 264.900 5.0000 0.0000 0.0000 295.000 0.0000 0.0000 5.0000 478.000 0.0000 0.0000 5.0000 11.270 97.700 10.920 0.000 0.000 0.000 0.000 0.000         13.364 13.056 0.307
DSCMET_421 2016-09-28 03:00:00 16287 264.900 5.0000 0.0000 0.0000 294.600 0.0000 0.0000 5.0000 481.300 0.0000 0.0000 5.0000 11.230 97.700 10.880 0.000 0.000 0.000 0.000 0.000         13.328 13.022 0.307
DSCMET_421 2016-09-28 02:55:00 16286 265.100 5.0000 0.0000 0.0000 294.200 0.0000 0.0000 5.0000 484.500 0.0000 0.0000 5.0000 11.280 97.700 10.930 0.000 0.000 0.000 0.000 0.000         13.372 13.065 0.308
DSCMET_421 2016-09-28 02:50:00 16285 265.200 5.0000 0.0000 0.0000 294.000 0.0000 0.0000 5.0000 473.000 0.0000 0.0000 5.0000 11.310 97.800 10.975 0.000 0.000 0.000 0.000 0.000         13.399 13.104 0.295
DSCMET_421 2016-09-28 02:45:00 16284 265.200 5.0000 0.0000 0.0000 293.400 0.0000 0.0000 5.0000 470.400 0.0000 0.0000 5.0000 11.260 97.800 10.925 0.000 0.000 0.000 0.000 0.000         13.355 13.061 0.294
DSCMET_421 2016-09-28 02:40:00 16283 265.200 5.0000 0.0000 0.0000 292.900 0.0000 0.0000 5.0000 465.300 0.0000 0.0000 5.0000 11.310 97.400 10.913 0.000 0.000 0.000 0.000 0.000         13.399 13.051 0.348
DSCMET_421 2016-09-28 02:35:00 16282 265.200 5.0000 0.0000 0.0000 292.600 0.0000 0.0000 5.0000 463.900 0.0000 0.0000 5.0000 11.510 97.500 11.128 0.000 0.000 0.000 0.000 0.000         13.578 13.238 0.339
DSCMET_421 2016-09-28 02:30:00 16281 265.200 5.0000 0.0000 0.0000 292.000 0.0000 0.0000 5.0000 459.900 0.0000 0.0000 5.0000 11.410 97.700 11.059 0.000 0.000 0.000 0.000 0.000         13.488 13.178 0.310
DSCMET_421 2016-09-28 02:25:00 16280 265.200 5.0000 0.0000 0.0000 291.300 0.0000 0.0000 5.0000 546.200 0.0000 0.0000 5.0000 11.470 97.400 11.073 0.000 0.000 0.000 0.000 0.000         13.542 13.190 0.352
DSCMET_421 2016-09-28 02:20:00 16279 265.200 5.0000 0.0000 0.0000 290.900 0.0000 0.0000 5.0000 2233.000 0.0000 0.0000 5.0000 11.550 97.400 11.153 0.000 0.000 0.000 0.000 0.000         13.614 13.260 0.354
DSCMET_421 2016-09-28 02:15:00 16278 265.200 5.0000 0.0000 0.0000 290.400 0.0000 0.0000 5.0000 2257.000 0.0000 0.0000 5.0000 11.620 97.400 11.222 0.000 0.000 0.000 0.000 0.000         13.677 13.321 0.356
DSCMET_421 2016-09-28 02:10:00 16277 265.200 5.0000 0.0000 0.0000 289.900 0.0000 0.0000 5.0000 2242.000 0.0000 0.0000 5.0000 11.650 97.500 11.268 0.000 0.000 0.000 0.000 0.000         13.704 13.362 0.343
DSCMET_421 2016-09-28 02:05:00 16276 265.200 5.0000 0.0000 0.0000 289.200 0.0000 0.0000 5.0000 2275.000 0.0000 0.0000 5.0000 11.620 97.600 11.253 0.000 0.000 0.000 0.000 0.000         13.677 13.349 0.328
DSCMET_421 2016-09-28 02:00:00 16275 265.200 5.0000 0.0000 0.0000 288.600 0.0000 0.0000 5.0000 2238.000 0.0000 0.0000 5.0000 11.680 97.500 11.298 0.000 0.000 0.000 0.000 0.000         13.731 13.388 0.343
DSCMET_421 2016-09-28 01:55:00 16274 265.200 5.0000 0.0000 0.0000 288.000 0.0000 0.0000 5.0000 2288.000 0.0000 0.0000 5.0000 11.680 97.700 11.329 0.000 0.000 0.000 0.000 0.000         13.731 13.416 0.316
DSCMET_421 2016-09-28 01:50:00 16273 265.200 5.0000 0.0000 0.0000 287.300 0.0000 0.0000 5.0000 2348.000 0.0000 0.0000 5.0000 11.660 97.600 11.293 0.000 0.000 0.000 0.000 0.000         13.713 13.384 0.329
DSCMET_421 2016-09-28 01:45:00 16272 265.200 5.0000 0.0000 0.0000 286.800 0.0000 0.0000 5.0000 2385.000 0.0000 0.0000 5.0000 11.740 97.600 11.373 0.000 0.000 0.000 0.000 0.000         13.786 13.455 0.331
DSCMET_421 2016-09-28 01:40:00 16271 265.200 5.0000 0.0000 0.0000 286.200 0.0000 0.0000 5.0000 2413.000 0.0000 0.0000 5.0000 11.750 97.600 11.383 0.000 0.000 0.000 0.000 0.000         13.795 13.464 0.331
DSCMET_421 2016-09-28 01:35:00 16270 265.200 5.0000 0.0000 0.0000 285.500 0.0000 0.0000 5.0000 2380.000 0.0000 0.0000 5.0000 11.800 97.500 11.417 0.000 0.000 0.000 0.000 0.000         13.841 13.495 0.346
DSCMET_421 2016-09-28 01:30:00 16269 265.000 5.0000 0.0000 0.0000 284.800 0.0000 0.0000 5.0000 420.100 0.0000 0.0000 5.0000 11.860 97.300 11.446 0.000 0.000 0.000 0.000 0.000         13.896 13.520 0.375
DSCMET_421 2016-09-28 01:25:00 16268 264.900 5.0000 0.0000 0.0000 284.300 0.0000 0.0000 5.0000 477.400 0.0000 0.0000 5.0000 12.040 96.800 11.548 0.000 0.000 0.000 0.000 0.000         14.062 13.612 0.450
DSCMET_421 2016-09-28 01:20:00 16267 265.000 5.0000 0.0000 0.0000 283.900 0.0000 3.5000 1.5000 418.100 0.0000 0.0000 5.0000 12.180 97.000 11.718 0.000 0.000 0.000 0.000 0.000         14.192 13.766 0.426
DSCMET_421 2016-09-28 01:15:00 16266 264.900 5.0000 0.0000 0.0000 283.300 0.0000 5.0000 0.0000 415.100 0.0000 0.0000 5.0000 12.120 97.100 11.674 0.000 0.000 0.000 0.000 0.000         14.136 13.726 0.410
DSCMET_421 2016-09-28 01:10:00 16265 264.900 5.0000 0.0000 0.0000 282.500 0.0000 5.0000 0.0000 411.500 0.0000 0.0000 5.0000 12.070 97.300 11.655 0.000 0.000 0.000 0.000 0.000         14.089 13.709 0.380
DSCMET_421 2016-09-28 01:05:00 16264 264.600 5.0000 0.0000 0.0000 281.900 0.0000 5.0000 0.0000 409.200 0.0000 0.0000 5.0000 12.160 97.100 11.714 0.000 0.000 0.000 0.000 0.000         14.173 13.762 0.411
DSCMET_421 2016-09-28 01:00:00 16263 264.600 5.0000 0.0000 0.0000 281.400 0.0000 5.0000 0.0000 404.600 0.0000 0.0000 5.0000 12.200 97.100 11.754 0.000 0.000 0.000 0.000 0.000         14.211 13.798 0.412
DSCMET_421 2016-09-28 00:55:00 16262 264.800 5.0000 0.0000 0.0000 280.800 0.0000 5.0000 0.0000 495.600 0.0000 0.0000 5.0000 12.180 97.300 11.765 0.000 0.000 0.000 0.000 0.000         14.192 13.809 0.383
DSCMET_421 2016-09-28 00:50:00 16261 264.500 5.0000 0.0000 0.0000 280.100 0.0000 5.0000 0.0000 2000.000 0.0000 0.0000 5.0000 12.220 97.100 11.774 0.000 0.000 0.000 0.000 0.000         14.229 13.817 0.413
DSCMET_421 2016-09-28 00:45:00 16260 264.500 5.0000 0.0000 0.0000 278.700 0.0000 5.0000 0.0000 812.000 0.0000 0.0000 5.0000 12.300 97.200 11.869 0.000 0.000 0.000 0.000 0.000         14.304 13.904 0.401
DSCMET_421 2016-09-28 00:40:00 16259 264.300 5.0000 0.0000 0.0000 277.600 0.0000 5.0000 0.0000 401.000 0.0000 0.0000 5.0000 12.260 97.300 11.845 0.000 0.000 0.000 0.000 0.000         14.267 13.882 0.385
DSCMET_421 2016-09-28 00:35:00 16258 264.200 5.0000 0.0000 0.0000 277.000 0.0000 5.0000 0.0000 399.300 0.0000 0.0000 5.0000 12.340 97.000 11.878 0.000 0.000 0.000 0.000 0.000         14.342 13.912 0.430
DSCMET_421 2016-09-28 00:30:00 16257 264.200 5.0000 0.0000 0.0000 276.600 0.0000 5.0000 0.0000 387.900 0.0000 0.0000 5.0000 12.420 96.900 11.942 0.000 0.000 0.000 0.000 0.000         14.418 13.971 0.447
DSCMET_421 2016-09-28 00:25:00 16256 264.200 5.0000 0.0000 0.0000 276.000 0.0000 5.0000 0.0000 563.700 0.0000 0.0000 5.0000 12.530 96.700 12.020 0.000 0.000 0.000 0.000 0.000         14.522 14.043 0.479
DSCMET_421 2016-09-28 00:20:00 16255 264.200 5.0000 0.0000 0.0000 275.500 0.0000 5.0000 0.0000 2101.000 0.0000 0.0000 5.0000 12.650 96.400 12.092 0.000 0.000 0.000 0.000 0.000         14.637 14.110 0.527
DSCMET_421 2016-09-28 00:15:00 16254 264.200 5.0000 0.0000 0.0000 274.900 0.0000 5.0000 0.0000 2099.000 0.0000 0.0000 5.0000 12.610 96.800 12.115 0.000 0.000 0.000 0.000 0.000         14.599 14.131 0.467
DSCMET_421 2016-09-28 00:10:00 16253 264.100 5.0000 0.0000 0.0000 274.400 0.0000 5.0000 0.0000 2093.000 0.0000 0.0000 5.0000 12.600 96.800 12.105 0.000 0.000 0.000 0.000 0.000         14.589 14.122 0.467
DSCMET_421 2016-09-28 00:05:00 16252 264.000 5.0000 0.0000 0.0000 273.900 3.7500 1.2500 0.0000 2084.000 0.0000 0.0000 5.0000 12.640 96.700 12.129 0.000 0.000 0.000 0.000 0.000         14.627 14.145 0.483
DSCMET_421 2016-09-28 00:00:00 16251 264.000 5.0000 0.0000 0.0000 273.300 5.0000 0.0000 0.0000 2076.000 0.0000 0.0000 5.0000 12.670 96.700 12.159 0.000 0.000 0.000 0.000 0.000         14.656 14.173 0.484
DSCMET_421 2016-09-27 23:55:00 16250 264.000 5.0000 0.0000 0.0000 272.900 5.0000 0.0000 0.0000 2067.000 0.0000 0.0000 5.0000 12.780 96.600 12.253 0.000 0.000 0.000 0.000 0.000         14.762 14.260 0.502
DSCMET_421 2016-09-27 23:50:00 16249 264.000 5.0000 0.0000 0.0000 272.400 5.0000 0.0000 0.0000 2058.000 0.0000 0.0000 5.0000 12.740 96.900 12.260 0.000 0.000 0.000 0.000 0.000         14.724 14.267 0.456
DSCMET_421 2016-09-27 23:45:00 16248 263.900 5.0000 0.0000 0.0000 271.800 5.0000 0.0000 0.0000 2076.000 0.0000 0.0000 5.0000 12.800 96.600 12.273 0.000 0.000 0.000 0.000 0.000         14.782 14.279 0.503
DSCMET_421 2016-09-27 23:40:00 16247 263.900 5.0000 0.0000 0.0000 271.300 5.0000 0.0000 0.0000 2101.000 0.0000 0.0000 5.0000 12.930 96.500 12.387 0.000 0.000 0.000 0.000 0.000         14.908 14.386 0.522
DSCMET_421 2016-09-27 23:35:00 16246 263.900 5.0000 0.0000 0.0000 270.700 5.0000 0.0000 0.0000 2073.000 0.0000 0.0000 5.0000 12.930 96.400 12.371 0.000 0.000 0.000 0.000 0.000         14.908 14.371 0.537
DSCMET_421 2016-09-27 23:30:00 16245 263.900 5.0000 0.0000 0.0000 270.300 5.0000 0.0000 0.0000 2159.000 0.0000 0.0000 5.0000 13.130 96.100 12.523 0.000 0.000 0.000 0.000 0.000         15.104 14.515 0.589
DSCMET_421 2016-09-27 23:25:00 16244 263.800 5.0000 0.0000 0.0000 270.000 5.0000 0.0000 0.0000 2111.000 0.0000 0.0000 5.0000 13.090 96.200 12.499 0.000 0.000 0.000 0.000 0.000         15.065 14.492 0.572
DSCMET_421 2016-09-27 23:20:00 16243 263.800 5.0000 0.0000 0.0000 269.600 5.0000 0.0000 0.0000 2107.000 0.0000 0.0000 5.0000 13.150 96.200 12.558 0.000 0.000 0.000 0.000 0.000         15.124 14.549 0.575
DSCMET_421 2016-09-27 23:15:00 16242 263.700 5.0000 0.0000 0.0000 269.100 5.0000 0.0000 0.0000 2107.000 0.0000 0.0000 5.0000 13.200 96.200 12.608 0.000 0.000 0.000 0.000 0.000         15.173 14.597 0.577
DSCMET_421 2016-09-27 23:10:00 16241 263.600 5.0000 0.0000 0.0000 268.700 5.0000 0.0000 0.0000 2104.000 0.0000 0.0000 5.0000 13.230 96.100 12.622 0.000 0.000 0.000 0.000 0.000         15.203 14.610 0.593
DSCMET_421 2016-09-27 23:05:00 16240 263.500 5.0000 0.0000 0.0000 268.200 5.0000 0.0000 0.0000 2103.000 0.0000 0.0000 5.0000 13.250 96.300 12.674 0.000 0.000 0.000 0.000 0.000         15.223 14.660 0.563
DSCMET_421 2016-09-27 23:00:00 16239 263.500 5.0000 0.0000 0.0000 267.800 5.0000 0.0000 0.0000 2136.000 0.0000 0.0000 5.0000 13.300 96.100 12.692 0.000 0.000 0.000 0.000 0.000         15.273 14.677 0.596
DSCMET_421 2016-09-27 22:55:00 16238 263.500 5.0000 0.0000 0.0000 267.400 5.0000 0.0000 0.0000 2188.000 0.0000 0.0000 5.0000 13.410 95.900 12.770 0.000 0.000 0.000 0.000 0.000         15.383 14.752 0.631
DSCMET_421 2016-09-27 22:50:00 16237 263.500 5.0000 0.0000 0.0000 267.000 5.0000 0.0000 0.0000 2243.000 0.0000 0.0000 5.0000 13.470 95.800 12.813 0.000 0.000 0.000 0.000 0.000         15.443 14.795 0.649
DSCMET_421 2016-09-27 22:45:00 16236 263.500 5.0000 0.0000 0.0000 266.800 5.0000 0.0000 0.0000 2274.000 0.0000 0.0000 5.0000 13.500 95.700 12.827 0.000 0.000 0.000 0.000 0.000         15.473 14.808 0.665
DSCMET_421 2016-09-27 22:40:00 16235 263.500 5.0000 0.0000 0.0000 266.500 5.0000 0.0000 0.0000 2247.000 0.0000 0.0000 5.0000 13.640 95.400 12.918 0.000 0.000 0.000 0.000 0.000         15.615 14.897 0.718
DSCMET_421 2016-09-27 22:35:00 16234 263.500 5.0000 0.0000 0.0000 266.300 5.0000 0.0000 0.0000 2278.000 0.0000 0.0000 5.0000 13.700 95.200 12.946 0.000 0.000 0.000 0.000 0.000         15.676 14.924 0.752
DSCMET_421 2016-09-27 22:30:00 16233 263.500 5.0000 0.0000 0.0000 265.900 5.0000 0.0000 0.0000 2282.000 0.0000 0.0000 5.0000 13.780 95.000 12.993 0.000 0.000 0.000 0.000 0.000         15.758 14.970 0.788
DSCMET_421 2016-09-27 22:25:00 16232 263.500 5.0000 0.0000 0.0000 265.800 5.0000 0.0000 0.0000 2336.000 0.0000 0.0000 5.0000 13.780 95.100 13.009 0.000 0.000 0.000 0.000 0.000         15.758 14.986 0.772
DSCMET_421 2016-09-27 22:20:00 16231 263.400 5.0000 0.0000 0.0000 265.700 5.0000 0.0000 0.0000 2219.000 0.0000 0.0000 5.0000 13.870 94.800 13.051 0.000 0.000 0.000 0.000 0.000         15.850 15.026 0.824
DSCMET_421 2016-09-27 22:15:00 16230 263.400 5.0000 0.0000 0.0000 265.800 5.0000 0.0000 0.0000 309.800 0.0000 0.0000 5.0000 13.840 95.100 13.069 0.000 0.000 0.000 0.000 0.000         15.819 15.044 0.775
DSCMET_421 2016-09-27 22:10:00 16229 263.200 5.0000 0.0000 0.0000 265.500 5.0000 0.0000 0.0000 300.300 0.0000 0.0000 5.0000 13.940 94.600 13.088 0.000 0.000 0.000 0.000 0.000         15.923 15.063 0.860
DSCMET_421 2016-09-27 22:05:00 16228 263.200 5.0000 0.0000 0.0000 265.400 5.0000 0.0000 0.0000 388.300 0.0000 0.0000 5.0000 14.080 94.500 13.211 0.000 0.000 0.000 0.000 0.000         16.068 15.184 0.884
DSCMET_421 2016-09-27 22:00:00 16227 263.200 5.0000 0.0000 0.0000 265.100 5.0000 0.0000 0.0000 2116.000 0.0000 0.0000 5.0000 14.140 94.400 13.254 0.000 0.000 0.000 0.000 0.000         16.130 15.227 0.903
DSCMET_421 2016-09-27 21:55:00 16226 263.100 5.0000 0.0000 0.0000 264.900 5.0000 0.0000 0.0000 2192.000 0.0000 0.0000 5.0000 14.190 94.400 13.304 0.000 0.000 0.000 0.000 0.000         16.183 15.277 0.906
DSCMET_421 2016-09-27 21:50:00 16225 263.100 5.0000 0.0000 0.0000 264.800 5.0000 0.0000 0.0000 2099.000 0.0000 0.0000 5.0000 14.210 94.400 13.324 0.000 0.000 0.000 0.000 0.000         16.204 15.296 0.907
DSCMET_421 2016-09-27 21:45:00 16224 263.100 5.0000 0.0000 0.0000 264.900 5.0000 0.0000 0.0000 2089.000 0.0000 0.0000 5.0000 14.200 94.500 13.330 0.000 0.000 0.000 0.000 0.000         16.193 15.303 0.891
DSCMET_421 2016-09-27 21:40:00 16223 263.100 5.0000 0.0000 0.0000 264.800 5.0000 0.0000 0.0000 292.800 0.0000 0.0000 5.0000 14.260 94.300 13.357 0.000 0.000 0.000 0.000 0.000         16.256 15.330 0.927
DSCMET_421 2016-09-27 21:35:00 16222 263.100 5.0000 0.0000 0.0000 264.700 5.0000 0.0000 0.0000 292.100 0.0000 0.0000 5.0000 14.360 94.000 13.407 0.000 0.000 0.000 0.000 0.000         16.362 15.380 0.982
DSCMET_421 2016-09-27 21:30:00 16221 263.100 5.0000 0.0000 0.0000 264.700 5.0000 0.0000 0.0000 289.100 0.0000 0.0000 5.0000 14.410 94.100 13.473 0.000 0.000 0.000 0.000 0.000         16.415 15.446 0.968
DSCMET_421 2016-09-27 21:25:00 16220 263.100 5.0000 0.0000 0.0000 264.500 5.0000 0.0000 0.0000 287.400 0.0000 0.0000 5.0000 14.460 94.200 13.539 0.000 0.000 0.000 0.000 0.000         16.468 15.513 0.955
DSCMET_421 2016-09-27 21:20:00 16219 263.100 5.0000 0.0000 0.0000 264.500 5.0000 0.0000 0.0000 286.600 0.0000 0.0000 5.0000 14.550 94.000 13.596 0.000 0.000 0.000 0.000 0.000         16.564 15.570 0.994
DSCMET_421 2016-09-27 21:15:00 16218 263.100 5.0000 0.0000 0.0000 264.500 5.0000 0.0000 0.0000 283.500 0.0000 3.5000 1.5000 14.540 94.200 13.619 0.000 0.000 0.000 0.000 0.000         16.553 15.593 0.960
DSCMET_421 2016-09-27 21:10:00 16217 263.100 5.0000 0.0000 0.0000 264.500 5.0000 0.0000 0.0000 281.800 0.0000 5.0000 0.0000 14.630 93.700 13.626 0.000 0.000 0.000 0.000 0.000         16.650 15.601 1.049
DSCMET_421 2016-09-27 21:05:00 16216 263.100 5.0000 0.0000 0.0000 264.200 5.0000 0.0000 0.0000 280.000 0.0000 5.0000 0.0000 14.810 93.400 13.755 0.000 0.000 0.000 0.000 0.000         16.844 15.733 1.112
DSCMET_421 2016-09-27 21:00:00 16215 263.100 5.0000 0.0000 0.0000 264.100 5.0000 0.0000 0.0000 1595.000 0.0000 1.5000 3.5000 14.920 93.300 13.848 0.000 0.000 0.000 0.000 0.000         16.964 15.828 1.137
DSCMET_421 2016-09-27 20:55:00 16214 263.100 5.0000 0.0000 0.0000 264.100 5.0000 0.0000 0.0000 2235.000 0.0000 0.0000 5.0000 14.880 93.300 13.808 0.000 0.000 0.000 0.000 0.000         16.921 15.787 1.134
DSCMET_421 2016-09-27 20:50:00 16213 263.100 5.0000 0.0000 0.0000 264.100 5.0000 0.0000 0.0000 2303.000 0.0000 0.0000 5.0000 15.030 92.700 13.858 0.000 0.000 0.000 0.000 0.000         17.085 15.838 1.247
DSCMET_421 2016-09-27 20:45:00 16212 263.100 5.0000 0.0000 0.0000 264.100 5.0000 0.0000 0.0000 2333.000 0.0000 0.0000 5.0000 15.170 92.600 13.980 0.000 0.000 0.000 0.000 0.000         17.239 15.964 1.276
DSCMET_421 2016-09-27 20:40:00 16211 263.000 5.0000 0.0000 0.0000 264.100 5.0000 0.0000 0.0000 2369.000 0.0000 0.0000 5.0000 15.170 92.400 13.946 0.000 0.000 0.000 0.000 0.000         17.239 15.929 1.310
DSCMET_421 2016-09-27 20:35:00 16210 262.900 5.0000 0.0000 0.0000 264.100 5.0000 0.0000 0.0000 2303.000 0.0000 0.2500 4.7500 15.420 91.500 14.043 0.000 0.000 0.000 0.000 0.000         17.518 16.029 1.489
DSCMET_421 2016-09-27 20:30:00 16209 263.000 5.0000 0.0000 0.0000 264.100 5.0000 0.0000 0.0000 275.100 0.0000 5.0000 0.0000 15.590 90.900 14.110 0.000 0.000 0.000 0.000 0.000         17.710 16.099 1.612
DSCMET_421 2016-09-27 20:25:00 16208 262.800 5.0000 0.0000 0.0000 264.000 5.0000 0.0000 0.0000 275.200 0.2500 4.5000 0.2500 15.560 91.600 14.198 0.000 0.000 0.000 0.000 0.000         17.676 16.192 1.485
DSCMET_421 2016-09-27 20:20:00 16207 262.800 5.0000 0.0000 0.0000 263.800 5.0000 0.0000 0.0000 270.200 5.0000 0.0000 0.0000 15.690 91.300 14.276 0.000 0.000 0.000 0.000 0.000         17.824 16.274 1.551
DSCMET_421 2016-09-27 20:15:00 16206 262.800 5.0000 0.0000 0.0000 263.700 5.0000 0.0000 0.0000 269.200 5.0000 0.0000 0.0000 15.610 91.900 14.298 0.000 0.000 0.000 0.000 0.000         17.733 16.297 1.436
DSCMET_421 2016-09-27 20:10:00 16205 262.800 5.0000 0.0000 0.0000 263.700 5.0000 0.0000 0.0000 273.800 3.2500 1.7500 0.0000 15.630 91.600 14.268 0.000 0.000 0.000 0.000 0.000         17.756 16.264 1.491
DSCMET_421 2016-09-27 20:05:00 16204 262.700 5.0000 0.0000 0.0000 263.700 5.0000 0.0000 0.0000 274.300 3.7500 1.0000 0.2500 15.840 90.700 14.323 0.000 0.000 0.000 0.000 0.000         17.996 16.323 1.674
DSCMET_421 2016-09-27 20:00:00 16203 262.700 5.0000 0.0000 0.0000 263.700 5.0000 0.0000 0.0000 268.500 5.0000 0.0000 0.0000 15.960 90.300 14.373 0.000 0.000 0.000 0.000 0.000         18.135 16.376 1.759
DSCMET_421 2016-09-27 19:55:00 16202 262.700 5.0000 0.0000 0.0000 263.700 5.0000 0.0000 0.0000 268.300 5.0000 0.0000 0.0000 16.080 90.200 14.474 0.000 0.000 0.000 0.000 0.000         18.274 16.483 1.791
DSCMET_421 2016-09-27 19:50:00 16201 262.700 5.0000 0.0000 0.0000 263.700 5.0000 0.0000 0.0000 268.400 5.0000 0.0000 0.0000 16.160 90.200 14.553 0.000 0.000 0.000 0.000 0.000         18.368 16.568 1.800
DSCMET_421 2016-09-27 19:45:00 16200 262.700 5.0000 0.0000 0.0000 263.700 5.0000 0.0000 0.0000 268.900 4.7500 0.2500 0.0000 16.370 89.300 14.605 0.000 0.000 0.000 0.000 0.000         18.615 16.623 1.992
DSCMET_421 2016-09-27 19:40:00 16199 262.700 5.0000 0.0000 0.0000 263.700 5.0000 0.0000 0.0000 275.200 0.0000 5.0000 0.0000 16.310 90.100 14.684 0.000 0.000 0.000 0.000 0.000         18.544 16.708 1.836
DSCMET_421 2016-09-27 19:35:00 16198 262.700 5.0000 0.0000 0.0000 263.700 5.0000 0.0000 0.0000 276.900 0.2500 4.7500 0.0000 16.570 88.900 14.733 0.000 0.000 0.000 0.000 0.000         18.854 16.761 2.093
DSCMET_421 2016-09-27 19:30:00 16197 262.700 5.0000 0.0000 0.0000 263.700 5.0000 0.0000 0.0000 273.300 5.0000 0.0000 0.0000 16.610 89.100 14.807 0.000 0.000 0.000 0.000 0.000         18.902 16.841 2.060
DSCMET_421 2016-09-27 19:25:00 16196 262.700 5.0000 0.0000 0.0000 263.700 5.0000 0.0000 0.0000 273.800 4.5000 0.5000 0.0000 16.620 89.400 14.869 0.000 0.000 0.000 0.000 0.000         18.914 16.909 2.005
DSCMET_421 2016-09-27 19:20:00 16195 262.700 5.0000 0.0000 0.0000 263.400 5.0000 0.0000 0.0000 280.400 0.0000 5.0000 0.0000 16.720 88.600 14.828 0.000 0.000 0.000 0.000 0.000         19.034 16.864 2.170
DSCMET_421 2016-09-27 19:15:00 16194 262.600 5.0000 0.0000 0.0000 263.400 5.0000 0.0000 0.0000 281.500 0.2500 4.7500 0.0000 16.890 88.100 14.908 0.000 0.000 0.000 0.000 0.000         19.241 16.951 2.290
DSCMET_421 2016-09-27 19:10:00 16193 262.400 5.0000 0.0000 0.0000 263.400 5.0000 0.0000 0.0000 273.200 3.7500 1.2500 0.0000 16.900 89.000 15.076 0.000 0.000 0.000 0.000 0.000         19.253 17.135 2.118
DSCMET_421 2016-09-27 19:05:00 16192 262.400 5.0000 0.0000 0.0000 263.300 5.0000 0.0000 0.0000 272.000 5.0000 0.0000 0.0000 17.060 87.800 15.022 0.000 0.000 0.000 0.000 0.000         19.449 17.076 2.373
DSCMET_421 2016-09-27 19:00:00 16191 262.400 5.0000 0.0000 0.0000 263.000 5.0000 0.0000 0.0000 265.200 5.0000 0.0000 0.0000 17.170 87.600 15.095 0.000 0.000 0.000 0.000 0.000         19.585 17.157 2.429
DSCMET_421 2016-09-27 18:55:00 16190 262.400 5.0000 0.0000 0.0000 263.000 5.0000 0.0000 0.0000 264.900 5.0000 0.0000 0.0000 17.280 87.200 15.132 0.000 0.000 0.000 0.000 0.000         19.722 17.197 2.524
DSCMET_421 2016-09-27 18:50:00 16189 262.300 5.0000 0.0000 0.0000 263.000 5.0000 0.0000 0.0000 263.300 5.0000 0.0000 0.0000 17.290 88.100 15.302 0.000 0.000 0.000 0.000 0.000         19.734 17.386 2.348
DSCMET_421 2016-09-27 18:45:00 16188 262.300 5.0000 0.0000 0.0000 263.000 5.0000 0.0000 0.0000 263.300 5.0000 0.0000 0.0000 17.610 86.300 15.295 0.000 0.000 0.000 0.000 0.000         20.137 17.378 2.759
DSCMET_421 2016-09-27 18:40:00 16187 262.300 5.0000 0.0000 0.0000 263.000 5.0000 0.0000 0.0000 263.300 5.0000 0.0000 0.0000 17.670 85.500 15.209 0.000 0.000 0.000 0.000 0.000         20.213 17.282 2.931
DSCMET_421 2016-09-27 18:35:00 16186 262.300 5.0000 0.0000 0.0000 262.900 5.0000 0.0000 0.0000 263.100 5.0000 0.0000 0.0000 17.730 86.100 15.377 0.000 0.000 0.000 0.000 0.000         20.290 17.470 2.820
DSCMET_421 2016-09-27 18:30:00 16185 262.300 5.0000 0.0000 0.0000 262.700 5.0000 0.0000 0.0000 262.700 5.0000 0.0000 0.0000 17.930 85.600 15.482 0.000 0.000 0.000 0.000 0.000         20.547 17.588 2.959
DSCMET_421 2016-09-27 18:25:00 16184 262.100 5.0000 0.0000 0.0000 262.600 5.0000 0.0000 0.0000 262.700 5.0000 0.0000 0.0000 18.110 83.600 15.290 0.000 0.000 0.000 0.000 0.000         20.781 17.373 3.408
DSCMET_421 2016-09-27 18:20:00 16183 262.000 5.0000 0.0000 0.0000 262.600 5.0000 0.0000 0.0000 263.300 5.0000 0.0000 0.0000 18.290 83.200 15.391 0.000 0.000 0.000 0.000 0.000         21.017 17.486 3.531
DSCMET_421 2016-09-27 18:15:00 16182 262.000 5.0000 0.0000 0.0000 262.600 5.0000 0.0000 0.0000 263.100 5.0000 0.0000 0.0000 18.440 82.800 15.463 0.000 0.000 0.000 0.000 0.000         21.216 17.567 3.649
DSCMET_421 2016-09-27 18:10:00 16181 262.000 5.0000 0.0000 0.0000 262.500 5.0000 0.0000 0.0000 263.200 5.0000 0.0000 0.0000 18.550 81.600 15.343 0.000 0.000 0.000 0.000 0.000         21.362 17.432 3.931
DSCMET_421 2016-09-27 18:05:00 16180 262.000 5.0000 0.0000 0.0000 262.300 5.0000 0.0000 0.0000 263.100 5.0000 0.0000 0.0000 18.860 79.970 15.330 0.000 0.000 0.000 0.000 0.000         21.780 17.418 4.363
DSCMET_421 2016-09-27 18:00:00 16179 262.000 5.0000 0.0000 0.0000 262.300 5.0000 0.0000 0.0000 262.800 5.0000 0.0000 0.0000 19.020 79.490 15.392 0.000 0.000 0.000 0.000 0.000         21.999 17.487 4.512
DSCMET_421 2016-09-27 17:55:00 16178 261.600 5.0000 0.0000 0.0000 262.300 5.0000 0.0000 0.0000 262.300 5.0000 0.0000 0.0000 19.220 78.010 15.293 0.000 0.000 0.000 0.000 0.000         22.275 17.377 4.898
DSCMET_421 2016-09-27 17:50:00 16177 261.600 5.0000 0.0000 0.0000 262.200 5.0000 0.0000 0.0000 262.400 5.0000 0.0000 0.0000 19.370 77.190 15.274 0.000 0.000 0.000 0.000 0.000         22.484 17.355 5.129
DSCMET_421 2016-09-27 17:45:00 16176 261.600 5.0000 0.0000 0.0000 262.000 5.0000 0.0000 0.0000 262.200 5.0000 0.0000 0.0000 19.430 77.030 15.300 0.000 0.000 0.000 0.000 0.000         22.568 17.384 5.184
DSCMET_421 2016-09-27 17:40:00 16175 261.600 5.0000 0.0000 0.0000 261.900 5.0000 0.0000 0.0000 261.900 5.0000 0.0000 0.0000 19.670 75.980 15.318 0.000 0.000 0.000 0.000 0.000         22.907 17.405 5.502
DSCMET_421 2016-09-27 17:35:00 16174 261.600 5.0000 0.0000 0.0000 261.900 5.0000 0.0000 0.0000 261.900 5.0000 0.0000 0.0000 19.840 74.600 15.197 0.000 0.000 0.000 0.000 0.000         23.150 17.270 5.880
DSCMET_421 2016-09-27 17:30:00 16173 261.500 5.0000 0.0000 0.0000 261.700 5.0000 0.0000 0.0000 261.600 5.0000 0.0000 0.0000 20.120 72.830 15.093 0.000 0.000 0.000 0.000 0.000         23.554 17.155 6.400
DSCMET_421 2016-09-27 17:25:00 16172 261.300 5.0000 0.0000 0.0000 261.600 5.0000 0.0000 0.0000 261.600 5.0000 0.0000 0.0000 20.640 69.760 14.923 0.000 0.000 0.000 0.000 0.000         24.323 16.967 7.355
DSCMET_421 2016-09-27 17:20:00 16171 261.200 5.0000 0.0000 0.0000 261.600 5.0000 0.0000 0.0000 261.600 5.0000 0.0000 0.0000 21.120 66.660 14.676 0.000 0.000 0.000 0.000 0.000         25.051 16.699 8.352
DSCMET_421 2016-09-27 17:15:00 16170 261.200 5.0000 0.0000 0.0000 261.500 5.0000 0.0000 0.0000 261.500 5.0000 0.0000 0.0000 21.420 64.410 14.429 0.000 0.000 0.000 0.000 0.000         25.516 16.435 9.081
DSCMET_421 2016-09-27 17:10:00 16169 261.200 5.0000 0.0000 0.0000 261.300 5.0000 0.0000 0.0000 260.900 5.0000 0.0000 0.0000 21.840 61.970 14.229 0.000 0.000 0.000 0.000 0.000         26.180 16.223 9.956
DSCMET_421 2016-09-27 17:05:00 16168 261.000 5.0000 0.0000 0.0000 261.200 5.0000 0.0000 0.0000 260.900 5.0000 0.0000 0.0000 22.260 59.390 13.968 0.000 0.000 0.000 0.000 0.000         26.858 15.951 10.907
DSCMET_421 2016-09-27 17:00:00 16167 260.900 5.0000 0.0000 0.0000 261.200 5.0000 0.0000 0.0000 260.800 5.0000 0.0000 0.0000 22.350 59.150 13.989 0.000 0.000 0.000 0.000 0.000         27.005 15.974 11.032
DSCMET_421 2016-09-27 16:55:00 16166 260.900 5.0000 0.0000 0.0000 261.200 5.0000 0.0000 0.0000 260.700 5.0000 0.0000 0.0000 22.620 57.840 13.897 0.000 0.000 0.000 0.000 0.000         27.452 15.878 11.574
DSCMET_421 2016-09-27 16:50:00 16165 260.900 5.0000 0.0000 0.0000 261.200 5.0000 0.0000 0.0000 260.700 5.0000 0.0000 0.0000 22.920 56.600 13.843 0.000 0.000 0.000 0.000 0.000         27.955 15.823 12.133
DSCMET_421 2016-09-27 16:45:00 16164 260.900 5.0000 0.0000 0.0000 261.200 5.0000 0.0000 0.0000 260.700 5.0000 0.0000 0.0000 23.110 55.780 13.795 0.000 0.000 0.000 0.000 0.000         28.278 15.774 12.505
DSCMET_421 2016-09-27 16:40:00 16163 260.900 5.0000 0.0000 0.0000 261.200 5.0000 0.0000 0.0000 260.500 5.0000 0.0000 0.0000 23.320 55.240 13.841 0.000 0.000 0.000 0.000 0.000         28.639 15.820 12.819
DSCMET_421 2016-09-27 16:35:00 16162 260.800 5.0000 0.0000 0.0000 261.200 5.0000 0.0000 0.0000 260.500 5.0000 0.0000 0.0000 23.440 54.990 13.882 0.000 0.000 0.000 0.000 0.000         28.847 15.863 12.984
DSCMET_421 2016-09-27 16:30:00 16161 260.900 5.0000 0.0000 0.0000 261.200 5.0000 0.0000 0.0000 260.500 5.0000 0.0000 0.0000 23.760 54.210 13.959 0.000 0.000 0.000 0.000 0.000         29.408 15.942 13.466
DSCMET_421 2016-09-27 16:25:00 16160 260.800 5.0000 0.0000 0.0000 261.200 5.0000 0.0000 0.0000 260.600 5.0000 0.0000 0.0000 24.070 53.310 13.988 0.000 0.000 0.000 0.000 0.000         29.961 15.972 13.989
DSCMET_421 2016-09-27 16:20:00 16159 260.800 5.0000 0.0000 0.0000 261.200 5.0000 0.0000 0.0000 260.600 5.0000 0.0000 0.0000 24.240 52.870 14.017 0.000 0.000 0.000 0.000 0.000         30.268 16.003 14.265
DSCMET_421 2016-09-27 16:15:00 16158 260.500 5.0000 0.0000 0.0000 261.200 5.0000 0.0000 0.0000 260.500 5.0000 0.0000 0.0000 24.420 52.250 14.002 0.000 0.000 0.000 0.000 0.000         30.596 15.986 14.610
DSCMET_421 2016-09-27 16:10:00 16157 260.700 5.0000 0.0000 0.0000 261.100 5.0000 0.0000 0.0000 260.700 5.0000 0.0000 0.0000 24.840 50.520 13.869 0.000 0.000 0.000 0.000 0.000         31.373 15.850 15.523
DSCMET_421 2016-09-27 16:05:00 16156 260.600 5.0000 0.0000 0.0000 261.100 5.0000 0.0000 0.0000 260.700 5.0000 0.0000 0.0000 24.870 50.690 13.949 0.000 0.000 0.000 0.000 0.000         31.429 15.932 15.498